<?xml version="1.0" encoding="UTF-8" standalone="no" ?>
<gpx xmlns="http://www.topografix.com/GPX/1/1" xmlns:xsi="http://www.w3.org/2001/XMLSchema-instance" xsi:schemaLocation="http://www.topografix.com/GPX/1/1 http://www.topografix.com/GPX/1/1/gpx.xsd" version="1.1" creator="VisuGPX - https://www.visugpx.com">
  <metadata>
    <name>Serre de Créma et montagne de Vautour</name>
    <desc><![CDATA[Sortie CAF Valence du 21 mars 2024 organisée par Marie-Aimée. Au départ des Nauds boucle classique du Serre de Créma (sens horaire) avec un aller/retour au sommet de la montagne de Vautour.

[b]Montagne de Vautour[/b]
Du col sans nom au nord de la montagne de Vautour (point 817 sur la carte IGN) une sente bien tracée et très raide (absente de la carte IGN) monte jusqu'au sommet nord (point 1025). De là une sente plus ou moins visible parcours l'arrête pour atteindre le sommet central puis le sommet principal (point 1049).]]></desc>
  </metadata>
  <trk>
    <name><![CDATA[2024-03-21 16:02:50]]></name>
    <trkseg>
      <trkpt lat="44.47808" lon="5.2211">
        <ele>679.31</ele>
        <time>2024-03-21T08:21:27Z</time>
      </trkpt>
      <trkpt lat="44.47813" lon="5.22092">
        <ele>679.31</ele>
        <time>2024-03-21T08:21:43Z</time>
      </trkpt>
      <trkpt lat="44.47813" lon="5.22087">
        <ele>678.83</ele>
        <time>2024-03-21T08:23:27Z</time>
      </trkpt>
      <trkpt lat="44.47805" lon="5.22078">
        <ele>678.35</ele>
        <time>2024-03-21T08:23:41Z</time>
      </trkpt>
      <trkpt lat="44.47786" lon="5.22062">
        <ele>676.91</ele>
        <time>2024-03-21T08:24:01Z</time>
      </trkpt>
      <trkpt lat="44.47778" lon="5.22051">
        <ele>676.42</ele>
        <time>2024-03-21T08:24:19Z</time>
      </trkpt>
      <trkpt lat="44.4777" lon="5.22033">
        <ele>675.94</ele>
        <time>2024-03-21T08:24:36Z</time>
      </trkpt>
      <trkpt lat="44.47769" lon="5.22016">
        <ele>675.94</ele>
        <time>2024-03-21T08:24:51Z</time>
      </trkpt>
      <trkpt lat="44.47775" lon="5.22002">
        <ele>675.46</ele>
        <time>2024-03-21T08:25:07Z</time>
      </trkpt>
      <trkpt lat="44.47786" lon="5.22002">
        <ele>674.5</ele>
        <time>2024-03-21T08:25:19Z</time>
      </trkpt>
      <trkpt lat="44.478" lon="5.21994">
        <ele>675.46</ele>
        <time>2024-03-21T08:25:34Z</time>
      </trkpt>
      <trkpt lat="44.47812" lon="5.2198">
        <ele>676.91</ele>
        <time>2024-03-21T08:25:49Z</time>
      </trkpt>
      <trkpt lat="44.47818" lon="5.2196">
        <ele>677.87</ele>
        <time>2024-03-21T08:26:04Z</time>
      </trkpt>
      <trkpt lat="44.47821" lon="5.21939">
        <ele>679.31</ele>
        <time>2024-03-21T08:26:18Z</time>
      </trkpt>
      <trkpt lat="44.47824" lon="5.21919">
        <ele>680.75</ele>
        <time>2024-03-21T08:26:32Z</time>
      </trkpt>
      <trkpt lat="44.47827" lon="5.21897">
        <ele>683.63</ele>
        <time>2024-03-21T08:26:48Z</time>
      </trkpt>
      <trkpt lat="44.4783" lon="5.21876">
        <ele>685.56</ele>
        <time>2024-03-21T08:27:04Z</time>
      </trkpt>
      <trkpt lat="44.47837" lon="5.21875">
        <ele>686.52</ele>
        <time>2024-03-21T08:27:17Z</time>
      </trkpt>
      <trkpt lat="44.47838" lon="5.21876">
        <ele>686.52</ele>
        <time>2024-03-21T08:27:19Z</time>
      </trkpt>
      <trkpt lat="44.4785" lon="5.21884">
        <ele>687.48</ele>
        <time>2024-03-21T08:27:34Z</time>
      </trkpt>
      <trkpt lat="44.47852" lon="5.21886">
        <ele>687.96</ele>
        <time>2024-03-21T08:27:37Z</time>
      </trkpt>
      <trkpt lat="44.47861" lon="5.21891">
        <ele>688.44</ele>
        <time>2024-03-21T08:27:47Z</time>
      </trkpt>
      <trkpt lat="44.47867" lon="5.21894">
        <ele>688.92</ele>
        <time>2024-03-21T08:27:53Z</time>
      </trkpt>
      <trkpt lat="44.47877" lon="5.21897">
        <ele>689.4</ele>
        <time>2024-03-21T08:28:02Z</time>
      </trkpt>
      <trkpt lat="44.47889" lon="5.21898">
        <ele>689.4</ele>
        <time>2024-03-21T08:28:14Z</time>
      </trkpt>
      <trkpt lat="44.47899" lon="5.21898">
        <ele>689.88</ele>
        <time>2024-03-21T08:28:28Z</time>
      </trkpt>
      <trkpt lat="44.47913" lon="5.21893">
        <ele>691.33</ele>
        <time>2024-03-21T08:28:43Z</time>
      </trkpt>
      <trkpt lat="44.47924" lon="5.21888">
        <ele>691.33</ele>
        <time>2024-03-21T08:28:57Z</time>
      </trkpt>
      <trkpt lat="44.47941" lon="5.21887">
        <ele>692.29</ele>
        <time>2024-03-21T08:29:12Z</time>
      </trkpt>
      <trkpt lat="44.47942" lon="5.21887">
        <ele>692.29</ele>
        <time>2024-03-21T08:29:13Z</time>
      </trkpt>
      <trkpt lat="44.4795" lon="5.21884">
        <ele>692.29</ele>
        <time>2024-03-21T08:29:20Z</time>
      </trkpt>
      <trkpt lat="44.47971" lon="5.21884">
        <ele>694.21</ele>
        <time>2024-03-21T08:29:39Z</time>
      </trkpt>
      <trkpt lat="44.47985" lon="5.21882">
        <ele>694.69</ele>
        <time>2024-03-21T08:29:53Z</time>
      </trkpt>
      <trkpt lat="44.48001" lon="5.21878">
        <ele>695.65</ele>
        <time>2024-03-21T08:30:08Z</time>
      </trkpt>
      <trkpt lat="44.4802" lon="5.21876">
        <ele>696.13</ele>
        <time>2024-03-21T08:30:24Z</time>
      </trkpt>
      <trkpt lat="44.48036" lon="5.21875">
        <ele>697.09</ele>
        <time>2024-03-21T08:30:40Z</time>
      </trkpt>
      <trkpt lat="44.48055" lon="5.21878">
        <ele>698.53</ele>
        <time>2024-03-21T08:30:57Z</time>
      </trkpt>
      <trkpt lat="44.48061" lon="5.21881">
        <ele>699.02</ele>
        <time>2024-03-21T08:31:03Z</time>
      </trkpt>
      <trkpt lat="44.48077" lon="5.21886">
        <ele>699.98</ele>
        <time>2024-03-21T08:31:20Z</time>
      </trkpt>
      <trkpt lat="44.48093" lon="5.21892">
        <ele>700.94</ele>
        <time>2024-03-21T08:31:34Z</time>
      </trkpt>
      <trkpt lat="44.48109" lon="5.21899">
        <ele>701.42</ele>
        <time>2024-03-21T08:31:51Z</time>
      </trkpt>
      <trkpt lat="44.48126" lon="5.21901">
        <ele>702.86</ele>
        <time>2024-03-21T08:32:06Z</time>
      </trkpt>
      <trkpt lat="44.48143" lon="5.21905">
        <ele>703.82</ele>
        <time>2024-03-21T08:32:22Z</time>
      </trkpt>
      <trkpt lat="44.48164" lon="5.2191">
        <ele>704.78</ele>
        <time>2024-03-21T08:32:39Z</time>
      </trkpt>
      <trkpt lat="44.48167" lon="5.21912">
        <ele>704.78</ele>
        <time>2024-03-21T08:32:42Z</time>
      </trkpt>
      <trkpt lat="44.48168" lon="5.21913">
        <ele>704.78</ele>
        <time>2024-03-21T08:32:44Z</time>
      </trkpt>
      <trkpt lat="44.48184" lon="5.2193">
        <ele>706.23</ele>
        <time>2024-03-21T08:33:02Z</time>
      </trkpt>
      <trkpt lat="44.48195" lon="5.21944">
        <ele>707.19</ele>
        <time>2024-03-21T08:33:16Z</time>
      </trkpt>
      <trkpt lat="44.48206" lon="5.21958">
        <ele>708.15</ele>
        <time>2024-03-21T08:33:29Z</time>
      </trkpt>
      <trkpt lat="44.48219" lon="5.21961">
        <ele>709.11</ele>
        <time>2024-03-21T08:33:44Z</time>
      </trkpt>
      <trkpt lat="44.4822" lon="5.21961">
        <ele>709.11</ele>
        <time>2024-03-21T08:33:45Z</time>
      </trkpt>
      <trkpt lat="44.48235" lon="5.21962">
        <ele>709.59</ele>
        <time>2024-03-21T08:34:00Z</time>
      </trkpt>
      <trkpt lat="44.48251" lon="5.2196">
        <ele>710.55</ele>
        <time>2024-03-21T08:34:15Z</time>
      </trkpt>
      <trkpt lat="44.48268" lon="5.2196">
        <ele>711.99</ele>
        <time>2024-03-21T08:34:31Z</time>
      </trkpt>
      <trkpt lat="44.48284" lon="5.2195">
        <ele>712.95</ele>
        <time>2024-03-21T08:34:48Z</time>
      </trkpt>
      <trkpt lat="44.483" lon="5.21937">
        <ele>713.92</ele>
        <time>2024-03-21T08:35:05Z</time>
      </trkpt>
      <trkpt lat="44.48316" lon="5.21925">
        <ele>714.4</ele>
        <time>2024-03-21T08:35:22Z</time>
      </trkpt>
      <trkpt lat="44.48329" lon="5.21916">
        <ele>715.36</ele>
        <time>2024-03-21T08:35:37Z</time>
      </trkpt>
      <trkpt lat="44.48339" lon="5.21907">
        <ele>715.84</ele>
        <time>2024-03-21T08:35:51Z</time>
      </trkpt>
      <trkpt lat="44.48343" lon="5.21904">
        <ele>715.84</ele>
        <time>2024-03-21T08:35:55Z</time>
      </trkpt>
      <trkpt lat="44.4836" lon="5.21893">
        <ele>717.28</ele>
        <time>2024-03-21T08:36:12Z</time>
      </trkpt>
      <trkpt lat="44.48377" lon="5.21884">
        <ele>718.24</ele>
        <time>2024-03-21T08:36:29Z</time>
      </trkpt>
      <trkpt lat="44.48396" lon="5.21876">
        <ele>719.2</ele>
        <time>2024-03-21T08:36:46Z</time>
      </trkpt>
      <trkpt lat="44.48414" lon="5.21867">
        <ele>720.65</ele>
        <time>2024-03-21T08:37:03Z</time>
      </trkpt>
      <trkpt lat="44.48433" lon="5.21856">
        <ele>721.61</ele>
        <time>2024-03-21T08:37:22Z</time>
      </trkpt>
      <trkpt lat="44.48449" lon="5.21845">
        <ele>723.05</ele>
        <time>2024-03-21T08:37:38Z</time>
      </trkpt>
      <trkpt lat="44.48464" lon="5.21836">
        <ele>724.49</ele>
        <time>2024-03-21T08:37:53Z</time>
      </trkpt>
      <trkpt lat="44.4848" lon="5.21839">
        <ele>725.45</ele>
        <time>2024-03-21T08:38:08Z</time>
      </trkpt>
      <trkpt lat="44.48483" lon="5.2184">
        <ele>725.45</ele>
        <time>2024-03-21T08:38:10Z</time>
      </trkpt>
      <trkpt lat="44.48492" lon="5.21863">
        <ele>727.37</ele>
        <time>2024-03-21T08:38:26Z</time>
      </trkpt>
      <trkpt lat="44.48491" lon="5.21887">
        <ele>728.34</ele>
        <time>2024-03-21T08:38:42Z</time>
      </trkpt>
      <trkpt lat="44.48485" lon="5.21913">
        <ele>729.78</ele>
        <time>2024-03-21T08:38:58Z</time>
      </trkpt>
      <trkpt lat="44.48486" lon="5.21938">
        <ele>731.22</ele>
        <time>2024-03-21T08:39:14Z</time>
      </trkpt>
      <trkpt lat="44.48491" lon="5.21969">
        <ele>731.7</ele>
        <time>2024-03-21T08:39:33Z</time>
      </trkpt>
      <trkpt lat="44.48489" lon="5.21999">
        <ele>733.62</ele>
        <time>2024-03-21T08:39:51Z</time>
      </trkpt>
      <trkpt lat="44.48487" lon="5.22007">
        <ele>734.1</ele>
        <time>2024-03-21T08:39:56Z</time>
      </trkpt>
      <trkpt lat="44.48487" lon="5.2201">
        <ele>734.1</ele>
        <time>2024-03-21T08:39:58Z</time>
      </trkpt>
      <trkpt lat="44.48487" lon="5.22035">
        <ele>736.03</ele>
        <time>2024-03-21T08:40:16Z</time>
      </trkpt>
      <trkpt lat="44.48485" lon="5.2204">
        <ele>736.03</ele>
        <time>2024-03-21T08:40:20Z</time>
      </trkpt>
      <trkpt lat="44.48478" lon="5.2205">
        <ele>734.58</ele>
        <time>2024-03-21T08:40:28Z</time>
      </trkpt>
      <trkpt lat="44.48467" lon="5.22068">
        <ele>734.58</ele>
        <time>2024-03-21T08:40:42Z</time>
      </trkpt>
      <trkpt lat="44.48468" lon="5.22089">
        <ele>734.58</ele>
        <time>2024-03-21T08:40:57Z</time>
      </trkpt>
      <trkpt lat="44.48467" lon="5.22107">
        <ele>734.58</ele>
        <time>2024-03-21T08:41:11Z</time>
      </trkpt>
      <trkpt lat="44.48466" lon="5.22113">
        <ele>734.58</ele>
        <time>2024-03-21T08:41:24Z</time>
      </trkpt>
      <trkpt lat="44.48468" lon="5.22122">
        <ele>734.58</ele>
        <time>2024-03-21T08:41:36Z</time>
      </trkpt>
      <trkpt lat="44.48468" lon="5.22131">
        <ele>735.55</ele>
        <time>2024-03-21T08:41:43Z</time>
      </trkpt>
      <trkpt lat="44.48468" lon="5.22138">
        <ele>736.03</ele>
        <time>2024-03-21T08:41:46Z</time>
      </trkpt>
      <trkpt lat="44.48469" lon="5.2216">
        <ele>737.47</ele>
        <time>2024-03-21T08:42:03Z</time>
      </trkpt>
      <trkpt lat="44.48469" lon="5.2217">
        <ele>738.43</ele>
        <time>2024-03-21T08:42:11Z</time>
      </trkpt>
      <trkpt lat="44.48467" lon="5.22184">
        <ele>739.39</ele>
        <time>2024-03-21T08:42:24Z</time>
      </trkpt>
      <trkpt lat="44.48467" lon="5.22192">
        <ele>739.87</ele>
        <time>2024-03-21T08:42:29Z</time>
      </trkpt>
      <trkpt lat="44.48473" lon="5.22205">
        <ele>741.31</ele>
        <time>2024-03-21T08:42:42Z</time>
      </trkpt>
      <trkpt lat="44.48477" lon="5.22217">
        <ele>742.76</ele>
        <time>2024-03-21T08:42:54Z</time>
      </trkpt>
      <trkpt lat="44.48478" lon="5.22218">
        <ele>743.24</ele>
        <time>2024-03-21T08:42:56Z</time>
      </trkpt>
      <trkpt lat="44.48484" lon="5.22219">
        <ele>745.16</ele>
        <time>2024-03-21T08:43:09Z</time>
      </trkpt>
      <trkpt lat="44.48488" lon="5.22221">
        <ele>746.12</ele>
        <time>2024-03-21T08:43:20Z</time>
      </trkpt>
      <trkpt lat="44.48493" lon="5.22226">
        <ele>747.08</ele>
        <time>2024-03-21T08:43:29Z</time>
      </trkpt>
      <trkpt lat="44.48505" lon="5.22238">
        <ele>748.52</ele>
        <time>2024-03-21T08:43:44Z</time>
      </trkpt>
      <trkpt lat="44.48509" lon="5.22247">
        <ele>750.45</ele>
        <time>2024-03-21T08:43:59Z</time>
      </trkpt>
      <trkpt lat="44.48517" lon="5.22253">
        <ele>752.85</ele>
        <time>2024-03-21T08:44:12Z</time>
      </trkpt>
      <trkpt lat="44.48523" lon="5.22259">
        <ele>755.25</ele>
        <time>2024-03-21T08:44:29Z</time>
      </trkpt>
      <trkpt lat="44.48524" lon="5.2227">
        <ele>757.18</ele>
        <time>2024-03-21T08:44:45Z</time>
      </trkpt>
      <trkpt lat="44.48522" lon="5.22277">
        <ele>758.62</ele>
        <time>2024-03-21T08:47:51Z</time>
      </trkpt>
      <trkpt lat="44.48523" lon="5.22286">
        <ele>761.02</ele>
        <time>2024-03-21T08:48:07Z</time>
      </trkpt>
      <trkpt lat="44.48526" lon="5.22298">
        <ele>762.94</ele>
        <time>2024-03-21T08:48:24Z</time>
      </trkpt>
      <trkpt lat="44.48529" lon="5.2231">
        <ele>764.87</ele>
        <time>2024-03-21T08:48:40Z</time>
      </trkpt>
      <trkpt lat="44.48537" lon="5.2232">
        <ele>767.75</ele>
        <time>2024-03-21T08:48:57Z</time>
      </trkpt>
      <trkpt lat="44.48544" lon="5.22329">
        <ele>769.19</ele>
        <time>2024-03-21T08:49:11Z</time>
      </trkpt>
      <trkpt lat="44.48551" lon="5.22338">
        <ele>770.15</ele>
        <time>2024-03-21T08:49:22Z</time>
      </trkpt>
      <trkpt lat="44.48558" lon="5.22349">
        <ele>773.04</ele>
        <time>2024-03-21T08:49:38Z</time>
      </trkpt>
      <trkpt lat="44.48559" lon="5.22365">
        <ele>774.48</ele>
        <time>2024-03-21T08:49:52Z</time>
      </trkpt>
      <trkpt lat="44.48559" lon="5.22381">
        <ele>775.44</ele>
        <time>2024-03-21T08:50:08Z</time>
      </trkpt>
      <trkpt lat="44.48563" lon="5.22395">
        <ele>777.36</ele>
        <time>2024-03-21T08:50:23Z</time>
      </trkpt>
      <trkpt lat="44.48565" lon="5.22414">
        <ele>778.81</ele>
        <time>2024-03-21T08:50:39Z</time>
      </trkpt>
      <trkpt lat="44.48566" lon="5.22433">
        <ele>780.73</ele>
        <time>2024-03-21T08:50:56Z</time>
      </trkpt>
      <trkpt lat="44.4857" lon="5.22444">
        <ele>782.17</ele>
        <time>2024-03-21T08:51:08Z</time>
      </trkpt>
      <trkpt lat="44.48579" lon="5.22459">
        <ele>784.09</ele>
        <time>2024-03-21T08:51:24Z</time>
      </trkpt>
      <trkpt lat="44.48584" lon="5.22463">
        <ele>785.05</ele>
        <time>2024-03-21T08:51:32Z</time>
      </trkpt>
      <trkpt lat="44.48593" lon="5.22475">
        <ele>787.46</ele>
        <time>2024-03-21T08:51:49Z</time>
      </trkpt>
      <trkpt lat="44.48599" lon="5.22479">
        <ele>788.42</ele>
        <time>2024-03-21T08:52:03Z</time>
      </trkpt>
      <trkpt lat="44.4861" lon="5.22486">
        <ele>789.86</ele>
        <time>2024-03-21T08:52:18Z</time>
      </trkpt>
      <trkpt lat="44.48622" lon="5.22491">
        <ele>791.3</ele>
        <time>2024-03-21T08:52:33Z</time>
      </trkpt>
      <trkpt lat="44.48637" lon="5.22501">
        <ele>792.26</ele>
        <time>2024-03-21T08:52:49Z</time>
      </trkpt>
      <trkpt lat="44.48649" lon="5.22511">
        <ele>794.67</ele>
        <time>2024-03-21T08:53:05Z</time>
      </trkpt>
      <trkpt lat="44.48661" lon="5.22513">
        <ele>795.63</ele>
        <time>2024-03-21T08:53:20Z</time>
      </trkpt>
      <trkpt lat="44.48662" lon="5.22513">
        <ele>796.11</ele>
        <time>2024-03-21T08:53:22Z</time>
      </trkpt>
      <trkpt lat="44.48673" lon="5.22515">
        <ele>798.03</ele>
        <time>2024-03-21T08:53:37Z</time>
      </trkpt>
      <trkpt lat="44.48677" lon="5.22514">
        <ele>798.99</ele>
        <time>2024-03-21T08:53:42Z</time>
      </trkpt>
      <trkpt lat="44.48686" lon="5.22516">
        <ele>799.47</ele>
        <time>2024-03-21T08:53:52Z</time>
      </trkpt>
      <trkpt lat="44.4869" lon="5.22518">
        <ele>799.95</ele>
        <time>2024-03-21T08:53:56Z</time>
      </trkpt>
      <trkpt lat="44.48706" lon="5.22519">
        <ele>800.92</ele>
        <time>2024-03-21T08:54:10Z</time>
      </trkpt>
      <trkpt lat="44.48721" lon="5.2252">
        <ele>801.88</ele>
        <time>2024-03-21T08:54:26Z</time>
      </trkpt>
      <trkpt lat="44.48737" lon="5.22522">
        <ele>802.36</ele>
        <time>2024-03-21T08:54:42Z</time>
      </trkpt>
      <trkpt lat="44.48751" lon="5.22514">
        <ele>803.32</ele>
        <time>2024-03-21T08:54:56Z</time>
      </trkpt>
      <trkpt lat="44.48764" lon="5.22513">
        <ele>806.2</ele>
        <time>2024-03-21T08:55:14Z</time>
      </trkpt>
      <trkpt lat="44.48778" lon="5.22515">
        <ele>807.64</ele>
        <time>2024-03-21T08:55:31Z</time>
      </trkpt>
      <trkpt lat="44.48794" lon="5.22525">
        <ele>808.13</ele>
        <time>2024-03-21T08:55:48Z</time>
      </trkpt>
      <trkpt lat="44.48797" lon="5.22527">
        <ele>808.61</ele>
        <time>2024-03-21T08:55:52Z</time>
      </trkpt>
      <trkpt lat="44.48804" lon="5.22541">
        <ele>808.61</ele>
        <time>2024-03-21T08:56:05Z</time>
      </trkpt>
      <trkpt lat="44.48814" lon="5.22542">
        <ele>810.05</ele>
        <time>2024-03-21T08:56:16Z</time>
      </trkpt>
      <trkpt lat="44.48828" lon="5.22544">
        <ele>811.49</ele>
        <time>2024-03-21T08:56:30Z</time>
      </trkpt>
      <trkpt lat="44.48839" lon="5.22543">
        <ele>813.89</ele>
        <time>2024-03-21T08:56:44Z</time>
      </trkpt>
      <trkpt lat="44.48852" lon="5.22541">
        <ele>814.37</ele>
        <time>2024-03-21T08:56:59Z</time>
      </trkpt>
      <trkpt lat="44.48867" lon="5.22547">
        <ele>817.74</ele>
        <time>2024-03-21T08:57:56Z</time>
      </trkpt>
      <trkpt lat="44.48874" lon="5.22551">
        <ele>816.78</ele>
        <time>2024-03-21T08:58:08Z</time>
      </trkpt>
      <trkpt lat="44.48885" lon="5.22558">
        <ele>819.18</ele>
        <time>2024-03-21T08:58:23Z</time>
      </trkpt>
      <trkpt lat="44.489" lon="5.22569">
        <ele>821.58</ele>
        <time>2024-03-21T08:58:41Z</time>
      </trkpt>
      <trkpt lat="44.48906" lon="5.22575">
        <ele>823.99</ele>
        <time>2024-03-21T08:58:56Z</time>
      </trkpt>
      <trkpt lat="44.48913" lon="5.22583">
        <ele>826.87</ele>
        <time>2024-03-21T08:59:11Z</time>
      </trkpt>
      <trkpt lat="44.48918" lon="5.22587">
        <ele>827.83</ele>
        <time>2024-03-21T08:59:21Z</time>
      </trkpt>
      <trkpt lat="44.48925" lon="5.22593">
        <ele>829.27</ele>
        <time>2024-03-21T08:59:32Z</time>
      </trkpt>
      <trkpt lat="44.48929" lon="5.22597">
        <ele>831.2</ele>
        <time>2024-03-21T08:59:46Z</time>
      </trkpt>
      <trkpt lat="44.48938" lon="5.22604">
        <ele>833.12</ele>
        <time>2024-03-21T09:00:03Z</time>
      </trkpt>
      <trkpt lat="44.48947" lon="5.22612">
        <ele>834.56</ele>
        <time>2024-03-21T09:00:19Z</time>
      </trkpt>
      <trkpt lat="44.48953" lon="5.22615">
        <ele>836.48</ele>
        <time>2024-03-21T09:00:31Z</time>
      </trkpt>
      <trkpt lat="44.48963" lon="5.22617">
        <ele>837.93</ele>
        <time>2024-03-21T09:00:44Z</time>
      </trkpt>
      <trkpt lat="44.48974" lon="5.22621">
        <ele>839.37</ele>
        <time>2024-03-21T09:00:58Z</time>
      </trkpt>
      <trkpt lat="44.48991" lon="5.22617">
        <ele>840.81</ele>
        <time>2024-03-21T09:01:14Z</time>
      </trkpt>
      <trkpt lat="44.49" lon="5.22609">
        <ele>842.73</ele>
        <time>2024-03-21T09:01:28Z</time>
      </trkpt>
      <trkpt lat="44.49014" lon="5.22603">
        <ele>845.14</ele>
        <time>2024-03-21T09:01:46Z</time>
      </trkpt>
      <trkpt lat="44.49025" lon="5.22608">
        <ele>846.1</ele>
        <time>2024-03-21T09:01:58Z</time>
      </trkpt>
      <trkpt lat="44.49036" lon="5.22612">
        <ele>846.1</ele>
        <time>2024-03-21T09:02:12Z</time>
      </trkpt>
      <trkpt lat="44.49038" lon="5.22609">
        <ele>846.58</ele>
        <time>2024-03-21T09:02:28Z</time>
      </trkpt>
      <trkpt lat="44.49043" lon="5.22599">
        <ele>848.5</ele>
        <time>2024-03-21T09:02:43Z</time>
      </trkpt>
      <trkpt lat="44.49047" lon="5.22592">
        <ele>851.87</ele>
        <time>2024-03-21T09:02:58Z</time>
      </trkpt>
      <trkpt lat="44.49052" lon="5.22591">
        <ele>854.27</ele>
        <time>2024-03-21T09:03:12Z</time>
      </trkpt>
      <trkpt lat="44.49059" lon="5.22592">
        <ele>856.67</ele>
        <time>2024-03-21T09:03:26Z</time>
      </trkpt>
      <trkpt lat="44.49069" lon="5.22593">
        <ele>859.08</ele>
        <time>2024-03-21T09:03:42Z</time>
      </trkpt>
      <trkpt lat="44.49075" lon="5.22594">
        <ele>861.96</ele>
        <time>2024-03-21T09:03:58Z</time>
      </trkpt>
      <trkpt lat="44.49082" lon="5.22594">
        <ele>865.8</ele>
        <time>2024-03-21T09:04:15Z</time>
      </trkpt>
      <trkpt lat="44.49091" lon="5.22596">
        <ele>867.73</ele>
        <time>2024-03-21T09:04:31Z</time>
      </trkpt>
      <trkpt lat="44.49103" lon="5.22598">
        <ele>870.13</ele>
        <time>2024-03-21T09:04:46Z</time>
      </trkpt>
      <trkpt lat="44.49115" lon="5.22599">
        <ele>872.53</ele>
        <time>2024-03-21T09:05:03Z</time>
      </trkpt>
      <trkpt lat="44.49126" lon="5.22602">
        <ele>874.94</ele>
        <time>2024-03-21T09:05:17Z</time>
      </trkpt>
      <trkpt lat="44.49136" lon="5.22607">
        <ele>877.82</ele>
        <time>2024-03-21T09:05:32Z</time>
      </trkpt>
      <trkpt lat="44.49147" lon="5.22611">
        <ele>880.22</ele>
        <time>2024-03-21T09:05:47Z</time>
      </trkpt>
      <trkpt lat="44.49159" lon="5.22617">
        <ele>881.67</ele>
        <time>2024-03-21T09:06:01Z</time>
      </trkpt>
      <trkpt lat="44.49174" lon="5.22622">
        <ele>883.11</ele>
        <time>2024-03-21T09:06:17Z</time>
      </trkpt>
      <trkpt lat="44.49185" lon="5.22624">
        <ele>884.07</ele>
        <time>2024-03-21T09:06:31Z</time>
      </trkpt>
      <trkpt lat="44.49199" lon="5.22626">
        <ele>885.51</ele>
        <time>2024-03-21T09:06:46Z</time>
      </trkpt>
      <trkpt lat="44.49202" lon="5.22626">
        <ele>885.99</ele>
        <time>2024-03-21T09:06:49Z</time>
      </trkpt>
      <trkpt lat="44.49216" lon="5.22629">
        <ele>887.91</ele>
        <time>2024-03-21T09:07:06Z</time>
      </trkpt>
      <trkpt lat="44.49227" lon="5.22628">
        <ele>890.32</ele>
        <time>2024-03-21T09:07:21Z</time>
      </trkpt>
      <trkpt lat="44.4924" lon="5.2263">
        <ele>892.24</ele>
        <time>2024-03-21T09:07:36Z</time>
      </trkpt>
      <trkpt lat="44.49241" lon="5.2263">
        <ele>892.24</ele>
        <time>2024-03-21T09:07:37Z</time>
      </trkpt>
      <trkpt lat="44.49254" lon="5.22634">
        <ele>894.16</ele>
        <time>2024-03-21T09:07:51Z</time>
      </trkpt>
      <trkpt lat="44.49267" lon="5.22639">
        <ele>895.61</ele>
        <time>2024-03-21T09:08:06Z</time>
      </trkpt>
      <trkpt lat="44.49281" lon="5.22641">
        <ele>897.05</ele>
        <time>2024-03-21T09:08:21Z</time>
      </trkpt>
      <trkpt lat="44.49293" lon="5.22647">
        <ele>898.49</ele>
        <time>2024-03-21T09:08:35Z</time>
      </trkpt>
      <trkpt lat="44.49303" lon="5.22651">
        <ele>900.41</ele>
        <time>2024-03-21T09:08:49Z</time>
      </trkpt>
      <trkpt lat="44.49314" lon="5.22654">
        <ele>902.82</ele>
        <time>2024-03-21T09:09:04Z</time>
      </trkpt>
      <trkpt lat="44.49322" lon="5.22658">
        <ele>905.7</ele>
        <time>2024-03-21T09:09:18Z</time>
      </trkpt>
      <trkpt lat="44.49329" lon="5.22658">
        <ele>908.58</ele>
        <time>2024-03-21T09:09:33Z</time>
      </trkpt>
      <trkpt lat="44.49335" lon="5.2266">
        <ele>910.51</ele>
        <time>2024-03-21T09:09:45Z</time>
      </trkpt>
      <trkpt lat="44.49346" lon="5.22667">
        <ele>913.87</ele>
        <time>2024-03-21T09:10:03Z</time>
      </trkpt>
      <trkpt lat="44.49355" lon="5.22674">
        <ele>916.75</ele>
        <time>2024-03-21T09:10:20Z</time>
      </trkpt>
      <trkpt lat="44.49363" lon="5.22675">
        <ele>919.16</ele>
        <time>2024-03-21T09:10:33Z</time>
      </trkpt>
      <trkpt lat="44.4937" lon="5.22675">
        <ele>922.04</ele>
        <time>2024-03-21T09:10:50Z</time>
      </trkpt>
      <trkpt lat="44.49379" lon="5.22673">
        <ele>924.93</ele>
        <time>2024-03-21T09:11:08Z</time>
      </trkpt>
      <trkpt lat="44.49392" lon="5.22674">
        <ele>926.85</ele>
        <time>2024-03-21T09:11:24Z</time>
      </trkpt>
      <trkpt lat="44.49406" lon="5.22674">
        <ele>926.85</ele>
        <time>2024-03-21T09:11:39Z</time>
      </trkpt>
      <trkpt lat="44.49419" lon="5.22683">
        <ele>928.77</ele>
        <time>2024-03-21T09:11:54Z</time>
      </trkpt>
      <trkpt lat="44.49429" lon="5.22686">
        <ele>930.21</ele>
        <time>2024-03-21T09:12:07Z</time>
      </trkpt>
      <trkpt lat="44.49436" lon="5.22688">
        <ele>933.58</ele>
        <time>2024-03-21T09:12:21Z</time>
      </trkpt>
      <trkpt lat="44.49447" lon="5.22691">
        <ele>935.5</ele>
        <time>2024-03-21T09:12:35Z</time>
      </trkpt>
      <trkpt lat="44.49452" lon="5.22694">
        <ele>936.94</ele>
        <time>2024-03-21T09:12:49Z</time>
      </trkpt>
      <trkpt lat="44.49456" lon="5.22697">
        <ele>938.86</ele>
        <time>2024-03-21T09:13:06Z</time>
      </trkpt>
      <trkpt lat="44.49462" lon="5.22701">
        <ele>941.27</ele>
        <time>2024-03-21T09:13:19Z</time>
      </trkpt>
      <trkpt lat="44.49468" lon="5.227">
        <ele>943.67</ele>
        <time>2024-03-21T09:13:34Z</time>
      </trkpt>
      <trkpt lat="44.49473" lon="5.22695">
        <ele>946.07</ele>
        <time>2024-03-21T09:13:49Z</time>
      </trkpt>
      <trkpt lat="44.49478" lon="5.2269">
        <ele>948.96</ele>
        <time>2024-03-21T09:14:06Z</time>
      </trkpt>
      <trkpt lat="44.49479" lon="5.22686">
        <ele>951.36</ele>
        <time>2024-03-21T09:14:19Z</time>
      </trkpt>
      <trkpt lat="44.49483" lon="5.22681">
        <ele>954.73</ele>
        <time>2024-03-21T09:14:35Z</time>
      </trkpt>
      <trkpt lat="44.49486" lon="5.22674">
        <ele>957.61</ele>
        <time>2024-03-21T09:14:50Z</time>
      </trkpt>
      <trkpt lat="44.49494" lon="5.22667">
        <ele>960.49</ele>
        <time>2024-03-21T09:15:08Z</time>
      </trkpt>
      <trkpt lat="44.49498" lon="5.22664">
        <ele>962.42</ele>
        <time>2024-03-21T09:15:25Z</time>
      </trkpt>
      <trkpt lat="44.49501" lon="5.22659">
        <ele>964.82</ele>
        <time>2024-03-21T09:15:40Z</time>
      </trkpt>
      <trkpt lat="44.49501" lon="5.22654">
        <ele>967.7</ele>
        <time>2024-03-21T09:15:58Z</time>
      </trkpt>
      <trkpt lat="44.495" lon="5.22648">
        <ele>971.07</ele>
        <time>2024-03-21T09:16:14Z</time>
      </trkpt>
      <trkpt lat="44.49498" lon="5.22639">
        <ele>973.95</ele>
        <time>2024-03-21T09:16:31Z</time>
      </trkpt>
      <trkpt lat="44.49496" lon="5.22628">
        <ele>976.36</ele>
        <time>2024-03-21T09:16:47Z</time>
      </trkpt>
      <trkpt lat="44.49502" lon="5.22621">
        <ele>978.28</ele>
        <time>2024-03-21T09:17:03Z</time>
      </trkpt>
      <trkpt lat="44.49507" lon="5.22616">
        <ele>981.16</ele>
        <time>2024-03-21T09:17:19Z</time>
      </trkpt>
      <trkpt lat="44.49507" lon="5.22611">
        <ele>983.57</ele>
        <time>2024-03-21T09:17:33Z</time>
      </trkpt>
      <trkpt lat="44.4951" lon="5.22605">
        <ele>985.97</ele>
        <time>2024-03-21T09:17:48Z</time>
      </trkpt>
      <trkpt lat="44.49512" lon="5.22597">
        <ele>989.33</ele>
        <time>2024-03-21T09:18:04Z</time>
      </trkpt>
      <trkpt lat="44.49516" lon="5.22592">
        <ele>991.26</ele>
        <time>2024-03-21T09:18:21Z</time>
      </trkpt>
      <trkpt lat="44.49523" lon="5.22588">
        <ele>994.14</ele>
        <time>2024-03-21T09:18:35Z</time>
      </trkpt>
      <trkpt lat="44.49527" lon="5.22588">
        <ele>994.14</ele>
        <time>2024-03-21T09:18:54Z</time>
      </trkpt>
      <trkpt lat="44.49534" lon="5.2259">
        <ele>993.66</ele>
        <time>2024-03-21T09:25:56Z</time>
      </trkpt>
      <trkpt lat="44.49539" lon="5.22593">
        <ele>994.14</ele>
        <time>2024-03-21T09:26:11Z</time>
      </trkpt>
      <trkpt lat="44.49549" lon="5.22592">
        <ele>995.1</ele>
        <time>2024-03-21T09:27:34Z</time>
      </trkpt>
      <trkpt lat="44.49555" lon="5.22591">
        <ele>995.1</ele>
        <time>2024-03-21T09:27:53Z</time>
      </trkpt>
      <trkpt lat="44.49556" lon="5.22592">
        <ele>995.58</ele>
        <time>2024-03-21T09:28:08Z</time>
      </trkpt>
      <trkpt lat="44.49566" lon="5.22593">
        <ele>996.06</ele>
        <time>2024-03-21T09:28:17Z</time>
      </trkpt>
      <trkpt lat="44.49588" lon="5.22601">
        <ele>997.02</ele>
        <time>2024-03-21T09:28:35Z</time>
      </trkpt>
      <trkpt lat="44.49609" lon="5.22609">
        <ele>998.47</ele>
        <time>2024-03-21T09:28:52Z</time>
      </trkpt>
      <trkpt lat="44.49631" lon="5.22622">
        <ele>999.91</ele>
        <time>2024-03-21T09:29:09Z</time>
      </trkpt>
      <trkpt lat="44.49637" lon="5.22622">
        <ele>999.91</ele>
        <time>2024-03-21T09:29:24Z</time>
      </trkpt>
      <trkpt lat="44.49642" lon="5.22615">
        <ele>1002.79</ele>
        <time>2024-03-21T09:29:42Z</time>
      </trkpt>
      <trkpt lat="44.49648" lon="5.22606">
        <ele>1005.2</ele>
        <time>2024-03-21T09:29:59Z</time>
      </trkpt>
      <trkpt lat="44.49656" lon="5.22597">
        <ele>1008.56</ele>
        <time>2024-03-21T09:30:18Z</time>
      </trkpt>
      <trkpt lat="44.49666" lon="5.22592">
        <ele>1010.96</ele>
        <time>2024-03-21T09:30:34Z</time>
      </trkpt>
      <trkpt lat="44.49674" lon="5.22596">
        <ele>1012.41</ele>
        <time>2024-03-21T09:30:49Z</time>
      </trkpt>
      <trkpt lat="44.4968" lon="5.22592">
        <ele>1014.81</ele>
        <time>2024-03-21T09:31:02Z</time>
      </trkpt>
      <trkpt lat="44.49686" lon="5.22588">
        <ele>1017.21</ele>
        <time>2024-03-21T09:31:20Z</time>
      </trkpt>
      <trkpt lat="44.49693" lon="5.22581">
        <ele>1020.58</ele>
        <time>2024-03-21T09:31:38Z</time>
      </trkpt>
      <trkpt lat="44.49703" lon="5.22585">
        <ele>1021.54</ele>
        <time>2024-03-21T09:31:53Z</time>
      </trkpt>
      <trkpt lat="44.49705" lon="5.22601">
        <ele>1023.46</ele>
        <time>2024-03-21T09:32:08Z</time>
      </trkpt>
      <trkpt lat="44.49709" lon="5.22622">
        <ele>1024.9</ele>
        <time>2024-03-21T09:32:25Z</time>
      </trkpt>
      <trkpt lat="44.4971" lon="5.22636">
        <ele>1026.34</ele>
        <time>2024-03-21T09:32:40Z</time>
      </trkpt>
      <trkpt lat="44.4971" lon="5.22652">
        <ele>1029.23</ele>
        <time>2024-03-21T09:32:56Z</time>
      </trkpt>
      <trkpt lat="44.4971" lon="5.2267">
        <ele>1030.67</ele>
        <time>2024-03-21T09:33:13Z</time>
      </trkpt>
      <trkpt lat="44.49711" lon="5.22689">
        <ele>1033.07</ele>
        <time>2024-03-21T09:33:31Z</time>
      </trkpt>
      <trkpt lat="44.4971" lon="5.22703">
        <ele>1035</ele>
        <time>2024-03-21T09:33:47Z</time>
      </trkpt>
      <trkpt lat="44.49709" lon="5.2271">
        <ele>1035.96</ele>
        <time>2024-03-21T09:33:53Z</time>
      </trkpt>
      <trkpt lat="44.49708" lon="5.22728">
        <ele>1036.92</ele>
        <time>2024-03-21T09:34:06Z</time>
      </trkpt>
      <trkpt lat="44.49703" lon="5.22747">
        <ele>1037.88</ele>
        <time>2024-03-21T09:34:21Z</time>
      </trkpt>
      <trkpt lat="44.49698" lon="5.22766">
        <ele>1039.8</ele>
        <time>2024-03-21T09:34:37Z</time>
      </trkpt>
      <trkpt lat="44.49694" lon="5.22783">
        <ele>1041.25</ele>
        <time>2024-03-21T09:34:51Z</time>
      </trkpt>
      <trkpt lat="44.4969" lon="5.228">
        <ele>1042.21</ele>
        <time>2024-03-21T09:35:06Z</time>
      </trkpt>
      <trkpt lat="44.49686" lon="5.22812">
        <ele>1042.69</ele>
        <time>2024-03-21T09:35:22Z</time>
      </trkpt>
      <trkpt lat="44.49683" lon="5.2282">
        <ele>1043.17</ele>
        <time>2024-03-21T09:35:43Z</time>
      </trkpt>
      <trkpt lat="44.49681" lon="5.2283">
        <ele>1044.13</ele>
        <time>2024-03-21T09:35:59Z</time>
      </trkpt>
      <trkpt lat="44.49678" lon="5.22843">
        <ele>1046.05</ele>
        <time>2024-03-21T09:36:13Z</time>
      </trkpt>
      <trkpt lat="44.49674" lon="5.22857">
        <ele>1048.45</ele>
        <time>2024-03-21T09:36:29Z</time>
      </trkpt>
      <trkpt lat="44.49671" lon="5.2287">
        <ele>1050.38</ele>
        <time>2024-03-21T09:36:42Z</time>
      </trkpt>
      <trkpt lat="44.49664" lon="5.22884">
        <ele>1052.78</ele>
        <time>2024-03-21T09:36:58Z</time>
      </trkpt>
      <trkpt lat="44.49657" lon="5.22899">
        <ele>1054.7</ele>
        <time>2024-03-21T09:37:15Z</time>
      </trkpt>
      <trkpt lat="44.49648" lon="5.22914">
        <ele>1056.15</ele>
        <time>2024-03-21T09:37:32Z</time>
      </trkpt>
      <trkpt lat="44.49641" lon="5.22931">
        <ele>1058.55</ele>
        <time>2024-03-21T09:37:49Z</time>
      </trkpt>
      <trkpt lat="44.49633" lon="5.22942">
        <ele>1059.03</ele>
        <time>2024-03-21T09:38:03Z</time>
      </trkpt>
      <trkpt lat="44.49627" lon="5.22956">
        <ele>1060.95</ele>
        <time>2024-03-21T09:38:19Z</time>
      </trkpt>
      <trkpt lat="44.49627" lon="5.22964">
        <ele>1062.87</ele>
        <time>2024-03-21T09:38:34Z</time>
      </trkpt>
      <trkpt lat="44.49623" lon="5.22975">
        <ele>1065.76</ele>
        <time>2024-03-21T09:38:51Z</time>
      </trkpt>
      <trkpt lat="44.49619" lon="5.22986">
        <ele>1067.68</ele>
        <time>2024-03-21T09:39:04Z</time>
      </trkpt>
      <trkpt lat="44.49613" lon="5.23">
        <ele>1069.12</ele>
        <time>2024-03-21T09:39:19Z</time>
      </trkpt>
      <trkpt lat="44.49612" lon="5.2301">
        <ele>1071.53</ele>
        <time>2024-03-21T09:39:35Z</time>
      </trkpt>
      <trkpt lat="44.49613" lon="5.23017">
        <ele>1073.93</ele>
        <time>2024-03-21T09:39:53Z</time>
      </trkpt>
      <trkpt lat="44.49612" lon="5.23029">
        <ele>1077.29</ele>
        <time>2024-03-21T09:40:12Z</time>
      </trkpt>
      <trkpt lat="44.49608" lon="5.23046">
        <ele>1078.74</ele>
        <time>2024-03-21T09:40:27Z</time>
      </trkpt>
      <trkpt lat="44.49603" lon="5.23061">
        <ele>1079.7</ele>
        <time>2024-03-21T09:40:41Z</time>
      </trkpt>
      <trkpt lat="44.496" lon="5.23077">
        <ele>1081.14</ele>
        <time>2024-03-21T09:40:56Z</time>
      </trkpt>
      <trkpt lat="44.49598" lon="5.23089">
        <ele>1083.54</ele>
        <time>2024-03-21T09:41:11Z</time>
      </trkpt>
      <trkpt lat="44.49592" lon="5.23104">
        <ele>1084.02</ele>
        <time>2024-03-21T09:41:26Z</time>
      </trkpt>
      <trkpt lat="44.49587" lon="5.23118">
        <ele>1085.47</ele>
        <time>2024-03-21T09:41:42Z</time>
      </trkpt>
      <trkpt lat="44.49581" lon="5.23131">
        <ele>1085.47</ele>
        <time>2024-03-21T09:41:56Z</time>
      </trkpt>
      <trkpt lat="44.49579" lon="5.2314">
        <ele>1086.91</ele>
        <time>2024-03-21T09:42:13Z</time>
      </trkpt>
      <trkpt lat="44.49574" lon="5.23154">
        <ele>1087.39</ele>
        <time>2024-03-21T09:42:28Z</time>
      </trkpt>
      <trkpt lat="44.49571" lon="5.23172">
        <ele>1089.31</ele>
        <time>2024-03-21T09:42:46Z</time>
      </trkpt>
      <trkpt lat="44.49567" lon="5.23184">
        <ele>1090.27</ele>
        <time>2024-03-21T09:42:57Z</time>
      </trkpt>
      <trkpt lat="44.49563" lon="5.23201">
        <ele>1090.75</ele>
        <time>2024-03-21T09:43:12Z</time>
      </trkpt>
      <trkpt lat="44.49561" lon="5.23216">
        <ele>1092.68</ele>
        <time>2024-03-21T09:43:26Z</time>
      </trkpt>
      <trkpt lat="44.49559" lon="5.23232">
        <ele>1094.12</ele>
        <time>2024-03-21T09:43:39Z</time>
      </trkpt>
      <trkpt lat="44.49553" lon="5.23248">
        <ele>1096.04</ele>
        <time>2024-03-21T09:43:55Z</time>
      </trkpt>
      <trkpt lat="44.49546" lon="5.23263">
        <ele>1097</ele>
        <time>2024-03-21T09:44:12Z</time>
      </trkpt>
      <trkpt lat="44.4954" lon="5.23273">
        <ele>1098.44</ele>
        <time>2024-03-21T09:44:27Z</time>
      </trkpt>
      <trkpt lat="44.49531" lon="5.23281">
        <ele>1100.85</ele>
        <time>2024-03-21T09:44:42Z</time>
      </trkpt>
      <trkpt lat="44.49523" lon="5.23287">
        <ele>1102.29</ele>
        <time>2024-03-21T09:44:57Z</time>
      </trkpt>
      <trkpt lat="44.49516" lon="5.23293">
        <ele>1104.21</ele>
        <time>2024-03-21T09:45:12Z</time>
      </trkpt>
      <trkpt lat="44.4951" lon="5.23298">
        <ele>1107.1</ele>
        <time>2024-03-21T09:45:29Z</time>
      </trkpt>
      <trkpt lat="44.49505" lon="5.23302">
        <ele>1109.98</ele>
        <time>2024-03-21T09:45:47Z</time>
      </trkpt>
      <trkpt lat="44.49507" lon="5.23306">
        <ele>1110.94</ele>
        <time>2024-03-21T09:46:00Z</time>
      </trkpt>
      <trkpt lat="44.49508" lon="5.23309">
        <ele>1111.42</ele>
        <time>2024-03-21T09:46:28Z</time>
      </trkpt>
      <trkpt lat="44.49503" lon="5.23312">
        <ele>1111.9</ele>
        <time>2024-03-21T09:46:36Z</time>
      </trkpt>
      <trkpt lat="44.49493" lon="5.23313">
        <ele>1113.34</ele>
        <time>2024-03-21T09:46:52Z</time>
      </trkpt>
      <trkpt lat="44.49481" lon="5.23314">
        <ele>1115.75</ele>
        <time>2024-03-21T09:47:07Z</time>
      </trkpt>
      <trkpt lat="44.4947" lon="5.23316">
        <ele>1117.67</ele>
        <time>2024-03-21T09:47:23Z</time>
      </trkpt>
      <trkpt lat="44.49462" lon="5.23324">
        <ele>1120.07</ele>
        <time>2024-03-21T09:47:41Z</time>
      </trkpt>
      <trkpt lat="44.49458" lon="5.23324">
        <ele>1120.55</ele>
        <time>2024-03-21T09:48:00Z</time>
      </trkpt>
      <trkpt lat="44.49458" lon="5.23325">
        <ele>1120.55</ele>
        <time>2024-03-21T09:48:22Z</time>
      </trkpt>
      <trkpt lat="44.49453" lon="5.23325">
        <ele>1120.55</ele>
        <time>2024-03-21T09:48:45Z</time>
      </trkpt>
      <trkpt lat="44.49448" lon="5.23332">
        <ele>1123.92</ele>
        <time>2024-03-21T09:49:03Z</time>
      </trkpt>
      <trkpt lat="44.49443" lon="5.23338">
        <ele>1125.84</ele>
        <time>2024-03-21T09:49:17Z</time>
      </trkpt>
      <trkpt lat="44.49437" lon="5.23345">
        <ele>1128.73</ele>
        <time>2024-03-21T09:49:34Z</time>
      </trkpt>
      <trkpt lat="44.49435" lon="5.2335">
        <ele>1131.61</ele>
        <time>2024-03-21T09:49:51Z</time>
      </trkpt>
      <trkpt lat="44.49429" lon="5.23352">
        <ele>1134.49</ele>
        <time>2024-03-21T09:50:08Z</time>
      </trkpt>
      <trkpt lat="44.49421" lon="5.23358">
        <ele>1136.9</ele>
        <time>2024-03-21T09:50:25Z</time>
      </trkpt>
      <trkpt lat="44.49413" lon="5.23366">
        <ele>1139.3</ele>
        <time>2024-03-21T09:50:42Z</time>
      </trkpt>
      <trkpt lat="44.49401" lon="5.23371">
        <ele>1142.66</ele>
        <time>2024-03-21T09:51:01Z</time>
      </trkpt>
      <trkpt lat="44.4939" lon="5.23378">
        <ele>1145.07</ele>
        <time>2024-03-21T09:51:18Z</time>
      </trkpt>
      <trkpt lat="44.49374" lon="5.2338">
        <ele>1145.55</ele>
        <time>2024-03-21T09:51:36Z</time>
      </trkpt>
      <trkpt lat="44.49371" lon="5.2338">
        <ele>1145.55</ele>
        <time>2024-03-21T09:51:39Z</time>
      </trkpt>
      <trkpt lat="44.49364" lon="5.23389">
        <ele>1146.51</ele>
        <time>2024-03-21T09:51:55Z</time>
      </trkpt>
      <trkpt lat="44.49357" lon="5.23398">
        <ele>1148.43</ele>
        <time>2024-03-21T09:52:10Z</time>
      </trkpt>
      <trkpt lat="44.49348" lon="5.234">
        <ele>1150.35</ele>
        <time>2024-03-21T09:52:24Z</time>
      </trkpt>
      <trkpt lat="44.4934" lon="5.23409">
        <ele>1153.24</ele>
        <time>2024-03-21T09:52:41Z</time>
      </trkpt>
      <trkpt lat="44.4933" lon="5.23413">
        <ele>1155.64</ele>
        <time>2024-03-21T09:52:57Z</time>
      </trkpt>
      <trkpt lat="44.49324" lon="5.23414">
        <ele>1155.64</ele>
        <time>2024-03-21T09:53:12Z</time>
      </trkpt>
      <trkpt lat="44.4932" lon="5.23414">
        <ele>1155.64</ele>
        <time>2024-03-21T09:53:27Z</time>
      </trkpt>
      <trkpt lat="44.49316" lon="5.23414">
        <ele>1154.2</ele>
        <time>2024-03-21T09:53:33Z</time>
      </trkpt>
      <trkpt lat="44.49305" lon="5.23418">
        <ele>1155.64</ele>
        <time>2024-03-21T09:53:46Z</time>
      </trkpt>
      <trkpt lat="44.493" lon="5.23418">
        <ele>1156.12</ele>
        <time>2024-03-21T09:54:02Z</time>
      </trkpt>
      <trkpt lat="44.49295" lon="5.2342">
        <ele>1156.12</ele>
        <time>2024-03-21T09:54:19Z</time>
      </trkpt>
      <trkpt lat="44.4929" lon="5.23422">
        <ele>1157.08</ele>
        <time>2024-03-21T09:54:25Z</time>
      </trkpt>
      <trkpt lat="44.4928" lon="5.23421">
        <ele>1157.56</ele>
        <time>2024-03-21T09:54:40Z</time>
      </trkpt>
      <trkpt lat="44.49274" lon="5.23424">
        <ele>1157.56</ele>
        <time>2024-03-21T09:54:54Z</time>
      </trkpt>
      <trkpt lat="44.4926" lon="5.23427">
        <ele>1157.56</ele>
        <time>2024-03-21T09:55:12Z</time>
      </trkpt>
      <trkpt lat="44.4925" lon="5.23418">
        <ele>1157.56</ele>
        <time>2024-03-21T09:55:29Z</time>
      </trkpt>
      <trkpt lat="44.49237" lon="5.23411">
        <ele>1158.05</ele>
        <time>2024-03-21T09:55:45Z</time>
      </trkpt>
      <trkpt lat="44.49228" lon="5.2341">
        <ele>1159.97</ele>
        <time>2024-03-21T09:56:01Z</time>
      </trkpt>
      <trkpt lat="44.49219" lon="5.2341">
        <ele>1163.33</ele>
        <time>2024-03-21T09:56:20Z</time>
      </trkpt>
      <trkpt lat="44.49214" lon="5.23407">
        <ele>1165.26</ele>
        <time>2024-03-21T09:56:40Z</time>
      </trkpt>
      <trkpt lat="44.49209" lon="5.23405">
        <ele>1168.14</ele>
        <time>2024-03-21T09:56:57Z</time>
      </trkpt>
      <trkpt lat="44.49205" lon="5.23396">
        <ele>1171.02</ele>
        <time>2024-03-21T09:57:14Z</time>
      </trkpt>
      <trkpt lat="44.49204" lon="5.23384">
        <ele>1172.47</ele>
        <time>2024-03-21T09:57:32Z</time>
      </trkpt>
      <trkpt lat="44.49204" lon="5.23384">
        <ele>1172.47</ele>
        <time>2024-03-21T09:57:52Z</time>
      </trkpt>
      <trkpt lat="44.49205" lon="5.23382">
        <ele>1172.47</ele>
        <time>2024-03-21T09:58:16Z</time>
      </trkpt>
      <trkpt lat="44.49206" lon="5.23373">
        <ele>1172.95</ele>
        <time>2024-03-21T09:58:37Z</time>
      </trkpt>
      <trkpt lat="44.49203" lon="5.23362">
        <ele>1174.87</ele>
        <time>2024-03-21T09:58:51Z</time>
      </trkpt>
      <trkpt lat="44.49201" lon="5.23355">
        <ele>1177.27</ele>
        <time>2024-03-21T09:59:07Z</time>
      </trkpt>
      <trkpt lat="44.492" lon="5.23351">
        <ele>1179.19</ele>
        <time>2024-03-21T09:59:23Z</time>
      </trkpt>
      <trkpt lat="44.492" lon="5.23349">
        <ele>1180.16</ele>
        <time>2024-03-21T09:59:38Z</time>
      </trkpt>
      <trkpt lat="44.49197" lon="5.23345">
        <ele>1182.08</ele>
        <time>2024-03-21T09:59:53Z</time>
      </trkpt>
      <trkpt lat="44.49194" lon="5.23336">
        <ele>1184.96</ele>
        <time>2024-03-21T10:00:07Z</time>
      </trkpt>
      <trkpt lat="44.49195" lon="5.23334">
        <ele>1185.44</ele>
        <time>2024-03-21T10:00:28Z</time>
      </trkpt>
      <trkpt lat="44.49195" lon="5.23332">
        <ele>1185.92</ele>
        <time>2024-03-21T10:03:32Z</time>
      </trkpt>
      <trkpt lat="44.4919" lon="5.23328">
        <ele>1188.33</ele>
        <time>2024-03-21T10:03:50Z</time>
      </trkpt>
      <trkpt lat="44.49187" lon="5.2333">
        <ele>1191.21</ele>
        <time>2024-03-21T10:04:04Z</time>
      </trkpt>
      <trkpt lat="44.4918" lon="5.23331">
        <ele>1194.09</ele>
        <time>2024-03-21T10:04:23Z</time>
      </trkpt>
      <trkpt lat="44.49179" lon="5.23332">
        <ele>1196.02</ele>
        <time>2024-03-21T10:04:37Z</time>
      </trkpt>
      <trkpt lat="44.4918" lon="5.23339">
        <ele>1197.94</ele>
        <time>2024-03-21T10:04:55Z</time>
      </trkpt>
      <trkpt lat="44.49174" lon="5.23348">
        <ele>1201.3</ele>
        <time>2024-03-21T10:05:11Z</time>
      </trkpt>
      <trkpt lat="44.49173" lon="5.23357">
        <ele>1203.71</ele>
        <time>2024-03-21T10:05:26Z</time>
      </trkpt>
      <trkpt lat="44.49167" lon="5.23358">
        <ele>1206.11</ele>
        <time>2024-03-21T10:05:42Z</time>
      </trkpt>
      <trkpt lat="44.49164" lon="5.23363">
        <ele>1209</ele>
        <time>2024-03-21T10:05:57Z</time>
      </trkpt>
      <trkpt lat="44.49162" lon="5.2337">
        <ele>1211.88</ele>
        <time>2024-03-21T10:06:13Z</time>
      </trkpt>
      <trkpt lat="44.49155" lon="5.23375">
        <ele>1214.28</ele>
        <time>2024-03-21T10:06:30Z</time>
      </trkpt>
      <trkpt lat="44.4915" lon="5.23381">
        <ele>1217.17</ele>
        <time>2024-03-21T10:06:43Z</time>
      </trkpt>
      <trkpt lat="44.49146" lon="5.23385">
        <ele>1218.61</ele>
        <time>2024-03-21T10:06:59Z</time>
      </trkpt>
      <trkpt lat="44.49145" lon="5.23392">
        <ele>1221.01</ele>
        <time>2024-03-21T10:07:12Z</time>
      </trkpt>
      <trkpt lat="44.49139" lon="5.23396">
        <ele>1224.38</ele>
        <time>2024-03-21T10:07:28Z</time>
      </trkpt>
      <trkpt lat="44.49134" lon="5.23404">
        <ele>1227.26</ele>
        <time>2024-03-21T10:07:45Z</time>
      </trkpt>
      <trkpt lat="44.49132" lon="5.23408">
        <ele>1228.22</ele>
        <time>2024-03-21T10:08:01Z</time>
      </trkpt>
      <trkpt lat="44.49128" lon="5.23411">
        <ele>1230.14</ele>
        <time>2024-03-21T10:08:16Z</time>
      </trkpt>
      <trkpt lat="44.49123" lon="5.23414">
        <ele>1232.55</ele>
        <time>2024-03-21T10:08:30Z</time>
      </trkpt>
      <trkpt lat="44.49119" lon="5.23417">
        <ele>1235.43</ele>
        <time>2024-03-21T10:08:45Z</time>
      </trkpt>
      <trkpt lat="44.49116" lon="5.23419">
        <ele>1236.87</ele>
        <time>2024-03-21T10:09:26Z</time>
      </trkpt>
      <trkpt lat="44.49108" lon="5.23423">
        <ele>1239.76</ele>
        <time>2024-03-21T10:09:41Z</time>
      </trkpt>
      <trkpt lat="44.49101" lon="5.23428">
        <ele>1242.16</ele>
        <time>2024-03-21T10:09:57Z</time>
      </trkpt>
      <trkpt lat="44.49096" lon="5.23432">
        <ele>1245.53</ele>
        <time>2024-03-21T10:10:11Z</time>
      </trkpt>
      <trkpt lat="44.49086" lon="5.23435">
        <ele>1246.97</ele>
        <time>2024-03-21T10:10:26Z</time>
      </trkpt>
      <trkpt lat="44.49082" lon="5.2344">
        <ele>1249.37</ele>
        <time>2024-03-21T10:10:43Z</time>
      </trkpt>
      <trkpt lat="44.49081" lon="5.23441">
        <ele>1249.85</ele>
        <time>2024-03-21T10:13:36Z</time>
      </trkpt>
      <trkpt lat="44.4908" lon="5.23442">
        <ele>1249.85</ele>
        <time>2024-03-21T10:13:41Z</time>
      </trkpt>
      <trkpt lat="44.49073" lon="5.23449">
        <ele>1251.29</ele>
        <time>2024-03-21T10:13:58Z</time>
      </trkpt>
      <trkpt lat="44.49071" lon="5.23452">
        <ele>1251.77</ele>
        <time>2024-03-21T10:14:13Z</time>
      </trkpt>
      <trkpt lat="44.49061" lon="5.23455">
        <ele>1252.25</ele>
        <time>2024-03-21T10:25:53Z</time>
      </trkpt>
      <trkpt lat="44.49057" lon="5.23461">
        <ele>1251.29</ele>
        <time>2024-03-21T10:26:02Z</time>
      </trkpt>
      <trkpt lat="44.49054" lon="5.23467">
        <ele>1250.33</ele>
        <time>2024-03-21T10:26:07Z</time>
      </trkpt>
      <trkpt lat="44.49037" lon="5.23479">
        <ele>1249.85</ele>
        <time>2024-03-21T10:26:25Z</time>
      </trkpt>
      <trkpt lat="44.49026" lon="5.23494">
        <ele>1249.85</ele>
        <time>2024-03-21T10:26:42Z</time>
      </trkpt>
      <trkpt lat="44.49009" lon="5.23504">
        <ele>1249.85</ele>
        <time>2024-03-21T10:26:59Z</time>
      </trkpt>
      <trkpt lat="44.48994" lon="5.2351">
        <ele>1251.29</ele>
        <time>2024-03-21T10:27:13Z</time>
      </trkpt>
      <trkpt lat="44.48983" lon="5.23516">
        <ele>1253.22</ele>
        <time>2024-03-21T10:27:28Z</time>
      </trkpt>
      <trkpt lat="44.4898" lon="5.23519">
        <ele>1253.22</ele>
        <time>2024-03-21T10:27:44Z</time>
      </trkpt>
      <trkpt lat="44.48969" lon="5.23524">
        <ele>1254.66</ele>
        <time>2024-03-21T10:28:00Z</time>
      </trkpt>
      <trkpt lat="44.4896" lon="5.23533">
        <ele>1256.1</ele>
        <time>2024-03-21T10:28:16Z</time>
      </trkpt>
      <trkpt lat="44.48953" lon="5.23538">
        <ele>1256.58</ele>
        <time>2024-03-21T10:28:29Z</time>
      </trkpt>
      <trkpt lat="44.48944" lon="5.23539">
        <ele>1258.02</ele>
        <time>2024-03-21T10:28:44Z</time>
      </trkpt>
      <trkpt lat="44.48933" lon="5.23547">
        <ele>1259.46</ele>
        <time>2024-03-21T10:28:58Z</time>
      </trkpt>
      <trkpt lat="44.48922" lon="5.23556">
        <ele>1260.91</ele>
        <time>2024-03-21T10:29:12Z</time>
      </trkpt>
      <trkpt lat="44.48911" lon="5.23554">
        <ele>1262.83</ele>
        <time>2024-03-21T10:29:28Z</time>
      </trkpt>
      <trkpt lat="44.48898" lon="5.23565">
        <ele>1262.83</ele>
        <time>2024-03-21T10:29:43Z</time>
      </trkpt>
      <trkpt lat="44.4888" lon="5.23577">
        <ele>1262.83</ele>
        <time>2024-03-21T10:30:01Z</time>
      </trkpt>
      <trkpt lat="44.48866" lon="5.23592">
        <ele>1261.87</ele>
        <time>2024-03-21T10:30:17Z</time>
      </trkpt>
      <trkpt lat="44.48857" lon="5.23596">
        <ele>1261.87</ele>
        <time>2024-03-21T10:30:26Z</time>
      </trkpt>
      <trkpt lat="44.48839" lon="5.23613">
        <ele>1260.91</ele>
        <time>2024-03-21T10:30:48Z</time>
      </trkpt>
      <trkpt lat="44.48823" lon="5.23632">
        <ele>1260.43</ele>
        <time>2024-03-21T10:31:08Z</time>
      </trkpt>
      <trkpt lat="44.48812" lon="5.23651">
        <ele>1258.02</ele>
        <time>2024-03-21T10:31:25Z</time>
      </trkpt>
      <trkpt lat="44.48803" lon="5.23668">
        <ele>1255.14</ele>
        <time>2024-03-21T10:31:44Z</time>
      </trkpt>
      <trkpt lat="44.48799" lon="5.23672">
        <ele>1255.14</ele>
        <time>2024-03-21T10:33:01Z</time>
      </trkpt>
      <trkpt lat="44.48791" lon="5.2369">
        <ele>1251.29</ele>
        <time>2024-03-21T10:33:14Z</time>
      </trkpt>
      <trkpt lat="44.48784" lon="5.2371">
        <ele>1247.93</ele>
        <time>2024-03-21T10:33:28Z</time>
      </trkpt>
      <trkpt lat="44.48782" lon="5.23714">
        <ele>1247.45</ele>
        <time>2024-03-21T10:33:31Z</time>
      </trkpt>
      <trkpt lat="44.48775" lon="5.23726">
        <ele>1245.53</ele>
        <time>2024-03-21T10:33:40Z</time>
      </trkpt>
      <trkpt lat="44.48762" lon="5.23753">
        <ele>1242.16</ele>
        <time>2024-03-21T10:33:57Z</time>
      </trkpt>
      <trkpt lat="44.48749" lon="5.23784">
        <ele>1238.8</ele>
        <time>2024-03-21T10:34:16Z</time>
      </trkpt>
      <trkpt lat="44.48736" lon="5.23817">
        <ele>1238.32</ele>
        <time>2024-03-21T10:34:35Z</time>
      </trkpt>
      <trkpt lat="44.4872" lon="5.23841">
        <ele>1238.32</ele>
        <time>2024-03-21T10:34:52Z</time>
      </trkpt>
      <trkpt lat="44.48706" lon="5.23868">
        <ele>1239.28</ele>
        <time>2024-03-21T10:35:10Z</time>
      </trkpt>
      <trkpt lat="44.48693" lon="5.23893">
        <ele>1240.24</ele>
        <time>2024-03-21T10:35:26Z</time>
      </trkpt>
      <trkpt lat="44.48686" lon="5.2391">
        <ele>1238.8</ele>
        <time>2024-03-21T10:35:36Z</time>
      </trkpt>
      <trkpt lat="44.48671" lon="5.23921">
        <ele>1235.43</ele>
        <time>2024-03-21T10:35:51Z</time>
      </trkpt>
      <trkpt lat="44.48668" lon="5.23923">
        <ele>1234.95</ele>
        <time>2024-03-21T10:35:55Z</time>
      </trkpt>
      <trkpt lat="44.48664" lon="5.23923">
        <ele>1233.99</ele>
        <time>2024-03-21T10:35:59Z</time>
      </trkpt>
      <trkpt lat="44.48642" lon="5.23932">
        <ele>1230.62</ele>
        <time>2024-03-21T10:36:17Z</time>
      </trkpt>
      <trkpt lat="44.48621" lon="5.23942">
        <ele>1227.74</ele>
        <time>2024-03-21T10:36:34Z</time>
      </trkpt>
      <trkpt lat="44.48603" lon="5.23949">
        <ele>1224.38</ele>
        <time>2024-03-21T10:36:49Z</time>
      </trkpt>
      <trkpt lat="44.48583" lon="5.23955">
        <ele>1221.01</ele>
        <time>2024-03-21T10:37:06Z</time>
      </trkpt>
      <trkpt lat="44.4858" lon="5.23955">
        <ele>1221.01</ele>
        <time>2024-03-21T10:37:08Z</time>
      </trkpt>
      <trkpt lat="44.48564" lon="5.23964">
        <ele>1219.09</ele>
        <time>2024-03-21T10:37:25Z</time>
      </trkpt>
      <trkpt lat="44.48556" lon="5.23967">
        <ele>1219.09</ele>
        <time>2024-03-21T10:37:38Z</time>
      </trkpt>
      <trkpt lat="44.48551" lon="5.23977">
        <ele>1221.01</ele>
        <time>2024-03-21T10:37:53Z</time>
      </trkpt>
      <trkpt lat="44.48549" lon="5.23977">
        <ele>1221.49</ele>
        <time>2024-03-21T10:37:56Z</time>
      </trkpt>
      <trkpt lat="44.48536" lon="5.23975">
        <ele>1223.42</ele>
        <time>2024-03-21T10:38:12Z</time>
      </trkpt>
      <trkpt lat="44.4853" lon="5.23975">
        <ele>1225.82</ele>
        <time>2024-03-21T10:38:26Z</time>
      </trkpt>
      <trkpt lat="44.48523" lon="5.23975">
        <ele>1227.26</ele>
        <time>2024-03-21T10:38:40Z</time>
      </trkpt>
      <trkpt lat="44.48515" lon="5.23976">
        <ele>1229.66</ele>
        <time>2024-03-21T10:38:57Z</time>
      </trkpt>
      <trkpt lat="44.48509" lon="5.23975">
        <ele>1232.55</ele>
        <time>2024-03-21T10:39:13Z</time>
      </trkpt>
      <trkpt lat="44.48502" lon="5.23976">
        <ele>1234.95</ele>
        <time>2024-03-21T10:39:29Z</time>
      </trkpt>
      <trkpt lat="44.48494" lon="5.23984">
        <ele>1237.35</ele>
        <time>2024-03-21T10:39:47Z</time>
      </trkpt>
      <trkpt lat="44.48485" lon="5.23985">
        <ele>1240.72</ele>
        <time>2024-03-21T10:40:05Z</time>
      </trkpt>
      <trkpt lat="44.48478" lon="5.23986">
        <ele>1243.6</ele>
        <time>2024-03-21T10:40:24Z</time>
      </trkpt>
      <trkpt lat="44.48471" lon="5.23987">
        <ele>1246.49</ele>
        <time>2024-03-21T10:40:42Z</time>
      </trkpt>
      <trkpt lat="44.48466" lon="5.23984">
        <ele>1248.89</ele>
        <time>2024-03-21T10:40:57Z</time>
      </trkpt>
      <trkpt lat="44.48459" lon="5.23983">
        <ele>1252.25</ele>
        <time>2024-03-21T10:41:12Z</time>
      </trkpt>
      <trkpt lat="44.48452" lon="5.23985">
        <ele>1254.66</ele>
        <time>2024-03-21T10:41:28Z</time>
      </trkpt>
      <trkpt lat="44.48445" lon="5.23984">
        <ele>1258.02</ele>
        <time>2024-03-21T10:41:43Z</time>
      </trkpt>
      <trkpt lat="44.48436" lon="5.23981">
        <ele>1261.39</ele>
        <time>2024-03-21T10:42:00Z</time>
      </trkpt>
      <trkpt lat="44.48429" lon="5.23981">
        <ele>1264.75</ele>
        <time>2024-03-21T10:42:18Z</time>
      </trkpt>
      <trkpt lat="44.48422" lon="5.2398">
        <ele>1267.64</ele>
        <time>2024-03-21T10:42:36Z</time>
      </trkpt>
      <trkpt lat="44.48416" lon="5.23979">
        <ele>1270.04</ele>
        <time>2024-03-21T10:42:51Z</time>
      </trkpt>
      <trkpt lat="44.4841" lon="5.23978">
        <ele>1272.44</ele>
        <time>2024-03-21T10:43:06Z</time>
      </trkpt>
      <trkpt lat="44.48404" lon="5.23974">
        <ele>1275.81</ele>
        <time>2024-03-21T10:43:23Z</time>
      </trkpt>
      <trkpt lat="44.48395" lon="5.23971">
        <ele>1278.69</ele>
        <time>2024-03-21T10:43:39Z</time>
      </trkpt>
      <trkpt lat="44.48383" lon="5.23973">
        <ele>1281.57</ele>
        <time>2024-03-21T10:43:58Z</time>
      </trkpt>
      <trkpt lat="44.48371" lon="5.23975">
        <ele>1283.5</ele>
        <time>2024-03-21T10:44:13Z</time>
      </trkpt>
      <trkpt lat="44.48361" lon="5.23976">
        <ele>1285.9</ele>
        <time>2024-03-21T10:44:29Z</time>
      </trkpt>
      <trkpt lat="44.48351" lon="5.23977">
        <ele>1287.82</ele>
        <time>2024-03-21T10:44:45Z</time>
      </trkpt>
      <trkpt lat="44.48341" lon="5.23977">
        <ele>1290.71</ele>
        <time>2024-03-21T10:45:01Z</time>
      </trkpt>
      <trkpt lat="44.48329" lon="5.23977">
        <ele>1292.63</ele>
        <time>2024-03-21T10:45:18Z</time>
      </trkpt>
      <trkpt lat="44.48319" lon="5.2398">
        <ele>1294.55</ele>
        <time>2024-03-21T10:45:32Z</time>
      </trkpt>
      <trkpt lat="44.48314" lon="5.2398">
        <ele>1295.03</ele>
        <time>2024-03-21T10:45:39Z</time>
      </trkpt>
      <trkpt lat="44.483" lon="5.23979">
        <ele>1297.44</ele>
        <time>2024-03-21T10:45:56Z</time>
      </trkpt>
      <trkpt lat="44.48287" lon="5.23978">
        <ele>1300.32</ele>
        <time>2024-03-21T10:46:14Z</time>
      </trkpt>
      <trkpt lat="44.48272" lon="5.23979">
        <ele>1302.24</ele>
        <time>2024-03-21T10:46:31Z</time>
      </trkpt>
      <trkpt lat="44.48259" lon="5.2398">
        <ele>1304.17</ele>
        <time>2024-03-21T10:46:46Z</time>
      </trkpt>
      <trkpt lat="44.48247" lon="5.23982">
        <ele>1306.09</ele>
        <time>2024-03-21T10:47:01Z</time>
      </trkpt>
      <trkpt lat="44.48235" lon="5.23984">
        <ele>1308.01</ele>
        <time>2024-03-21T10:47:15Z</time>
      </trkpt>
      <trkpt lat="44.48222" lon="5.23985">
        <ele>1310.41</ele>
        <time>2024-03-21T10:47:31Z</time>
      </trkpt>
      <trkpt lat="44.48212" lon="5.23987">
        <ele>1313.3</ele>
        <time>2024-03-21T10:47:46Z</time>
      </trkpt>
      <trkpt lat="44.48201" lon="5.23987">
        <ele>1316.66</ele>
        <time>2024-03-21T10:48:02Z</time>
      </trkpt>
      <trkpt lat="44.48189" lon="5.23987">
        <ele>1319.07</ele>
        <time>2024-03-21T10:48:19Z</time>
      </trkpt>
      <trkpt lat="44.48182" lon="5.23989">
        <ele>1322.43</ele>
        <time>2024-03-21T10:48:37Z</time>
      </trkpt>
      <trkpt lat="44.48171" lon="5.2399">
        <ele>1325.8</ele>
        <time>2024-03-21T10:48:56Z</time>
      </trkpt>
      <trkpt lat="44.48161" lon="5.23992">
        <ele>1328.68</ele>
        <time>2024-03-21T10:49:14Z</time>
      </trkpt>
      <trkpt lat="44.48159" lon="5.23993">
        <ele>1328.68</ele>
        <time>2024-03-21T10:49:16Z</time>
      </trkpt>
      <trkpt lat="44.48146" lon="5.24">
        <ele>1332.04</ele>
        <time>2024-03-21T10:49:35Z</time>
      </trkpt>
      <trkpt lat="44.48136" lon="5.24008">
        <ele>1333.49</ele>
        <time>2024-03-21T10:49:53Z</time>
      </trkpt>
      <trkpt lat="44.48128" lon="5.24019">
        <ele>1336.85</ele>
        <time>2024-03-21T10:50:09Z</time>
      </trkpt>
      <trkpt lat="44.48118" lon="5.2403">
        <ele>1338.77</ele>
        <time>2024-03-21T10:50:25Z</time>
      </trkpt>
      <trkpt lat="44.4811" lon="5.24041">
        <ele>1341.18</ele>
        <time>2024-03-21T10:50:40Z</time>
      </trkpt>
      <trkpt lat="44.48101" lon="5.24052">
        <ele>1344.54</ele>
        <time>2024-03-21T10:50:57Z</time>
      </trkpt>
      <trkpt lat="44.48093" lon="5.2406">
        <ele>1347.91</ele>
        <time>2024-03-21T10:51:14Z</time>
      </trkpt>
      <trkpt lat="44.48085" lon="5.24067">
        <ele>1350.31</ele>
        <time>2024-03-21T10:51:29Z</time>
      </trkpt>
      <trkpt lat="44.48075" lon="5.24076">
        <ele>1352.71</ele>
        <time>2024-03-21T10:51:45Z</time>
      </trkpt>
      <trkpt lat="44.48068" lon="5.24085">
        <ele>1355.12</ele>
        <time>2024-03-21T10:52:01Z</time>
      </trkpt>
      <trkpt lat="44.48068" lon="5.24086">
        <ele>1355.12</ele>
        <time>2024-03-21T10:52:03Z</time>
      </trkpt>
      <trkpt lat="44.4806" lon="5.24095">
        <ele>1357.52</ele>
        <time>2024-03-21T10:52:18Z</time>
      </trkpt>
      <trkpt lat="44.48053" lon="5.24101">
        <ele>1360.4</ele>
        <time>2024-03-21T10:52:34Z</time>
      </trkpt>
      <trkpt lat="44.48049" lon="5.24106">
        <ele>1361.84</ele>
        <time>2024-03-21T10:52:42Z</time>
      </trkpt>
      <trkpt lat="44.48039" lon="5.24114">
        <ele>1364.73</ele>
        <time>2024-03-21T10:52:59Z</time>
      </trkpt>
      <trkpt lat="44.48032" lon="5.2412">
        <ele>1368.09</ele>
        <time>2024-03-21T10:53:15Z</time>
      </trkpt>
      <trkpt lat="44.48027" lon="5.24122">
        <ele>1370.98</ele>
        <time>2024-03-21T10:53:30Z</time>
      </trkpt>
      <trkpt lat="44.48025" lon="5.24126">
        <ele>1373.86</ele>
        <time>2024-03-21T10:53:44Z</time>
      </trkpt>
      <trkpt lat="44.48019" lon="5.24128">
        <ele>1376.26</ele>
        <time>2024-03-21T10:55:29Z</time>
      </trkpt>
      <trkpt lat="44.48014" lon="5.24129">
        <ele>1377.23</ele>
        <time>2024-03-21T10:55:48Z</time>
      </trkpt>
      <trkpt lat="44.48014" lon="5.24129">
        <ele>1377.23</ele>
        <time>2024-03-21T10:55:49Z</time>
      </trkpt>
      <trkpt lat="44.48007" lon="5.24136">
        <ele>1379.63</ele>
        <time>2024-03-21T10:56:03Z</time>
      </trkpt>
      <trkpt lat="44.48004" lon="5.24141">
        <ele>1382.51</ele>
        <time>2024-03-21T10:56:17Z</time>
      </trkpt>
      <trkpt lat="44.47992" lon="5.24147">
        <ele>1383.96</ele>
        <time>2024-03-21T10:56:33Z</time>
      </trkpt>
      <trkpt lat="44.47979" lon="5.24161">
        <ele>1383.96</ele>
        <time>2024-03-21T10:56:51Z</time>
      </trkpt>
      <trkpt lat="44.47965" lon="5.24172">
        <ele>1385.88</ele>
        <time>2024-03-21T10:57:07Z</time>
      </trkpt>
      <trkpt lat="44.47951" lon="5.24179">
        <ele>1388.28</ele>
        <time>2024-03-21T10:57:23Z</time>
      </trkpt>
      <trkpt lat="44.47946" lon="5.24182">
        <ele>1388.76</ele>
        <time>2024-03-21T10:57:30Z</time>
      </trkpt>
      <trkpt lat="44.47937" lon="5.24179">
        <ele>1388.76</ele>
        <time>2024-03-21T10:57:47Z</time>
      </trkpt>
      <trkpt lat="44.47933" lon="5.24181">
        <ele>1390.2</ele>
        <time>2024-03-21T11:01:37Z</time>
      </trkpt>
      <trkpt lat="44.47931" lon="5.24182">
        <ele>1390.2</ele>
        <time>2024-03-21T11:01:55Z</time>
      </trkpt>
      <trkpt lat="44.47922" lon="5.24186">
        <ele>1390.2</ele>
        <time>2024-03-21T11:02:54Z</time>
      </trkpt>
      <trkpt lat="44.47916" lon="5.24187">
        <ele>1389.24</ele>
        <time>2024-03-21T11:03:07Z</time>
      </trkpt>
      <trkpt lat="44.47904" lon="5.24189">
        <ele>1389.24</ele>
        <time>2024-03-21T11:03:25Z</time>
      </trkpt>
      <trkpt lat="44.47889" lon="5.24194">
        <ele>1387.32</ele>
        <time>2024-03-21T11:03:44Z</time>
      </trkpt>
      <trkpt lat="44.47875" lon="5.24194">
        <ele>1385.88</ele>
        <time>2024-03-21T11:04:01Z</time>
      </trkpt>
      <trkpt lat="44.47865" lon="5.24193">
        <ele>1385.88</ele>
        <time>2024-03-21T11:04:20Z</time>
      </trkpt>
      <trkpt lat="44.47859" lon="5.24191">
        <ele>1389.72</ele>
        <time>2024-03-21T11:45:38Z</time>
      </trkpt>
      <trkpt lat="44.47852" lon="5.2419">
        <ele>1390.2</ele>
        <time>2024-03-21T11:45:53Z</time>
      </trkpt>
      <trkpt lat="44.47849" lon="5.2419">
        <ele>1390.2</ele>
        <time>2024-03-21T11:46:14Z</time>
      </trkpt>
      <trkpt lat="44.47848" lon="5.2419">
        <ele>1388.76</ele>
        <time>2024-03-21T11:46:44Z</time>
      </trkpt>
      <trkpt lat="44.47845" lon="5.2419">
        <ele>1388.76</ele>
        <time>2024-03-21T11:47:00Z</time>
      </trkpt>
      <trkpt lat="44.47837" lon="5.24191">
        <ele>1387.32</ele>
        <time>2024-03-21T11:47:15Z</time>
      </trkpt>
      <trkpt lat="44.47831" lon="5.2419">
        <ele>1384.92</ele>
        <time>2024-03-21T11:47:27Z</time>
      </trkpt>
      <trkpt lat="44.47815" lon="5.24194">
        <ele>1383.96</ele>
        <time>2024-03-21T11:47:43Z</time>
      </trkpt>
      <trkpt lat="44.47799" lon="5.24197">
        <ele>1382.99</ele>
        <time>2024-03-21T11:47:58Z</time>
      </trkpt>
      <trkpt lat="44.4778" lon="5.24201">
        <ele>1381.55</ele>
        <time>2024-03-21T11:48:16Z</time>
      </trkpt>
      <trkpt lat="44.47764" lon="5.242">
        <ele>1378.19</ele>
        <time>2024-03-21T11:48:30Z</time>
      </trkpt>
      <trkpt lat="44.47753" lon="5.24196">
        <ele>1375.3</ele>
        <time>2024-03-21T11:48:40Z</time>
      </trkpt>
      <trkpt lat="44.47736" lon="5.2419">
        <ele>1371.94</ele>
        <time>2024-03-21T11:48:55Z</time>
      </trkpt>
      <trkpt lat="44.4773" lon="5.24188">
        <ele>1370.98</ele>
        <time>2024-03-21T11:49:09Z</time>
      </trkpt>
      <trkpt lat="44.47718" lon="5.2418">
        <ele>1367.61</ele>
        <time>2024-03-21T11:49:22Z</time>
      </trkpt>
      <trkpt lat="44.47707" lon="5.24169">
        <ele>1364.25</ele>
        <time>2024-03-21T11:49:35Z</time>
      </trkpt>
      <trkpt lat="44.47699" lon="5.24162">
        <ele>1361.36</ele>
        <time>2024-03-21T11:49:47Z</time>
      </trkpt>
      <trkpt lat="44.47692" lon="5.24159">
        <ele>1358</ele>
        <time>2024-03-21T11:49:59Z</time>
      </trkpt>
      <trkpt lat="44.47692" lon="5.24153">
        <ele>1356.08</ele>
        <time>2024-03-21T11:50:09Z</time>
      </trkpt>
      <trkpt lat="44.47689" lon="5.2415">
        <ele>1353.67</ele>
        <time>2024-03-21T11:50:24Z</time>
      </trkpt>
      <trkpt lat="44.47688" lon="5.24146">
        <ele>1350.79</ele>
        <time>2024-03-21T11:50:38Z</time>
      </trkpt>
      <trkpt lat="44.47681" lon="5.24143">
        <ele>1347.91</ele>
        <time>2024-03-21T11:50:51Z</time>
      </trkpt>
      <trkpt lat="44.47675" lon="5.24138">
        <ele>1344.54</ele>
        <time>2024-03-21T11:51:03Z</time>
      </trkpt>
      <trkpt lat="44.47673" lon="5.24137">
        <ele>1344.06</ele>
        <time>2024-03-21T11:51:05Z</time>
      </trkpt>
      <trkpt lat="44.47666" lon="5.24137">
        <ele>1342.14</ele>
        <time>2024-03-21T11:51:12Z</time>
      </trkpt>
      <trkpt lat="44.47647" lon="5.24134">
        <ele>1338.77</ele>
        <time>2024-03-21T11:51:30Z</time>
      </trkpt>
      <trkpt lat="44.47644" lon="5.24134">
        <ele>1338.29</ele>
        <time>2024-03-21T11:51:33Z</time>
      </trkpt>
      <trkpt lat="44.47625" lon="5.24132">
        <ele>1335.41</ele>
        <time>2024-03-21T11:51:51Z</time>
      </trkpt>
      <trkpt lat="44.47611" lon="5.24132">
        <ele>1333.01</ele>
        <time>2024-03-21T11:52:05Z</time>
      </trkpt>
      <trkpt lat="44.47596" lon="5.24128">
        <ele>1329.64</ele>
        <time>2024-03-21T11:52:18Z</time>
      </trkpt>
      <trkpt lat="44.47584" lon="5.24121">
        <ele>1326.76</ele>
        <time>2024-03-21T11:52:29Z</time>
      </trkpt>
      <trkpt lat="44.47572" lon="5.24113">
        <ele>1323.39</ele>
        <time>2024-03-21T11:52:42Z</time>
      </trkpt>
      <trkpt lat="44.47566" lon="5.24109">
        <ele>1321.95</ele>
        <time>2024-03-21T11:52:48Z</time>
      </trkpt>
      <trkpt lat="44.47558" lon="5.24101">
        <ele>1318.1</ele>
        <time>2024-03-21T11:53:00Z</time>
      </trkpt>
      <trkpt lat="44.4755" lon="5.24093">
        <ele>1315.22</ele>
        <time>2024-03-21T11:53:11Z</time>
      </trkpt>
      <trkpt lat="44.47535" lon="5.24083">
        <ele>1311.38</ele>
        <time>2024-03-21T11:53:28Z</time>
      </trkpt>
      <trkpt lat="44.47527" lon="5.24076">
        <ele>1308.49</ele>
        <time>2024-03-21T11:53:38Z</time>
      </trkpt>
      <trkpt lat="44.47523" lon="5.24074">
        <ele>1307.53</ele>
        <time>2024-03-21T11:53:42Z</time>
      </trkpt>
      <trkpt lat="44.47503" lon="5.24073">
        <ele>1303.69</ele>
        <time>2024-03-21T11:53:58Z</time>
      </trkpt>
      <trkpt lat="44.47484" lon="5.24072">
        <ele>1301.76</ele>
        <time>2024-03-21T11:54:14Z</time>
      </trkpt>
      <trkpt lat="44.47472" lon="5.24071">
        <ele>1300.32</ele>
        <time>2024-03-21T11:54:27Z</time>
      </trkpt>
      <trkpt lat="44.4746" lon="5.24066">
        <ele>1297.92</ele>
        <time>2024-03-21T11:54:38Z</time>
      </trkpt>
      <trkpt lat="44.47455" lon="5.24065">
        <ele>1297.44</ele>
        <time>2024-03-21T11:54:42Z</time>
      </trkpt>
      <trkpt lat="44.47451" lon="5.24067">
        <ele>1296.96</ele>
        <time>2024-03-21T11:54:46Z</time>
      </trkpt>
      <trkpt lat="44.47445" lon="5.24068">
        <ele>1296.48</ele>
        <time>2024-03-21T11:54:52Z</time>
      </trkpt>
      <trkpt lat="44.47434" lon="5.2406">
        <ele>1293.59</ele>
        <time>2024-03-21T11:55:05Z</time>
      </trkpt>
      <trkpt lat="44.47424" lon="5.24049">
        <ele>1290.71</ele>
        <time>2024-03-21T11:55:19Z</time>
      </trkpt>
      <trkpt lat="44.47422" lon="5.24047">
        <ele>1290.23</ele>
        <time>2024-03-21T11:55:22Z</time>
      </trkpt>
      <trkpt lat="44.47417" lon="5.24045">
        <ele>1288.78</ele>
        <time>2024-03-21T11:55:27Z</time>
      </trkpt>
      <trkpt lat="44.47412" lon="5.24033">
        <ele>1285.42</ele>
        <time>2024-03-21T11:55:38Z</time>
      </trkpt>
      <trkpt lat="44.47402" lon="5.24027">
        <ele>1282.54</ele>
        <time>2024-03-21T11:55:49Z</time>
      </trkpt>
      <trkpt lat="44.4739" lon="5.24018">
        <ele>1279.65</ele>
        <time>2024-03-21T11:56:02Z</time>
      </trkpt>
      <trkpt lat="44.47387" lon="5.24006">
        <ele>1276.29</ele>
        <time>2024-03-21T11:56:15Z</time>
      </trkpt>
      <trkpt lat="44.47384" lon="5.24004">
        <ele>1275.81</ele>
        <time>2024-03-21T11:56:18Z</time>
      </trkpt>
      <trkpt lat="44.47374" lon="5.23995">
        <ele>1272.44</ele>
        <time>2024-03-21T11:56:31Z</time>
      </trkpt>
      <trkpt lat="44.47373" lon="5.23995">
        <ele>1272.44</ele>
        <time>2024-03-21T11:56:32Z</time>
      </trkpt>
      <trkpt lat="44.47371" lon="5.23995">
        <ele>1271.96</ele>
        <time>2024-03-21T11:56:34Z</time>
      </trkpt>
      <trkpt lat="44.47368" lon="5.23992">
        <ele>1270.52</ele>
        <time>2024-03-21T11:56:39Z</time>
      </trkpt>
      <trkpt lat="44.47362" lon="5.23982">
        <ele>1267.64</ele>
        <time>2024-03-21T11:56:53Z</time>
      </trkpt>
      <trkpt lat="44.4736" lon="5.23976">
        <ele>1265.71</ele>
        <time>2024-03-21T11:57:00Z</time>
      </trkpt>
      <trkpt lat="44.47352" lon="5.2397">
        <ele>1262.35</ele>
        <time>2024-03-21T11:57:11Z</time>
      </trkpt>
      <trkpt lat="44.47349" lon="5.23966">
        <ele>1260.91</ele>
        <time>2024-03-21T11:57:17Z</time>
      </trkpt>
      <trkpt lat="44.47341" lon="5.23959">
        <ele>1257.06</ele>
        <time>2024-03-21T11:57:27Z</time>
      </trkpt>
      <trkpt lat="44.47331" lon="5.23945">
        <ele>1253.7</ele>
        <time>2024-03-21T11:57:39Z</time>
      </trkpt>
      <trkpt lat="44.47318" lon="5.2394">
        <ele>1250.33</ele>
        <time>2024-03-21T11:57:51Z</time>
      </trkpt>
      <trkpt lat="44.47306" lon="5.23922">
        <ele>1246.97</ele>
        <time>2024-03-21T11:58:06Z</time>
      </trkpt>
      <trkpt lat="44.47289" lon="5.23908">
        <ele>1244.08</ele>
        <time>2024-03-21T11:58:23Z</time>
      </trkpt>
      <trkpt lat="44.47278" lon="5.23899">
        <ele>1240.72</ele>
        <time>2024-03-21T11:58:34Z</time>
      </trkpt>
      <trkpt lat="44.47267" lon="5.23883">
        <ele>1237.35</ele>
        <time>2024-03-21T11:58:48Z</time>
      </trkpt>
      <trkpt lat="44.47252" lon="5.23874">
        <ele>1234.47</ele>
        <time>2024-03-21T11:59:02Z</time>
      </trkpt>
      <trkpt lat="44.47229" lon="5.23858">
        <ele>1232.07</ele>
        <time>2024-03-21T11:59:23Z</time>
      </trkpt>
      <trkpt lat="44.47222" lon="5.23842">
        <ele>1230.62</ele>
        <time>2024-03-21T11:59:40Z</time>
      </trkpt>
      <trkpt lat="44.47219" lon="5.23839">
        <ele>1229.66</ele>
        <time>2024-03-21T11:59:43Z</time>
      </trkpt>
      <trkpt lat="44.47208" lon="5.23818">
        <ele>1228.22</ele>
        <time>2024-03-21T12:00:01Z</time>
      </trkpt>
      <trkpt lat="44.47193" lon="5.23802">
        <ele>1225.82</ele>
        <time>2024-03-21T12:00:17Z</time>
      </trkpt>
      <trkpt lat="44.47179" lon="5.23782">
        <ele>1223.9</ele>
        <time>2024-03-21T12:00:34Z</time>
      </trkpt>
      <trkpt lat="44.47162" lon="5.23761">
        <ele>1221.49</ele>
        <time>2024-03-21T12:00:55Z</time>
      </trkpt>
      <trkpt lat="44.4715" lon="5.23745">
        <ele>1218.61</ele>
        <time>2024-03-21T12:01:12Z</time>
      </trkpt>
      <trkpt lat="44.47142" lon="5.23738">
        <ele>1216.21</ele>
        <time>2024-03-21T12:02:38Z</time>
      </trkpt>
      <trkpt lat="44.47132" lon="5.2373">
        <ele>1213.8</ele>
        <time>2024-03-21T12:02:51Z</time>
      </trkpt>
      <trkpt lat="44.47123" lon="5.2372">
        <ele>1210.44</ele>
        <time>2024-03-21T12:03:02Z</time>
      </trkpt>
      <trkpt lat="44.47117" lon="5.23721">
        <ele>1209</ele>
        <time>2024-03-21T12:03:07Z</time>
      </trkpt>
      <trkpt lat="44.47112" lon="5.23717">
        <ele>1207.55</ele>
        <time>2024-03-21T12:03:12Z</time>
      </trkpt>
      <trkpt lat="44.47098" lon="5.23712">
        <ele>1204.19</ele>
        <time>2024-03-21T12:03:23Z</time>
      </trkpt>
      <trkpt lat="44.47097" lon="5.23712">
        <ele>1204.19</ele>
        <time>2024-03-21T12:03:24Z</time>
      </trkpt>
      <trkpt lat="44.47092" lon="5.23707">
        <ele>1202.75</ele>
        <time>2024-03-21T12:03:30Z</time>
      </trkpt>
      <trkpt lat="44.47086" lon="5.23702">
        <ele>1200.82</ele>
        <time>2024-03-21T12:03:36Z</time>
      </trkpt>
      <trkpt lat="44.47072" lon="5.23695">
        <ele>1197.94</ele>
        <time>2024-03-21T12:03:48Z</time>
      </trkpt>
      <trkpt lat="44.47063" lon="5.23684">
        <ele>1196.02</ele>
        <time>2024-03-21T12:03:58Z</time>
      </trkpt>
      <trkpt lat="44.47057" lon="5.23678">
        <ele>1194.58</ele>
        <time>2024-03-21T12:04:12Z</time>
      </trkpt>
      <trkpt lat="44.47055" lon="5.23678">
        <ele>1193.61</ele>
        <time>2024-03-21T12:04:52Z</time>
      </trkpt>
      <trkpt lat="44.47053" lon="5.23679">
        <ele>1191.69</ele>
        <time>2024-03-21T12:05:07Z</time>
      </trkpt>
      <trkpt lat="44.47049" lon="5.23677">
        <ele>1189.77</ele>
        <time>2024-03-21T12:05:19Z</time>
      </trkpt>
      <trkpt lat="44.47047" lon="5.2367">
        <ele>1187.37</ele>
        <time>2024-03-21T12:05:35Z</time>
      </trkpt>
      <trkpt lat="44.47045" lon="5.23663">
        <ele>1184</ele>
        <time>2024-03-21T12:05:47Z</time>
      </trkpt>
      <trkpt lat="44.47042" lon="5.23661">
        <ele>1181.12</ele>
        <time>2024-03-21T12:06:01Z</time>
      </trkpt>
      <trkpt lat="44.47036" lon="5.23658">
        <ele>1178.23</ele>
        <time>2024-03-21T12:06:13Z</time>
      </trkpt>
      <trkpt lat="44.47033" lon="5.23652">
        <ele>1176.79</ele>
        <time>2024-03-21T12:06:17Z</time>
      </trkpt>
      <trkpt lat="44.47027" lon="5.23646">
        <ele>1175.35</ele>
        <time>2024-03-21T12:06:24Z</time>
      </trkpt>
      <trkpt lat="44.47019" lon="5.23646">
        <ele>1173.43</ele>
        <time>2024-03-21T12:06:31Z</time>
      </trkpt>
      <trkpt lat="44.47015" lon="5.23646">
        <ele>1172.47</ele>
        <time>2024-03-21T12:06:35Z</time>
      </trkpt>
      <trkpt lat="44.47003" lon="5.23647">
        <ele>1169.58</ele>
        <time>2024-03-21T12:06:46Z</time>
      </trkpt>
      <trkpt lat="44.46996" lon="5.23645">
        <ele>1166.22</ele>
        <time>2024-03-21T12:06:59Z</time>
      </trkpt>
      <trkpt lat="44.46988" lon="5.23647">
        <ele>1163.33</ele>
        <time>2024-03-21T12:07:11Z</time>
      </trkpt>
      <trkpt lat="44.46984" lon="5.23647">
        <ele>1160.93</ele>
        <time>2024-03-21T12:07:19Z</time>
      </trkpt>
      <trkpt lat="44.46976" lon="5.23642">
        <ele>1157.56</ele>
        <time>2024-03-21T12:07:33Z</time>
      </trkpt>
      <trkpt lat="44.46974" lon="5.23642">
        <ele>1157.08</ele>
        <time>2024-03-21T12:07:37Z</time>
      </trkpt>
      <trkpt lat="44.4697" lon="5.23643">
        <ele>1155.16</ele>
        <time>2024-03-21T12:07:41Z</time>
      </trkpt>
      <trkpt lat="44.46965" lon="5.23644">
        <ele>1153.24</ele>
        <time>2024-03-21T12:07:47Z</time>
      </trkpt>
      <trkpt lat="44.46952" lon="5.23638">
        <ele>1149.87</ele>
        <time>2024-03-21T12:07:58Z</time>
      </trkpt>
      <trkpt lat="44.46948" lon="5.23633">
        <ele>1148.43</ele>
        <time>2024-03-21T12:08:03Z</time>
      </trkpt>
      <trkpt lat="44.46944" lon="5.2363">
        <ele>1146.99</ele>
        <time>2024-03-21T12:08:07Z</time>
      </trkpt>
      <trkpt lat="44.46941" lon="5.2363">
        <ele>1146.03</ele>
        <time>2024-03-21T12:08:09Z</time>
      </trkpt>
      <trkpt lat="44.46936" lon="5.23626">
        <ele>1145.07</ele>
        <time>2024-03-21T12:08:13Z</time>
      </trkpt>
      <trkpt lat="44.46925" lon="5.23625">
        <ele>1142.18</ele>
        <time>2024-03-21T12:08:22Z</time>
      </trkpt>
      <trkpt lat="44.46911" lon="5.23618">
        <ele>1139.78</ele>
        <time>2024-03-21T12:08:36Z</time>
      </trkpt>
      <trkpt lat="44.4691" lon="5.23616">
        <ele>1139.78</ele>
        <time>2024-03-21T12:08:40Z</time>
      </trkpt>
      <trkpt lat="44.46911" lon="5.23614">
        <ele>1138.34</ele>
        <time>2024-03-21T12:08:51Z</time>
      </trkpt>
      <trkpt lat="44.46908" lon="5.2361">
        <ele>1137.86</ele>
        <time>2024-03-21T12:09:04Z</time>
      </trkpt>
      <trkpt lat="44.46907" lon="5.23608">
        <ele>1137.86</ele>
        <time>2024-03-21T12:09:08Z</time>
      </trkpt>
      <trkpt lat="44.46895" lon="5.23592">
        <ele>1134.49</ele>
        <time>2024-03-21T12:09:24Z</time>
      </trkpt>
      <trkpt lat="44.46886" lon="5.23581">
        <ele>1131.61</ele>
        <time>2024-03-21T12:09:36Z</time>
      </trkpt>
      <trkpt lat="44.46876" lon="5.23573">
        <ele>1129.69</ele>
        <time>2024-03-21T12:09:49Z</time>
      </trkpt>
      <trkpt lat="44.46873" lon="5.23568">
        <ele>1128.73</ele>
        <time>2024-03-21T12:09:54Z</time>
      </trkpt>
      <trkpt lat="44.46858" lon="5.23558">
        <ele>1127.28</ele>
        <time>2024-03-21T12:10:09Z</time>
      </trkpt>
      <trkpt lat="44.46853" lon="5.23543">
        <ele>1124.4</ele>
        <time>2024-03-21T12:10:22Z</time>
      </trkpt>
      <trkpt lat="44.46853" lon="5.23531">
        <ele>1121.03</ele>
        <time>2024-03-21T12:10:32Z</time>
      </trkpt>
      <trkpt lat="44.4685" lon="5.23515">
        <ele>1118.15</ele>
        <time>2024-03-21T12:10:44Z</time>
      </trkpt>
      <trkpt lat="44.4685" lon="5.23499">
        <ele>1115.27</ele>
        <time>2024-03-21T12:10:56Z</time>
      </trkpt>
      <trkpt lat="44.46851" lon="5.23486">
        <ele>1111.42</ele>
        <time>2024-03-21T12:11:09Z</time>
      </trkpt>
      <trkpt lat="44.46849" lon="5.23473">
        <ele>1108.06</ele>
        <time>2024-03-21T12:11:21Z</time>
      </trkpt>
      <trkpt lat="44.46849" lon="5.23456">
        <ele>1104.69</ele>
        <time>2024-03-21T12:11:33Z</time>
      </trkpt>
      <trkpt lat="44.46846" lon="5.23443">
        <ele>1101.33</ele>
        <time>2024-03-21T12:11:47Z</time>
      </trkpt>
      <trkpt lat="44.46843" lon="5.23436">
        <ele>1099.89</ele>
        <time>2024-03-21T12:11:54Z</time>
      </trkpt>
      <trkpt lat="44.46843" lon="5.23418">
        <ele>1096.04</ele>
        <time>2024-03-21T12:12:07Z</time>
      </trkpt>
      <trkpt lat="44.46843" lon="5.23408">
        <ele>1093.16</ele>
        <time>2024-03-21T12:12:16Z</time>
      </trkpt>
      <trkpt lat="44.46843" lon="5.23398">
        <ele>1089.79</ele>
        <time>2024-03-21T12:12:29Z</time>
      </trkpt>
      <trkpt lat="44.46843" lon="5.23389">
        <ele>1086.43</ele>
        <time>2024-03-21T12:12:42Z</time>
      </trkpt>
      <trkpt lat="44.46845" lon="5.2338">
        <ele>1083.06</ele>
        <time>2024-03-21T12:12:52Z</time>
      </trkpt>
      <trkpt lat="44.46847" lon="5.2337">
        <ele>1080.18</ele>
        <time>2024-03-21T12:13:01Z</time>
      </trkpt>
      <trkpt lat="44.46847" lon="5.23359">
        <ele>1076.81</ele>
        <time>2024-03-21T12:13:12Z</time>
      </trkpt>
      <trkpt lat="44.46844" lon="5.23347">
        <ele>1073.45</ele>
        <time>2024-03-21T12:13:23Z</time>
      </trkpt>
      <trkpt lat="44.46847" lon="5.23337">
        <ele>1070.57</ele>
        <time>2024-03-21T12:13:33Z</time>
      </trkpt>
      <trkpt lat="44.46846" lon="5.23328">
        <ele>1067.68</ele>
        <time>2024-03-21T12:13:45Z</time>
      </trkpt>
      <trkpt lat="44.46847" lon="5.23317">
        <ele>1064.32</ele>
        <time>2024-03-21T12:13:55Z</time>
      </trkpt>
      <trkpt lat="44.46849" lon="5.23306">
        <ele>1060.95</ele>
        <time>2024-03-21T12:14:08Z</time>
      </trkpt>
      <trkpt lat="44.46851" lon="5.23295">
        <ele>1058.07</ele>
        <time>2024-03-21T12:14:19Z</time>
      </trkpt>
      <trkpt lat="44.46856" lon="5.23284">
        <ele>1055.18</ele>
        <time>2024-03-21T12:14:31Z</time>
      </trkpt>
      <trkpt lat="44.46863" lon="5.23275">
        <ele>1051.82</ele>
        <time>2024-03-21T12:14:44Z</time>
      </trkpt>
      <trkpt lat="44.46869" lon="5.23268">
        <ele>1047.97</ele>
        <time>2024-03-21T12:14:55Z</time>
      </trkpt>
      <trkpt lat="44.46871" lon="5.23266">
        <ele>1047.49</ele>
        <time>2024-03-21T12:14:58Z</time>
      </trkpt>
      <trkpt lat="44.46878" lon="5.23258">
        <ele>1045.09</ele>
        <time>2024-03-21T12:15:06Z</time>
      </trkpt>
      <trkpt lat="44.46883" lon="5.23239">
        <ele>1041.25</ele>
        <time>2024-03-21T12:15:18Z</time>
      </trkpt>
      <trkpt lat="44.46888" lon="5.23228">
        <ele>1039.32</ele>
        <time>2024-03-21T12:15:27Z</time>
      </trkpt>
      <trkpt lat="44.46898" lon="5.23209">
        <ele>1038.36</ele>
        <time>2024-03-21T12:15:42Z</time>
      </trkpt>
      <trkpt lat="44.46904" lon="5.23204">
        <ele>1036.44</ele>
        <time>2024-03-21T12:15:50Z</time>
      </trkpt>
      <trkpt lat="44.46913" lon="5.23214">
        <ele>1035</ele>
        <time>2024-03-21T12:16:01Z</time>
      </trkpt>
      <trkpt lat="44.46916" lon="5.23227">
        <ele>1033.07</ele>
        <time>2024-03-21T12:16:11Z</time>
      </trkpt>
      <trkpt lat="44.46922" lon="5.23248">
        <ele>1029.23</ele>
        <time>2024-03-21T12:16:27Z</time>
      </trkpt>
      <trkpt lat="44.46922" lon="5.23249">
        <ele>1028.75</ele>
        <time>2024-03-21T12:16:28Z</time>
      </trkpt>
      <trkpt lat="44.46926" lon="5.23256">
        <ele>1028.27</ele>
        <time>2024-03-21T12:16:33Z</time>
      </trkpt>
      <trkpt lat="44.46929" lon="5.23264">
        <ele>1027.31</ele>
        <time>2024-03-21T12:16:38Z</time>
      </trkpt>
      <trkpt lat="44.46932" lon="5.23271">
        <ele>1026.83</ele>
        <time>2024-03-21T12:16:43Z</time>
      </trkpt>
      <trkpt lat="44.46948" lon="5.23293">
        <ele>1023.46</ele>
        <time>2024-03-21T12:16:59Z</time>
      </trkpt>
      <trkpt lat="44.46955" lon="5.23316">
        <ele>1020.58</ele>
        <time>2024-03-21T12:17:15Z</time>
      </trkpt>
      <trkpt lat="44.46967" lon="5.23337">
        <ele>1017.69</ele>
        <time>2024-03-21T12:17:29Z</time>
      </trkpt>
      <trkpt lat="44.46982" lon="5.23352">
        <ele>1015.77</ele>
        <time>2024-03-21T12:17:43Z</time>
      </trkpt>
      <trkpt lat="44.47" lon="5.23356">
        <ele>1012.89</ele>
        <time>2024-03-21T12:17:58Z</time>
      </trkpt>
      <trkpt lat="44.47019" lon="5.23355">
        <ele>1009.52</ele>
        <time>2024-03-21T12:18:14Z</time>
      </trkpt>
      <trkpt lat="44.47033" lon="5.23354">
        <ele>1006.64</ele>
        <time>2024-03-21T12:18:27Z</time>
      </trkpt>
      <trkpt lat="44.47052" lon="5.23353">
        <ele>1004.23</ele>
        <time>2024-03-21T12:18:43Z</time>
      </trkpt>
      <trkpt lat="44.47074" lon="5.23347">
        <ele>1001.83</ele>
        <time>2024-03-21T12:19:00Z</time>
      </trkpt>
      <trkpt lat="44.47095" lon="5.23344">
        <ele>998.47</ele>
        <time>2024-03-21T12:19:16Z</time>
      </trkpt>
      <trkpt lat="44.47113" lon="5.2334">
        <ele>995.1</ele>
        <time>2024-03-21T12:19:30Z</time>
      </trkpt>
      <trkpt lat="44.47138" lon="5.23332">
        <ele>992.22</ele>
        <time>2024-03-21T12:19:49Z</time>
      </trkpt>
      <trkpt lat="44.47146" lon="5.23329">
        <ele>990.78</ele>
        <time>2024-03-21T12:19:56Z</time>
      </trkpt>
      <trkpt lat="44.47149" lon="5.23324">
        <ele>990.3</ele>
        <time>2024-03-21T12:20:00Z</time>
      </trkpt>
      <trkpt lat="44.47137" lon="5.23318">
        <ele>987.41</ele>
        <time>2024-03-21T12:20:14Z</time>
      </trkpt>
      <trkpt lat="44.47119" lon="5.23311">
        <ele>986.45</ele>
        <time>2024-03-21T12:20:31Z</time>
      </trkpt>
      <trkpt lat="44.47101" lon="5.23305">
        <ele>985.01</ele>
        <time>2024-03-21T12:20:46Z</time>
      </trkpt>
      <trkpt lat="44.47087" lon="5.233">
        <ele>983.57</ele>
        <time>2024-03-21T12:20:57Z</time>
      </trkpt>
      <trkpt lat="44.47084" lon="5.233">
        <ele>983.09</ele>
        <time>2024-03-21T12:21:01Z</time>
      </trkpt>
      <trkpt lat="44.47082" lon="5.233">
        <ele>983.09</ele>
        <time>2024-03-21T12:21:02Z</time>
      </trkpt>
      <trkpt lat="44.4708" lon="5.23299">
        <ele>983.09</ele>
        <time>2024-03-21T12:21:03Z</time>
      </trkpt>
      <trkpt lat="44.4706" lon="5.23296">
        <ele>981.64</ele>
        <time>2024-03-21T12:21:18Z</time>
      </trkpt>
      <trkpt lat="44.47055" lon="5.23297">
        <ele>981.64</ele>
        <time>2024-03-21T12:21:35Z</time>
      </trkpt>
      <trkpt lat="44.47036" lon="5.23293">
        <ele>980.68</ele>
        <time>2024-03-21T12:21:54Z</time>
      </trkpt>
      <trkpt lat="44.47032" lon="5.23287">
        <ele>980.2</ele>
        <time>2024-03-21T12:22:00Z</time>
      </trkpt>
      <trkpt lat="44.4703" lon="5.23282">
        <ele>979.72</ele>
        <time>2024-03-21T12:22:05Z</time>
      </trkpt>
      <trkpt lat="44.47027" lon="5.23263">
        <ele>978.28</ele>
        <time>2024-03-21T12:22:21Z</time>
      </trkpt>
      <trkpt lat="44.47019" lon="5.2324">
        <ele>976.84</ele>
        <time>2024-03-21T12:22:35Z</time>
      </trkpt>
      <trkpt lat="44.47015" lon="5.23225">
        <ele>976.36</ele>
        <time>2024-03-21T12:22:46Z</time>
      </trkpt>
      <trkpt lat="44.47014" lon="5.23205">
        <ele>975.39</ele>
        <time>2024-03-21T12:22:58Z</time>
      </trkpt>
      <trkpt lat="44.47017" lon="5.23179">
        <ele>975.88</ele>
        <time>2024-03-21T12:23:13Z</time>
      </trkpt>
      <trkpt lat="44.47019" lon="5.23152">
        <ele>975.39</ele>
        <time>2024-03-21T12:23:28Z</time>
      </trkpt>
      <trkpt lat="44.47019" lon="5.2313">
        <ele>974.91</ele>
        <time>2024-03-21T12:23:42Z</time>
      </trkpt>
      <trkpt lat="44.47019" lon="5.23128">
        <ele>974.43</ele>
        <time>2024-03-21T12:23:43Z</time>
      </trkpt>
      <trkpt lat="44.47019" lon="5.23107">
        <ele>974.43</ele>
        <time>2024-03-21T12:23:54Z</time>
      </trkpt>
      <trkpt lat="44.47019" lon="5.23103">
        <ele>974.43</ele>
        <time>2024-03-21T12:23:58Z</time>
      </trkpt>
      <trkpt lat="44.47008" lon="5.23089">
        <ele>972.99</ele>
        <time>2024-03-21T12:24:15Z</time>
      </trkpt>
      <trkpt lat="44.47005" lon="5.23087">
        <ele>971.55</ele>
        <time>2024-03-21T12:24:22Z</time>
      </trkpt>
      <trkpt lat="44.46997" lon="5.23083">
        <ele>970.11</ele>
        <time>2024-03-21T12:24:30Z</time>
      </trkpt>
      <trkpt lat="44.4698" lon="5.23072">
        <ele>966.74</ele>
        <time>2024-03-21T12:24:44Z</time>
      </trkpt>
      <trkpt lat="44.46969" lon="5.23066">
        <ele>966.26</ele>
        <time>2024-03-21T12:24:54Z</time>
      </trkpt>
      <trkpt lat="44.46949" lon="5.23055">
        <ele>964.82</ele>
        <time>2024-03-21T12:25:10Z</time>
      </trkpt>
      <trkpt lat="44.46929" lon="5.23043">
        <ele>964.34</ele>
        <time>2024-03-21T12:25:26Z</time>
      </trkpt>
      <trkpt lat="44.46908" lon="5.23031">
        <ele>965.3</ele>
        <time>2024-03-21T12:25:43Z</time>
      </trkpt>
      <trkpt lat="44.46893" lon="5.23025">
        <ele>963.38</ele>
        <time>2024-03-21T12:25:54Z</time>
      </trkpt>
      <trkpt lat="44.46882" lon="5.23023">
        <ele>961.46</ele>
        <time>2024-03-21T12:26:02Z</time>
      </trkpt>
      <trkpt lat="44.46881" lon="5.23023">
        <ele>960.98</ele>
        <time>2024-03-21T12:26:03Z</time>
      </trkpt>
      <trkpt lat="44.4688" lon="5.23023">
        <ele>960.98</ele>
        <time>2024-03-21T12:26:04Z</time>
      </trkpt>
      <trkpt lat="44.46878" lon="5.23023">
        <ele>960.98</ele>
        <time>2024-03-21T12:26:05Z</time>
      </trkpt>
      <trkpt lat="44.46877" lon="5.23023">
        <ele>960.49</ele>
        <time>2024-03-21T12:26:06Z</time>
      </trkpt>
      <trkpt lat="44.46876" lon="5.23023">
        <ele>960.49</ele>
        <time>2024-03-21T12:26:07Z</time>
      </trkpt>
      <trkpt lat="44.46874" lon="5.23023">
        <ele>960.01</ele>
        <time>2024-03-21T12:26:08Z</time>
      </trkpt>
      <trkpt lat="44.46873" lon="5.23023">
        <ele>960.01</ele>
        <time>2024-03-21T12:26:09Z</time>
      </trkpt>
      <trkpt lat="44.4687" lon="5.23023">
        <ele>960.01</ele>
        <time>2024-03-21T12:26:11Z</time>
      </trkpt>
      <trkpt lat="44.46869" lon="5.23022">
        <ele>959.05</ele>
        <time>2024-03-21T12:26:12Z</time>
      </trkpt>
      <trkpt lat="44.46858" lon="5.23018">
        <ele>956.65</ele>
        <time>2024-03-21T12:26:23Z</time>
      </trkpt>
      <trkpt lat="44.46857" lon="5.23018">
        <ele>956.65</ele>
        <time>2024-03-21T12:26:24Z</time>
      </trkpt>
      <trkpt lat="44.46856" lon="5.23017">
        <ele>956.65</ele>
        <time>2024-03-21T12:26:25Z</time>
      </trkpt>
      <trkpt lat="44.46855" lon="5.23016">
        <ele>956.17</ele>
        <time>2024-03-21T12:26:26Z</time>
      </trkpt>
      <trkpt lat="44.46854" lon="5.23015">
        <ele>956.17</ele>
        <time>2024-03-21T12:26:27Z</time>
      </trkpt>
      <trkpt lat="44.46852" lon="5.23015">
        <ele>955.69</ele>
        <time>2024-03-21T12:26:28Z</time>
      </trkpt>
      <trkpt lat="44.46839" lon="5.23005">
        <ele>952.32</ele>
        <time>2024-03-21T12:26:42Z</time>
      </trkpt>
      <trkpt lat="44.46827" lon="5.22988">
        <ele>950.88</ele>
        <time>2024-03-21T12:26:56Z</time>
      </trkpt>
      <trkpt lat="44.46815" lon="5.22973">
        <ele>949.92</ele>
        <time>2024-03-21T12:27:09Z</time>
      </trkpt>
      <trkpt lat="44.46802" lon="5.2296">
        <ele>948.48</ele>
        <time>2024-03-21T12:27:23Z</time>
      </trkpt>
      <trkpt lat="44.46794" lon="5.22956">
        <ele>948</ele>
        <time>2024-03-21T12:27:38Z</time>
      </trkpt>
      <trkpt lat="44.46793" lon="5.22955">
        <ele>947.52</ele>
        <time>2024-03-21T12:28:03Z</time>
      </trkpt>
      <trkpt lat="44.46792" lon="5.22955">
        <ele>947.52</ele>
        <time>2024-03-21T12:28:29Z</time>
      </trkpt>
      <trkpt lat="44.4679" lon="5.22954">
        <ele>946.56</ele>
        <time>2024-03-21T12:28:50Z</time>
      </trkpt>
      <trkpt lat="44.46791" lon="5.2295">
        <ele>946.56</ele>
        <time>2024-03-21T12:29:05Z</time>
      </trkpt>
      <trkpt lat="44.46791" lon="5.22946">
        <ele>946.56</ele>
        <time>2024-03-21T12:29:21Z</time>
      </trkpt>
      <trkpt lat="44.46787" lon="5.22938">
        <ele>947.52</ele>
        <time>2024-03-21T12:29:35Z</time>
      </trkpt>
      <trkpt lat="44.46787" lon="5.22937">
        <ele>947.52</ele>
        <time>2024-03-21T12:29:48Z</time>
      </trkpt>
      <trkpt lat="44.46783" lon="5.22931">
        <ele>947.52</ele>
        <time>2024-03-21T12:30:01Z</time>
      </trkpt>
      <trkpt lat="44.46779" lon="5.22929">
        <ele>947.52</ele>
        <time>2024-03-21T12:30:14Z</time>
      </trkpt>
      <trkpt lat="44.46776" lon="5.22929">
        <ele>947.52</ele>
        <time>2024-03-21T12:30:18Z</time>
      </trkpt>
      <trkpt lat="44.46771" lon="5.22927">
        <ele>947.52</ele>
        <time>2024-03-21T12:30:23Z</time>
      </trkpt>
      <trkpt lat="44.4677" lon="5.22927">
        <ele>947.52</ele>
        <time>2024-03-21T12:30:24Z</time>
      </trkpt>
      <trkpt lat="44.46769" lon="5.22926">
        <ele>947.52</ele>
        <time>2024-03-21T12:30:25Z</time>
      </trkpt>
      <trkpt lat="44.46767" lon="5.22925">
        <ele>947.52</ele>
        <time>2024-03-21T12:30:27Z</time>
      </trkpt>
      <trkpt lat="44.46766" lon="5.22924">
        <ele>947.52</ele>
        <time>2024-03-21T12:30:28Z</time>
      </trkpt>
      <trkpt lat="44.46765" lon="5.22924">
        <ele>947.52</ele>
        <time>2024-03-21T12:30:29Z</time>
      </trkpt>
      <trkpt lat="44.46764" lon="5.22923">
        <ele>947.52</ele>
        <time>2024-03-21T12:30:30Z</time>
      </trkpt>
      <trkpt lat="44.46755" lon="5.22916">
        <ele>947.52</ele>
        <time>2024-03-21T12:30:43Z</time>
      </trkpt>
      <trkpt lat="44.4674" lon="5.22904">
        <ele>947.04</ele>
        <time>2024-03-21T12:31:00Z</time>
      </trkpt>
      <trkpt lat="44.46735" lon="5.22901">
        <ele>946.07</ele>
        <time>2024-03-21T12:31:05Z</time>
      </trkpt>
      <trkpt lat="44.46722" lon="5.2289">
        <ele>945.11</ele>
        <time>2024-03-21T12:31:19Z</time>
      </trkpt>
      <trkpt lat="44.46708" lon="5.22883">
        <ele>944.15</ele>
        <time>2024-03-21T12:31:35Z</time>
      </trkpt>
      <trkpt lat="44.46701" lon="5.22879">
        <ele>943.19</ele>
        <time>2024-03-21T12:31:42Z</time>
      </trkpt>
      <trkpt lat="44.46694" lon="5.22869">
        <ele>942.23</ele>
        <time>2024-03-21T12:31:54Z</time>
      </trkpt>
      <trkpt lat="44.46679" lon="5.22861">
        <ele>940.31</ele>
        <time>2024-03-21T12:32:10Z</time>
      </trkpt>
      <trkpt lat="44.46665" lon="5.22856">
        <ele>939.83</ele>
        <time>2024-03-21T12:32:26Z</time>
      </trkpt>
      <trkpt lat="44.46655" lon="5.22853">
        <ele>941.27</ele>
        <time>2024-03-21T12:32:35Z</time>
      </trkpt>
      <trkpt lat="44.46639" lon="5.22847">
        <ele>941.27</ele>
        <time>2024-03-21T12:32:50Z</time>
      </trkpt>
      <trkpt lat="44.4662" lon="5.22839">
        <ele>939.83</ele>
        <time>2024-03-21T12:33:09Z</time>
      </trkpt>
      <trkpt lat="44.46604" lon="5.22831">
        <ele>936.94</ele>
        <time>2024-03-21T12:33:26Z</time>
      </trkpt>
      <trkpt lat="44.46593" lon="5.22824">
        <ele>935.02</ele>
        <time>2024-03-21T12:33:37Z</time>
      </trkpt>
      <trkpt lat="44.46592" lon="5.22823">
        <ele>935.02</ele>
        <time>2024-03-21T12:33:38Z</time>
      </trkpt>
      <trkpt lat="44.46578" lon="5.22802">
        <ele>932.62</ele>
        <time>2024-03-21T12:33:56Z</time>
      </trkpt>
      <trkpt lat="44.46574" lon="5.22799">
        <ele>931.65</ele>
        <time>2024-03-21T12:34:00Z</time>
      </trkpt>
      <trkpt lat="44.46567" lon="5.22794">
        <ele>931.17</ele>
        <time>2024-03-21T12:34:07Z</time>
      </trkpt>
      <trkpt lat="44.46552" lon="5.22786">
        <ele>929.73</ele>
        <time>2024-03-21T12:34:21Z</time>
      </trkpt>
      <trkpt lat="44.46534" lon="5.2277">
        <ele>928.77</ele>
        <time>2024-03-21T12:34:38Z</time>
      </trkpt>
      <trkpt lat="44.46519" lon="5.2276">
        <ele>927.33</ele>
        <time>2024-03-21T12:34:52Z</time>
      </trkpt>
      <trkpt lat="44.46503" lon="5.22741">
        <ele>926.85</ele>
        <time>2024-03-21T12:35:09Z</time>
      </trkpt>
      <trkpt lat="44.46496" lon="5.22737">
        <ele>928.29</ele>
        <time>2024-03-21T12:35:15Z</time>
      </trkpt>
      <trkpt lat="44.46481" lon="5.22721">
        <ele>928.77</ele>
        <time>2024-03-21T12:35:30Z</time>
      </trkpt>
      <trkpt lat="44.46475" lon="5.22714">
        <ele>928.77</ele>
        <time>2024-03-21T12:35:37Z</time>
      </trkpt>
      <trkpt lat="44.46474" lon="5.22714">
        <ele>928.77</ele>
        <time>2024-03-21T12:35:38Z</time>
      </trkpt>
      <trkpt lat="44.46473" lon="5.22713">
        <ele>928.77</ele>
        <time>2024-03-21T12:35:39Z</time>
      </trkpt>
      <trkpt lat="44.46464" lon="5.22701">
        <ele>926.85</ele>
        <time>2024-03-21T12:35:49Z</time>
      </trkpt>
      <trkpt lat="44.46462" lon="5.22697">
        <ele>926.37</ele>
        <time>2024-03-21T12:35:52Z</time>
      </trkpt>
      <trkpt lat="44.46461" lon="5.22696">
        <ele>926.37</ele>
        <time>2024-03-21T12:35:53Z</time>
      </trkpt>
      <trkpt lat="44.4646" lon="5.22695">
        <ele>926.37</ele>
        <time>2024-03-21T12:35:54Z</time>
      </trkpt>
      <trkpt lat="44.46459" lon="5.22694">
        <ele>926.37</ele>
        <time>2024-03-21T12:35:55Z</time>
      </trkpt>
      <trkpt lat="44.46458" lon="5.22693">
        <ele>925.89</ele>
        <time>2024-03-21T12:35:56Z</time>
      </trkpt>
      <trkpt lat="44.46451" lon="5.22685">
        <ele>924.45</ele>
        <time>2024-03-21T12:36:05Z</time>
      </trkpt>
      <trkpt lat="44.4645" lon="5.22683">
        <ele>924.45</ele>
        <time>2024-03-21T12:36:06Z</time>
      </trkpt>
      <trkpt lat="44.46449" lon="5.22682">
        <ele>924.45</ele>
        <time>2024-03-21T12:36:07Z</time>
      </trkpt>
      <trkpt lat="44.46434" lon="5.22669">
        <ele>921.56</ele>
        <time>2024-03-21T12:36:23Z</time>
      </trkpt>
      <trkpt lat="44.46421" lon="5.22657">
        <ele>918.68</ele>
        <time>2024-03-21T12:36:38Z</time>
      </trkpt>
      <trkpt lat="44.46419" lon="5.22656">
        <ele>918.2</ele>
        <time>2024-03-21T12:36:40Z</time>
      </trkpt>
      <trkpt lat="44.46418" lon="5.22655">
        <ele>918.2</ele>
        <time>2024-03-21T12:36:41Z</time>
      </trkpt>
      <trkpt lat="44.46404" lon="5.22642">
        <ele>916.27</ele>
        <time>2024-03-21T12:36:56Z</time>
      </trkpt>
      <trkpt lat="44.46403" lon="5.22641">
        <ele>916.27</ele>
        <time>2024-03-21T12:36:57Z</time>
      </trkpt>
      <trkpt lat="44.464" lon="5.22636">
        <ele>915.31</ele>
        <time>2024-03-21T12:37:02Z</time>
      </trkpt>
      <trkpt lat="44.46399" lon="5.22635">
        <ele>915.31</ele>
        <time>2024-03-21T12:37:03Z</time>
      </trkpt>
      <trkpt lat="44.46384" lon="5.22624">
        <ele>913.39</ele>
        <time>2024-03-21T12:37:19Z</time>
      </trkpt>
      <trkpt lat="44.46374" lon="5.22617">
        <ele>911.47</ele>
        <time>2024-03-21T12:37:30Z</time>
      </trkpt>
      <trkpt lat="44.46373" lon="5.22617">
        <ele>911.47</ele>
        <time>2024-03-21T12:37:31Z</time>
      </trkpt>
      <trkpt lat="44.46372" lon="5.22616">
        <ele>911.47</ele>
        <time>2024-03-21T12:37:32Z</time>
      </trkpt>
      <trkpt lat="44.46371" lon="5.22615">
        <ele>910.99</ele>
        <time>2024-03-21T12:37:33Z</time>
      </trkpt>
      <trkpt lat="44.46369" lon="5.22613">
        <ele>910.99</ele>
        <time>2024-03-21T12:37:35Z</time>
      </trkpt>
      <trkpt lat="44.46356" lon="5.22604">
        <ele>907.62</ele>
        <time>2024-03-21T12:37:52Z</time>
      </trkpt>
      <trkpt lat="44.46344" lon="5.22595">
        <ele>903.78</ele>
        <time>2024-03-21T12:38:07Z</time>
      </trkpt>
      <trkpt lat="44.46333" lon="5.2259">
        <ele>901.37</ele>
        <time>2024-03-21T12:38:22Z</time>
      </trkpt>
      <trkpt lat="44.46325" lon="5.22589">
        <ele>898.49</ele>
        <time>2024-03-21T12:38:34Z</time>
      </trkpt>
      <trkpt lat="44.46317" lon="5.22587">
        <ele>895.12</ele>
        <time>2024-03-21T12:38:50Z</time>
      </trkpt>
      <trkpt lat="44.46311" lon="5.22584">
        <ele>892.72</ele>
        <time>2024-03-21T12:39:01Z</time>
      </trkpt>
      <trkpt lat="44.46307" lon="5.22581">
        <ele>890.8</ele>
        <time>2024-03-21T12:39:08Z</time>
      </trkpt>
      <trkpt lat="44.46301" lon="5.2258">
        <ele>888.88</ele>
        <time>2024-03-21T12:39:16Z</time>
      </trkpt>
      <trkpt lat="44.463" lon="5.2258">
        <ele>888.4</ele>
        <time>2024-03-21T12:39:17Z</time>
      </trkpt>
      <trkpt lat="44.46288" lon="5.22574">
        <ele>885.03</ele>
        <time>2024-03-21T12:39:29Z</time>
      </trkpt>
      <trkpt lat="44.46277" lon="5.22562">
        <ele>883.11</ele>
        <time>2024-03-21T12:39:44Z</time>
      </trkpt>
      <trkpt lat="44.46269" lon="5.22557">
        <ele>879.74</ele>
        <time>2024-03-21T12:39:56Z</time>
      </trkpt>
      <trkpt lat="44.46262" lon="5.22556">
        <ele>878.3</ele>
        <time>2024-03-21T12:40:02Z</time>
      </trkpt>
      <trkpt lat="44.46261" lon="5.22556">
        <ele>878.3</ele>
        <time>2024-03-21T12:40:03Z</time>
      </trkpt>
      <trkpt lat="44.46259" lon="5.22556">
        <ele>878.3</ele>
        <time>2024-03-21T12:40:04Z</time>
      </trkpt>
      <trkpt lat="44.46258" lon="5.22556">
        <ele>877.82</ele>
        <time>2024-03-21T12:40:05Z</time>
      </trkpt>
      <trkpt lat="44.46257" lon="5.22556">
        <ele>877.82</ele>
        <time>2024-03-21T12:40:06Z</time>
      </trkpt>
      <trkpt lat="44.46255" lon="5.22556">
        <ele>877.34</ele>
        <time>2024-03-21T12:40:07Z</time>
      </trkpt>
      <trkpt lat="44.46254" lon="5.22556">
        <ele>877.34</ele>
        <time>2024-03-21T12:40:08Z</time>
      </trkpt>
      <trkpt lat="44.46233" lon="5.22547">
        <ele>875.42</ele>
        <time>2024-03-21T12:40:25Z</time>
      </trkpt>
      <trkpt lat="44.46215" lon="5.22536">
        <ele>874.94</ele>
        <time>2024-03-21T12:40:41Z</time>
      </trkpt>
      <trkpt lat="44.46199" lon="5.22526">
        <ele>875.9</ele>
        <time>2024-03-21T12:40:57Z</time>
      </trkpt>
      <trkpt lat="44.46185" lon="5.22514">
        <ele>872.53</ele>
        <time>2024-03-21T12:41:13Z</time>
      </trkpt>
      <trkpt lat="44.46172" lon="5.22501">
        <ele>869.17</ele>
        <time>2024-03-21T12:41:27Z</time>
      </trkpt>
      <trkpt lat="44.46162" lon="5.22492">
        <ele>867.73</ele>
        <time>2024-03-21T12:41:37Z</time>
      </trkpt>
      <trkpt lat="44.46161" lon="5.22492">
        <ele>867.73</ele>
        <time>2024-03-21T12:41:38Z</time>
      </trkpt>
      <trkpt lat="44.4616" lon="5.22491">
        <ele>867.73</ele>
        <time>2024-03-21T12:41:39Z</time>
      </trkpt>
      <trkpt lat="44.46159" lon="5.2249">
        <ele>867.73</ele>
        <time>2024-03-21T12:41:40Z</time>
      </trkpt>
      <trkpt lat="44.46158" lon="5.22489">
        <ele>867.73</ele>
        <time>2024-03-21T12:41:41Z</time>
      </trkpt>
      <trkpt lat="44.46143" lon="5.2248">
        <ele>864.36</ele>
        <time>2024-03-21T12:41:55Z</time>
      </trkpt>
      <trkpt lat="44.46143" lon="5.22479">
        <ele>864.36</ele>
        <time>2024-03-21T12:41:56Z</time>
      </trkpt>
      <trkpt lat="44.46128" lon="5.22462">
        <ele>861</ele>
        <time>2024-03-21T12:42:14Z</time>
      </trkpt>
      <trkpt lat="44.46126" lon="5.2246">
        <ele>861</ele>
        <time>2024-03-21T12:42:16Z</time>
      </trkpt>
      <trkpt lat="44.4611" lon="5.22447">
        <ele>858.59</ele>
        <time>2024-03-21T12:42:33Z</time>
      </trkpt>
      <trkpt lat="44.46101" lon="5.22441">
        <ele>856.67</ele>
        <time>2024-03-21T12:42:43Z</time>
      </trkpt>
      <trkpt lat="44.46083" lon="5.22423">
        <ele>854.75</ele>
        <time>2024-03-21T12:43:01Z</time>
      </trkpt>
      <trkpt lat="44.46061" lon="5.22407">
        <ele>851.87</ele>
        <time>2024-03-21T12:43:21Z</time>
      </trkpt>
      <trkpt lat="44.46039" lon="5.22399">
        <ele>850.42</ele>
        <time>2024-03-21T12:43:40Z</time>
      </trkpt>
      <trkpt lat="44.4602" lon="5.22392">
        <ele>848.02</ele>
        <time>2024-03-21T12:43:59Z</time>
      </trkpt>
      <trkpt lat="44.46011" lon="5.22393">
        <ele>846.1</ele>
        <time>2024-03-21T12:44:10Z</time>
      </trkpt>
      <trkpt lat="44.4601" lon="5.22394">
        <ele>846.1</ele>
        <time>2024-03-21T12:44:11Z</time>
      </trkpt>
      <trkpt lat="44.46009" lon="5.22394">
        <ele>845.62</ele>
        <time>2024-03-21T12:44:12Z</time>
      </trkpt>
      <trkpt lat="44.45999" lon="5.22398">
        <ele>844.66</ele>
        <time>2024-03-21T12:44:21Z</time>
      </trkpt>
      <trkpt lat="44.45981" lon="5.22402">
        <ele>842.25</ele>
        <time>2024-03-21T12:44:37Z</time>
      </trkpt>
      <trkpt lat="44.45966" lon="5.22401">
        <ele>841.29</ele>
        <time>2024-03-21T12:44:49Z</time>
      </trkpt>
      <trkpt lat="44.45947" lon="5.224">
        <ele>840.33</ele>
        <time>2024-03-21T12:45:06Z</time>
      </trkpt>
      <trkpt lat="44.45926" lon="5.22398">
        <ele>838.89</ele>
        <time>2024-03-21T12:45:25Z</time>
      </trkpt>
      <trkpt lat="44.45908" lon="5.22398">
        <ele>836.96</ele>
        <time>2024-03-21T12:45:40Z</time>
      </trkpt>
      <trkpt lat="44.45886" lon="5.22398">
        <ele>836</ele>
        <time>2024-03-21T12:45:57Z</time>
      </trkpt>
      <trkpt lat="44.45864" lon="5.22393">
        <ele>834.56</ele>
        <time>2024-03-21T12:46:15Z</time>
      </trkpt>
      <trkpt lat="44.45845" lon="5.22385">
        <ele>832.16</ele>
        <time>2024-03-21T12:46:33Z</time>
      </trkpt>
      <trkpt lat="44.45839" lon="5.22382">
        <ele>831.2</ele>
        <time>2024-03-21T12:46:39Z</time>
      </trkpt>
      <trkpt lat="44.45836" lon="5.22382">
        <ele>831.2</ele>
        <time>2024-03-21T12:46:41Z</time>
      </trkpt>
      <trkpt lat="44.45833" lon="5.2238">
        <ele>830.72</ele>
        <time>2024-03-21T12:46:44Z</time>
      </trkpt>
      <trkpt lat="44.45824" lon="5.22374">
        <ele>832.16</ele>
        <time>2024-03-21T12:46:58Z</time>
      </trkpt>
      <trkpt lat="44.45814" lon="5.22367">
        <ele>835.52</ele>
        <time>2024-03-21T12:47:12Z</time>
      </trkpt>
      <trkpt lat="44.45801" lon="5.22365">
        <ele>837.45</ele>
        <time>2024-03-21T12:47:27Z</time>
      </trkpt>
      <trkpt lat="44.45786" lon="5.22369">
        <ele>837.93</ele>
        <time>2024-03-21T12:47:41Z</time>
      </trkpt>
      <trkpt lat="44.45765" lon="5.22378">
        <ele>836</ele>
        <time>2024-03-21T12:48:00Z</time>
      </trkpt>
      <trkpt lat="44.45755" lon="5.22382">
        <ele>834.56</ele>
        <time>2024-03-21T12:48:08Z</time>
      </trkpt>
      <trkpt lat="44.45754" lon="5.22382">
        <ele>834.56</ele>
        <time>2024-03-21T12:48:09Z</time>
      </trkpt>
      <trkpt lat="44.45752" lon="5.22383">
        <ele>835.04</ele>
        <time>2024-03-21T12:48:10Z</time>
      </trkpt>
      <trkpt lat="44.45751" lon="5.22384">
        <ele>834.56</ele>
        <time>2024-03-21T12:48:11Z</time>
      </trkpt>
      <trkpt lat="44.45749" lon="5.22384">
        <ele>834.56</ele>
        <time>2024-03-21T12:48:12Z</time>
      </trkpt>
      <trkpt lat="44.45737" lon="5.22392">
        <ele>833.6</ele>
        <time>2024-03-21T12:48:24Z</time>
      </trkpt>
      <trkpt lat="44.45721" lon="5.22401">
        <ele>833.12</ele>
        <time>2024-03-21T12:48:37Z</time>
      </trkpt>
      <trkpt lat="44.45701" lon="5.22416">
        <ele>832.64</ele>
        <time>2024-03-21T12:48:55Z</time>
      </trkpt>
      <trkpt lat="44.45685" lon="5.22416">
        <ele>832.64</ele>
        <time>2024-03-21T12:49:10Z</time>
      </trkpt>
      <trkpt lat="44.45674" lon="5.22417">
        <ele>834.08</ele>
        <time>2024-03-21T12:49:21Z</time>
      </trkpt>
      <trkpt lat="44.45666" lon="5.22414">
        <ele>835.04</ele>
        <time>2024-03-21T12:49:29Z</time>
      </trkpt>
      <trkpt lat="44.45656" lon="5.22396">
        <ele>836</ele>
        <time>2024-03-21T12:49:44Z</time>
      </trkpt>
      <trkpt lat="44.45649" lon="5.2238">
        <ele>837.45</ele>
        <time>2024-03-21T12:49:58Z</time>
      </trkpt>
      <trkpt lat="44.45637" lon="5.22356">
        <ele>838.41</ele>
        <time>2024-03-21T12:50:14Z</time>
      </trkpt>
      <trkpt lat="44.45625" lon="5.22335">
        <ele>838.41</ele>
        <time>2024-03-21T12:50:31Z</time>
      </trkpt>
      <trkpt lat="44.45622" lon="5.22332">
        <ele>838.41</ele>
        <time>2024-03-21T12:50:34Z</time>
      </trkpt>
      <trkpt lat="44.4561" lon="5.22328">
        <ele>839.85</ele>
        <time>2024-03-21T12:50:49Z</time>
      </trkpt>
      <trkpt lat="44.45594" lon="5.22337">
        <ele>842.25</ele>
        <time>2024-03-21T12:51:07Z</time>
      </trkpt>
      <trkpt lat="44.45587" lon="5.22335">
        <ele>842.25</ele>
        <time>2024-03-21T12:51:13Z</time>
      </trkpt>
      <trkpt lat="44.45576" lon="5.22322">
        <ele>841.77</ele>
        <time>2024-03-21T12:51:28Z</time>
      </trkpt>
      <trkpt lat="44.45574" lon="5.22321">
        <ele>840.81</ele>
        <time>2024-03-21T12:51:30Z</time>
      </trkpt>
      <trkpt lat="44.45561" lon="5.22307">
        <ele>839.85</ele>
        <time>2024-03-21T12:51:45Z</time>
      </trkpt>
      <trkpt lat="44.45548" lon="5.22291">
        <ele>837.45</ele>
        <time>2024-03-21T12:52:02Z</time>
      </trkpt>
      <trkpt lat="44.45536" lon="5.22275">
        <ele>836.96</ele>
        <time>2024-03-21T12:52:15Z</time>
      </trkpt>
      <trkpt lat="44.45532" lon="5.22271">
        <ele>838.41</ele>
        <time>2024-03-21T12:52:19Z</time>
      </trkpt>
      <trkpt lat="44.45531" lon="5.22269">
        <ele>838.41</ele>
        <time>2024-03-21T12:52:20Z</time>
      </trkpt>
      <trkpt lat="44.4553" lon="5.22268">
        <ele>838.41</ele>
        <time>2024-03-21T12:52:21Z</time>
      </trkpt>
      <trkpt lat="44.45528" lon="5.22266">
        <ele>836.96</ele>
        <time>2024-03-21T12:52:23Z</time>
      </trkpt>
      <trkpt lat="44.45515" lon="5.22264">
        <ele>836.96</ele>
        <time>2024-03-21T12:52:35Z</time>
      </trkpt>
      <trkpt lat="44.45514" lon="5.22264">
        <ele>836.96</ele>
        <time>2024-03-21T12:52:36Z</time>
      </trkpt>
      <trkpt lat="44.45507" lon="5.22257">
        <ele>838.41</ele>
        <time>2024-03-21T12:52:45Z</time>
      </trkpt>
      <trkpt lat="44.45506" lon="5.22256">
        <ele>838.41</ele>
        <time>2024-03-21T12:52:46Z</time>
      </trkpt>
      <trkpt lat="44.45493" lon="5.22241">
        <ele>838.41</ele>
        <time>2024-03-21T12:53:01Z</time>
      </trkpt>
      <trkpt lat="44.45484" lon="5.22227">
        <ele>838.41</ele>
        <time>2024-03-21T12:53:13Z</time>
      </trkpt>
      <trkpt lat="44.45483" lon="5.22226">
        <ele>838.41</ele>
        <time>2024-03-21T12:53:14Z</time>
      </trkpt>
      <trkpt lat="44.45482" lon="5.22225">
        <ele>838.41</ele>
        <time>2024-03-21T12:53:15Z</time>
      </trkpt>
      <trkpt lat="44.4548" lon="5.22223">
        <ele>838.41</ele>
        <time>2024-03-21T12:53:16Z</time>
      </trkpt>
      <trkpt lat="44.45479" lon="5.22222">
        <ele>838.41</ele>
        <time>2024-03-21T12:53:17Z</time>
      </trkpt>
      <trkpt lat="44.45479" lon="5.2222">
        <ele>838.41</ele>
        <time>2024-03-21T12:53:18Z</time>
      </trkpt>
      <trkpt lat="44.45478" lon="5.22219">
        <ele>838.41</ele>
        <time>2024-03-21T12:53:19Z</time>
      </trkpt>
      <trkpt lat="44.45475" lon="5.22213">
        <ele>837.45</ele>
        <time>2024-03-21T12:53:24Z</time>
      </trkpt>
      <trkpt lat="44.45472" lon="5.22209">
        <ele>836.48</ele>
        <time>2024-03-21T12:53:28Z</time>
      </trkpt>
      <trkpt lat="44.45471" lon="5.22209">
        <ele>836.48</ele>
        <time>2024-03-21T12:53:29Z</time>
      </trkpt>
      <trkpt lat="44.45467" lon="5.22206">
        <ele>836.48</ele>
        <time>2024-03-21T12:53:33Z</time>
      </trkpt>
      <trkpt lat="44.45466" lon="5.22205">
        <ele>836.48</ele>
        <time>2024-03-21T12:53:34Z</time>
      </trkpt>
      <trkpt lat="44.4545" lon="5.22199">
        <ele>835.04</ele>
        <time>2024-03-21T12:53:50Z</time>
      </trkpt>
      <trkpt lat="44.45435" lon="5.22197">
        <ele>833.6</ele>
        <time>2024-03-21T12:54:06Z</time>
      </trkpt>
      <trkpt lat="44.45418" lon="5.22196">
        <ele>830.72</ele>
        <time>2024-03-21T12:54:23Z</time>
      </trkpt>
      <trkpt lat="44.45401" lon="5.22198">
        <ele>827.83</ele>
        <time>2024-03-21T12:54:38Z</time>
      </trkpt>
      <trkpt lat="44.45384" lon="5.222">
        <ele>826.87</ele>
        <time>2024-03-21T12:54:53Z</time>
      </trkpt>
      <trkpt lat="44.45364" lon="5.22199">
        <ele>825.43</ele>
        <time>2024-03-21T12:55:10Z</time>
      </trkpt>
      <trkpt lat="44.45341" lon="5.22203">
        <ele>823.99</ele>
        <time>2024-03-21T12:55:28Z</time>
      </trkpt>
      <trkpt lat="44.4533" lon="5.22203">
        <ele>823.51</ele>
        <time>2024-03-21T12:55:41Z</time>
      </trkpt>
      <trkpt lat="44.45329" lon="5.22204">
        <ele>823.51</ele>
        <time>2024-03-21T12:55:52Z</time>
      </trkpt>
      <trkpt lat="44.45327" lon="5.22204">
        <ele>823.51</ele>
        <time>2024-03-21T12:55:53Z</time>
      </trkpt>
      <trkpt lat="44.45319" lon="5.22208">
        <ele>823.03</ele>
        <time>2024-03-21T12:56:04Z</time>
      </trkpt>
      <trkpt lat="44.45315" lon="5.22208">
        <ele>824.47</ele>
        <time>2024-03-21T12:56:09Z</time>
      </trkpt>
      <trkpt lat="44.45306" lon="5.22208">
        <ele>824.95</ele>
        <time>2024-03-21T12:56:22Z</time>
      </trkpt>
      <trkpt lat="44.45303" lon="5.22206">
        <ele>824.95</ele>
        <time>2024-03-21T12:56:41Z</time>
      </trkpt>
      <trkpt lat="44.45296" lon="5.22207">
        <ele>825.43</ele>
        <time>2024-03-21T12:56:58Z</time>
      </trkpt>
      <trkpt lat="44.45285" lon="5.22204">
        <ele>827.35</ele>
        <time>2024-03-21T12:57:12Z</time>
      </trkpt>
      <trkpt lat="44.45274" lon="5.22204">
        <ele>829.27</ele>
        <time>2024-03-21T12:57:25Z</time>
      </trkpt>
      <trkpt lat="44.45262" lon="5.22207">
        <ele>831.2</ele>
        <time>2024-03-21T12:57:41Z</time>
      </trkpt>
      <trkpt lat="44.45251" lon="5.22213">
        <ele>834.08</ele>
        <time>2024-03-21T12:57:57Z</time>
      </trkpt>
      <trkpt lat="44.45245" lon="5.22209">
        <ele>836</ele>
        <time>2024-03-21T12:58:13Z</time>
      </trkpt>
      <trkpt lat="44.45244" lon="5.22195">
        <ele>838.41</ele>
        <time>2024-03-21T12:58:29Z</time>
      </trkpt>
      <trkpt lat="44.45247" lon="5.22184">
        <ele>840.33</ele>
        <time>2024-03-21T12:58:43Z</time>
      </trkpt>
      <trkpt lat="44.45242" lon="5.22185">
        <ele>843.69</ele>
        <time>2024-03-21T12:59:01Z</time>
      </trkpt>
      <trkpt lat="44.45232" lon="5.22194">
        <ele>846.1</ele>
        <time>2024-03-21T12:59:18Z</time>
      </trkpt>
      <trkpt lat="44.45226" lon="5.22195">
        <ele>848.5</ele>
        <time>2024-03-21T12:59:31Z</time>
      </trkpt>
      <trkpt lat="44.45225" lon="5.22179">
        <ele>850.9</ele>
        <time>2024-03-21T12:59:50Z</time>
      </trkpt>
      <trkpt lat="44.45224" lon="5.22172">
        <ele>852.83</ele>
        <time>2024-03-21T13:00:06Z</time>
      </trkpt>
      <trkpt lat="44.45218" lon="5.22183">
        <ele>856.19</ele>
        <time>2024-03-21T13:00:23Z</time>
      </trkpt>
      <trkpt lat="44.45209" lon="5.22189">
        <ele>858.59</ele>
        <time>2024-03-21T13:00:42Z</time>
      </trkpt>
      <trkpt lat="44.45201" lon="5.22193">
        <ele>861.48</ele>
        <time>2024-03-21T13:00:58Z</time>
      </trkpt>
      <trkpt lat="44.45201" lon="5.22185">
        <ele>862.44</ele>
        <time>2024-03-21T13:01:12Z</time>
      </trkpt>
      <trkpt lat="44.45205" lon="5.22171">
        <ele>862.92</ele>
        <time>2024-03-21T13:01:25Z</time>
      </trkpt>
      <trkpt lat="44.452" lon="5.22166">
        <ele>866.29</ele>
        <time>2024-03-21T13:01:39Z</time>
      </trkpt>
      <trkpt lat="44.45194" lon="5.22174">
        <ele>868.69</ele>
        <time>2024-03-21T13:01:54Z</time>
      </trkpt>
      <trkpt lat="44.45188" lon="5.22175">
        <ele>871.57</ele>
        <time>2024-03-21T13:02:09Z</time>
      </trkpt>
      <trkpt lat="44.45186" lon="5.22177">
        <ele>873.5</ele>
        <time>2024-03-21T13:02:20Z</time>
      </trkpt>
      <trkpt lat="44.45182" lon="5.2218">
        <ele>875.9</ele>
        <time>2024-03-21T13:02:33Z</time>
      </trkpt>
      <trkpt lat="44.45179" lon="5.22177">
        <ele>878.3</ele>
        <time>2024-03-21T13:02:48Z</time>
      </trkpt>
      <trkpt lat="44.45175" lon="5.22182">
        <ele>880.22</ele>
        <time>2024-03-21T13:03:05Z</time>
      </trkpt>
      <trkpt lat="44.45174" lon="5.22173">
        <ele>882.15</ele>
        <time>2024-03-21T13:03:19Z</time>
      </trkpt>
      <trkpt lat="44.45168" lon="5.22176">
        <ele>885.03</ele>
        <time>2024-03-21T13:03:34Z</time>
      </trkpt>
      <trkpt lat="44.45161" lon="5.22188">
        <ele>887.43</ele>
        <time>2024-03-21T13:03:49Z</time>
      </trkpt>
      <trkpt lat="44.45155" lon="5.22193">
        <ele>889.84</ele>
        <time>2024-03-21T13:04:02Z</time>
      </trkpt>
      <trkpt lat="44.45148" lon="5.22197">
        <ele>892.24</ele>
        <time>2024-03-21T13:04:16Z</time>
      </trkpt>
      <trkpt lat="44.45144" lon="5.22204">
        <ele>894.64</ele>
        <time>2024-03-21T13:04:31Z</time>
      </trkpt>
      <trkpt lat="44.45141" lon="5.22207">
        <ele>897.05</ele>
        <time>2024-03-21T13:04:46Z</time>
      </trkpt>
      <trkpt lat="44.45138" lon="5.22198">
        <ele>899.45</ele>
        <time>2024-03-21T13:05:03Z</time>
      </trkpt>
      <trkpt lat="44.45133" lon="5.22205">
        <ele>901.85</ele>
        <time>2024-03-21T13:05:18Z</time>
      </trkpt>
      <trkpt lat="44.45129" lon="5.22198">
        <ele>904.26</ele>
        <time>2024-03-21T13:05:32Z</time>
      </trkpt>
      <trkpt lat="44.45125" lon="5.22191">
        <ele>906.66</ele>
        <time>2024-03-21T13:05:47Z</time>
      </trkpt>
      <trkpt lat="44.45124" lon="5.22182">
        <ele>909.06</ele>
        <time>2024-03-21T13:06:02Z</time>
      </trkpt>
      <trkpt lat="44.45123" lon="5.2217">
        <ele>911.47</ele>
        <time>2024-03-21T13:06:18Z</time>
      </trkpt>
      <trkpt lat="44.4512" lon="5.2217">
        <ele>913.87</ele>
        <time>2024-03-21T13:06:32Z</time>
      </trkpt>
      <trkpt lat="44.45114" lon="5.2218">
        <ele>915.79</ele>
        <time>2024-03-21T13:06:45Z</time>
      </trkpt>
      <trkpt lat="44.4511" lon="5.22189">
        <ele>917.24</ele>
        <time>2024-03-21T13:06:58Z</time>
      </trkpt>
      <trkpt lat="44.45108" lon="5.22192">
        <ele>920.6</ele>
        <time>2024-03-21T13:07:12Z</time>
      </trkpt>
      <trkpt lat="44.45103" lon="5.22193">
        <ele>922.52</ele>
        <time>2024-03-21T13:07:25Z</time>
      </trkpt>
      <trkpt lat="44.45099" lon="5.22182">
        <ele>924.93</ele>
        <time>2024-03-21T13:07:41Z</time>
      </trkpt>
      <trkpt lat="44.45096" lon="5.22185">
        <ele>927.81</ele>
        <time>2024-03-21T13:07:57Z</time>
      </trkpt>
      <trkpt lat="44.45093" lon="5.2219">
        <ele>930.69</ele>
        <time>2024-03-21T13:08:11Z</time>
      </trkpt>
      <trkpt lat="44.45088" lon="5.22202">
        <ele>932.14</ele>
        <time>2024-03-21T13:08:26Z</time>
      </trkpt>
      <trkpt lat="44.45084" lon="5.22201">
        <ele>935.02</ele>
        <time>2024-03-21T13:08:43Z</time>
      </trkpt>
      <trkpt lat="44.45081" lon="5.22187">
        <ele>936.94</ele>
        <time>2024-03-21T13:08:58Z</time>
      </trkpt>
      <trkpt lat="44.45081" lon="5.22179">
        <ele>938.86</ele>
        <time>2024-03-21T13:09:12Z</time>
      </trkpt>
      <trkpt lat="44.45077" lon="5.22186">
        <ele>941.75</ele>
        <time>2024-03-21T13:09:28Z</time>
      </trkpt>
      <trkpt lat="44.45073" lon="5.22193">
        <ele>943.19</ele>
        <time>2024-03-21T13:09:43Z</time>
      </trkpt>
      <trkpt lat="44.45072" lon="5.222">
        <ele>944.15</ele>
        <time>2024-03-21T13:10:00Z</time>
      </trkpt>
      <trkpt lat="44.45069" lon="5.22192">
        <ele>946.56</ele>
        <time>2024-03-21T13:10:13Z</time>
      </trkpt>
      <trkpt lat="44.45066" lon="5.22186">
        <ele>948.96</ele>
        <time>2024-03-21T13:10:28Z</time>
      </trkpt>
      <trkpt lat="44.45063" lon="5.22184">
        <ele>952.32</ele>
        <time>2024-03-21T13:10:45Z</time>
      </trkpt>
      <trkpt lat="44.4506" lon="5.22189">
        <ele>955.21</ele>
        <time>2024-03-21T13:10:58Z</time>
      </trkpt>
      <trkpt lat="44.45057" lon="5.22175">
        <ele>958.09</ele>
        <time>2024-03-21T13:11:14Z</time>
      </trkpt>
      <trkpt lat="44.45059" lon="5.22165">
        <ele>960.98</ele>
        <time>2024-03-21T13:11:32Z</time>
      </trkpt>
      <trkpt lat="44.45056" lon="5.22166">
        <ele>962.9</ele>
        <time>2024-03-21T13:11:47Z</time>
      </trkpt>
      <trkpt lat="44.45053" lon="5.2216">
        <ele>964.82</ele>
        <time>2024-03-21T13:11:59Z</time>
      </trkpt>
      <trkpt lat="44.45046" lon="5.22154">
        <ele>966.74</ele>
        <time>2024-03-21T13:12:12Z</time>
      </trkpt>
      <trkpt lat="44.45038" lon="5.22148">
        <ele>968.67</ele>
        <time>2024-03-21T13:12:27Z</time>
      </trkpt>
      <trkpt lat="44.45028" lon="5.22147">
        <ele>970.11</ele>
        <time>2024-03-21T13:12:43Z</time>
      </trkpt>
      <trkpt lat="44.45017" lon="5.22147">
        <ele>971.07</ele>
        <time>2024-03-21T13:12:58Z</time>
      </trkpt>
      <trkpt lat="44.45006" lon="5.22151">
        <ele>972.99</ele>
        <time>2024-03-21T13:13:12Z</time>
      </trkpt>
      <trkpt lat="44.44999" lon="5.22157">
        <ele>976.36</ele>
        <time>2024-03-21T13:13:29Z</time>
      </trkpt>
      <trkpt lat="44.44991" lon="5.2216">
        <ele>979.72</ele>
        <time>2024-03-21T13:13:45Z</time>
      </trkpt>
      <trkpt lat="44.4498" lon="5.22163">
        <ele>982.12</ele>
        <time>2024-03-21T13:14:01Z</time>
      </trkpt>
      <trkpt lat="44.44972" lon="5.22164">
        <ele>984.05</ele>
        <time>2024-03-21T13:14:15Z</time>
      </trkpt>
      <trkpt lat="44.4497" lon="5.22167">
        <ele>984.53</ele>
        <time>2024-03-21T13:14:30Z</time>
      </trkpt>
      <trkpt lat="44.4497" lon="5.22179">
        <ele>987.41</ele>
        <time>2024-03-21T13:14:49Z</time>
      </trkpt>
      <trkpt lat="44.44969" lon="5.22189">
        <ele>990.3</ele>
        <time>2024-03-21T13:15:05Z</time>
      </trkpt>
      <trkpt lat="44.44971" lon="5.22197">
        <ele>993.18</ele>
        <time>2024-03-21T13:15:20Z</time>
      </trkpt>
      <trkpt lat="44.44967" lon="5.22203">
        <ele>996.06</ele>
        <time>2024-03-21T13:15:39Z</time>
      </trkpt>
      <trkpt lat="44.44963" lon="5.22214">
        <ele>999.43</ele>
        <time>2024-03-21T13:15:57Z</time>
      </trkpt>
      <trkpt lat="44.44959" lon="5.2222">
        <ele>1002.31</ele>
        <time>2024-03-21T13:16:15Z</time>
      </trkpt>
      <trkpt lat="44.44955" lon="5.22227">
        <ele>1004.23</ele>
        <time>2024-03-21T13:16:30Z</time>
      </trkpt>
      <trkpt lat="44.44956" lon="5.22231">
        <ele>1006.64</ele>
        <time>2024-03-21T13:16:43Z</time>
      </trkpt>
      <trkpt lat="44.44947" lon="5.22241">
        <ele>1007.6</ele>
        <time>2024-03-21T13:17:00Z</time>
      </trkpt>
      <trkpt lat="44.4494" lon="5.22253">
        <ele>1010</ele>
        <time>2024-03-21T13:17:16Z</time>
      </trkpt>
      <trkpt lat="44.44933" lon="5.22264">
        <ele>1011.93</ele>
        <time>2024-03-21T13:17:31Z</time>
      </trkpt>
      <trkpt lat="44.44927" lon="5.2227">
        <ele>1012.41</ele>
        <time>2024-03-21T13:17:46Z</time>
      </trkpt>
      <trkpt lat="44.44925" lon="5.22282">
        <ele>1014.81</ele>
        <time>2024-03-21T13:18:02Z</time>
      </trkpt>
      <trkpt lat="44.44922" lon="5.22291">
        <ele>1017.69</ele>
        <time>2024-03-21T13:18:19Z</time>
      </trkpt>
      <trkpt lat="44.4492" lon="5.22299">
        <ele>1020.1</ele>
        <time>2024-03-21T13:18:36Z</time>
      </trkpt>
      <trkpt lat="44.44916" lon="5.22308">
        <ele>1023.46</ele>
        <time>2024-03-21T13:18:54Z</time>
      </trkpt>
      <trkpt lat="44.44912" lon="5.22311">
        <ele>1024.42</ele>
        <time>2024-03-21T13:19:10Z</time>
      </trkpt>
      <trkpt lat="44.44912" lon="5.22314">
        <ele>1024.9</ele>
        <time>2024-03-21T13:19:23Z</time>
      </trkpt>
      <trkpt lat="44.44913" lon="5.22316">
        <ele>1026.83</ele>
        <time>2024-03-21T13:26:19Z</time>
      </trkpt>
      <trkpt lat="44.44906" lon="5.22321">
        <ele>1024.42</ele>
        <time>2024-03-21T13:26:35Z</time>
      </trkpt>
      <trkpt lat="44.44897" lon="5.22321">
        <ele>1022.5</ele>
        <time>2024-03-21T13:26:50Z</time>
      </trkpt>
      <trkpt lat="44.44887" lon="5.22317">
        <ele>1020.1</ele>
        <time>2024-03-21T13:27:03Z</time>
      </trkpt>
      <trkpt lat="44.44878" lon="5.2232">
        <ele>1019.13</ele>
        <time>2024-03-21T13:27:17Z</time>
      </trkpt>
      <trkpt lat="44.44869" lon="5.22329">
        <ele>1021.06</ele>
        <time>2024-03-21T13:27:32Z</time>
      </trkpt>
      <trkpt lat="44.44858" lon="5.22341">
        <ele>1022.5</ele>
        <time>2024-03-21T13:27:49Z</time>
      </trkpt>
      <trkpt lat="44.44852" lon="5.22349">
        <ele>1024.9</ele>
        <time>2024-03-21T13:28:02Z</time>
      </trkpt>
      <trkpt lat="44.44849" lon="5.22354">
        <ele>1026.83</ele>
        <time>2024-03-21T13:28:17Z</time>
      </trkpt>
      <trkpt lat="44.44852" lon="5.22356">
        <ele>1028.27</ele>
        <time>2024-03-21T13:28:32Z</time>
      </trkpt>
      <trkpt lat="44.44854" lon="5.22356">
        <ele>1031.63</ele>
        <time>2024-03-21T13:28:44Z</time>
      </trkpt>
      <trkpt lat="44.44859" lon="5.22363">
        <ele>1034.52</ele>
        <time>2024-03-21T13:29:00Z</time>
      </trkpt>
      <trkpt lat="44.44863" lon="5.22369">
        <ele>1036.92</ele>
        <time>2024-03-21T13:29:17Z</time>
      </trkpt>
      <trkpt lat="44.44865" lon="5.22374">
        <ele>1039.32</ele>
        <time>2024-03-21T13:29:32Z</time>
      </trkpt>
      <trkpt lat="44.44863" lon="5.22379">
        <ele>1041.25</ele>
        <time>2024-03-21T13:29:46Z</time>
      </trkpt>
      <trkpt lat="44.44858" lon="5.22381">
        <ele>1042.69</ele>
        <time>2024-03-21T13:30:04Z</time>
      </trkpt>
      <trkpt lat="44.44856" lon="5.22382">
        <ele>1042.69</ele>
        <time>2024-03-21T13:30:08Z</time>
      </trkpt>
      <trkpt lat="44.44849" lon="5.22387">
        <ele>1043.65</ele>
        <time>2024-03-21T13:30:22Z</time>
      </trkpt>
      <trkpt lat="44.44846" lon="5.22388">
        <ele>1043.65</ele>
        <time>2024-03-21T13:30:38Z</time>
      </trkpt>
      <trkpt lat="44.44841" lon="5.2239">
        <ele>1042.21</ele>
        <time>2024-03-21T13:30:47Z</time>
      </trkpt>
      <trkpt lat="44.4483" lon="5.22391">
        <ele>1040.28</ele>
        <time>2024-03-21T13:31:03Z</time>
      </trkpt>
      <trkpt lat="44.44821" lon="5.22392">
        <ele>1039.8</ele>
        <time>2024-03-21T13:31:17Z</time>
      </trkpt>
      <trkpt lat="44.44818" lon="5.22392">
        <ele>1039.32</ele>
        <time>2024-03-21T13:31:22Z</time>
      </trkpt>
      <trkpt lat="44.44809" lon="5.22393">
        <ele>1038.36</ele>
        <time>2024-03-21T13:31:34Z</time>
      </trkpt>
      <trkpt lat="44.44804" lon="5.22392">
        <ele>1038.36</ele>
        <time>2024-03-21T13:31:51Z</time>
      </trkpt>
      <trkpt lat="44.448" lon="5.22393">
        <ele>1037.88</ele>
        <time>2024-03-21T13:31:57Z</time>
      </trkpt>
      <trkpt lat="44.44798" lon="5.22392">
        <ele>1037.88</ele>
        <time>2024-03-21T13:31:59Z</time>
      </trkpt>
      <trkpt lat="44.44793" lon="5.22391">
        <ele>1037.4</ele>
        <time>2024-03-21T13:32:05Z</time>
      </trkpt>
      <trkpt lat="44.44789" lon="5.22391">
        <ele>1036.92</ele>
        <time>2024-03-21T13:32:10Z</time>
      </trkpt>
      <trkpt lat="44.44781" lon="5.22394">
        <ele>1037.88</ele>
        <time>2024-03-21T13:32:23Z</time>
      </trkpt>
      <trkpt lat="44.44779" lon="5.22396">
        <ele>1037.88</ele>
        <time>2024-03-21T13:32:39Z</time>
      </trkpt>
      <trkpt lat="44.44779" lon="5.22397">
        <ele>1037.88</ele>
        <time>2024-03-21T13:33:07Z</time>
      </trkpt>
      <trkpt lat="44.44777" lon="5.22395">
        <ele>1036.44</ele>
        <time>2024-03-21T13:33:13Z</time>
      </trkpt>
      <trkpt lat="44.44771" lon="5.22392">
        <ele>1033.07</ele>
        <time>2024-03-21T13:33:25Z</time>
      </trkpt>
      <trkpt lat="44.44764" lon="5.22388">
        <ele>1029.71</ele>
        <time>2024-03-21T13:33:36Z</time>
      </trkpt>
      <trkpt lat="44.44754" lon="5.22386">
        <ele>1028.27</ele>
        <time>2024-03-21T13:33:50Z</time>
      </trkpt>
      <trkpt lat="44.44748" lon="5.22391">
        <ele>1031.15</ele>
        <time>2024-03-21T13:33:58Z</time>
      </trkpt>
      <trkpt lat="44.44742" lon="5.22403">
        <ele>1034.52</ele>
        <time>2024-03-21T13:34:12Z</time>
      </trkpt>
      <trkpt lat="44.44739" lon="5.22413">
        <ele>1037.4</ele>
        <time>2024-03-21T13:34:28Z</time>
      </trkpt>
      <trkpt lat="44.44738" lon="5.22418">
        <ele>1039.32</ele>
        <time>2024-03-21T13:34:41Z</time>
      </trkpt>
      <trkpt lat="44.4474" lon="5.22424">
        <ele>1042.69</ele>
        <time>2024-03-21T13:34:56Z</time>
      </trkpt>
      <trkpt lat="44.44745" lon="5.22433">
        <ele>1044.61</ele>
        <time>2024-03-21T13:35:12Z</time>
      </trkpt>
      <trkpt lat="44.44748" lon="5.22438">
        <ele>1046.05</ele>
        <time>2024-03-21T13:35:20Z</time>
      </trkpt>
      <trkpt lat="44.44751" lon="5.22443">
        <ele>1047.97</ele>
        <time>2024-03-21T13:35:33Z</time>
      </trkpt>
      <trkpt lat="44.44755" lon="5.22445">
        <ele>1049.9</ele>
        <time>2024-03-21T13:35:46Z</time>
      </trkpt>
      <trkpt lat="44.44758" lon="5.22447">
        <ele>1048.94</ele>
        <time>2024-03-21T13:37:03Z</time>
      </trkpt>
      <trkpt lat="44.44759" lon="5.22447">
        <ele>1050.38</ele>
        <time>2024-03-21T13:37:13Z</time>
      </trkpt>
      <trkpt lat="44.44758" lon="5.22446">
        <ele>1049.9</ele>
        <time>2024-03-21T13:37:36Z</time>
      </trkpt>
      <trkpt lat="44.44757" lon="5.22445">
        <ele>1049.9</ele>
        <time>2024-03-21T13:37:52Z</time>
      </trkpt>
      <trkpt lat="44.44753" lon="5.22442">
        <ele>1048.94</ele>
        <time>2024-03-21T13:38:06Z</time>
      </trkpt>
      <trkpt lat="44.44747" lon="5.22435">
        <ele>1046.53</ele>
        <time>2024-03-21T13:38:19Z</time>
      </trkpt>
      <trkpt lat="44.44741" lon="5.22427">
        <ele>1043.65</ele>
        <time>2024-03-21T13:38:30Z</time>
      </trkpt>
      <trkpt lat="44.44737" lon="5.22419">
        <ele>1040.76</ele>
        <time>2024-03-21T13:38:44Z</time>
      </trkpt>
      <trkpt lat="44.44739" lon="5.22408">
        <ele>1037.88</ele>
        <time>2024-03-21T13:38:58Z</time>
      </trkpt>
      <trkpt lat="44.44741" lon="5.22402">
        <ele>1035</ele>
        <time>2024-03-21T13:39:09Z</time>
      </trkpt>
      <trkpt lat="44.44746" lon="5.22395">
        <ele>1031.63</ele>
        <time>2024-03-21T13:39:22Z</time>
      </trkpt>
      <trkpt lat="44.44751" lon="5.22385">
        <ele>1027.79</ele>
        <time>2024-03-21T13:39:33Z</time>
      </trkpt>
      <trkpt lat="44.44755" lon="5.22379">
        <ele>1026.34</ele>
        <time>2024-03-21T13:39:41Z</time>
      </trkpt>
      <trkpt lat="44.44766" lon="5.22375">
        <ele>1025.38</ele>
        <time>2024-03-21T13:39:54Z</time>
      </trkpt>
      <trkpt lat="44.44771" lon="5.2237">
        <ele>1023.94</ele>
        <time>2024-03-21T13:40:00Z</time>
      </trkpt>
      <trkpt lat="44.44773" lon="5.22367">
        <ele>1022.5</ele>
        <time>2024-03-21T13:40:03Z</time>
      </trkpt>
      <trkpt lat="44.44785" lon="5.22364">
        <ele>1020.1</ele>
        <time>2024-03-21T13:40:18Z</time>
      </trkpt>
      <trkpt lat="44.44799" lon="5.22359">
        <ele>1019.62</ele>
        <time>2024-03-21T13:40:31Z</time>
      </trkpt>
      <trkpt lat="44.44811" lon="5.22359">
        <ele>1019.62</ele>
        <time>2024-03-21T13:40:46Z</time>
      </trkpt>
      <trkpt lat="44.44813" lon="5.2236">
        <ele>1021.06</ele>
        <time>2024-03-21T13:40:49Z</time>
      </trkpt>
      <trkpt lat="44.4482" lon="5.22358">
        <ele>1022.98</ele>
        <time>2024-03-21T13:41:05Z</time>
      </trkpt>
      <trkpt lat="44.44827" lon="5.22355">
        <ele>1023.94</ele>
        <time>2024-03-21T13:41:22Z</time>
      </trkpt>
      <trkpt lat="44.44829" lon="5.22357">
        <ele>1025.38</ele>
        <time>2024-03-21T13:41:37Z</time>
      </trkpt>
      <trkpt lat="44.44828" lon="5.22359">
        <ele>1026.83</ele>
        <time>2024-03-21T13:41:56Z</time>
      </trkpt>
      <trkpt lat="44.44829" lon="5.22367">
        <ele>1028.75</ele>
        <time>2024-03-21T13:42:12Z</time>
      </trkpt>
      <trkpt lat="44.44825" lon="5.22375">
        <ele>1031.15</ele>
        <time>2024-03-21T13:42:27Z</time>
      </trkpt>
      <trkpt lat="44.44821" lon="5.22379">
        <ele>1034.04</ele>
        <time>2024-03-21T13:42:42Z</time>
      </trkpt>
      <trkpt lat="44.44823" lon="5.22381">
        <ele>1034.52</ele>
        <time>2024-03-21T13:43:02Z</time>
      </trkpt>
      <trkpt lat="44.44826" lon="5.22387">
        <ele>1037.88</ele>
        <time>2024-03-21T13:43:12Z</time>
      </trkpt>
      <trkpt lat="44.44831" lon="5.2239">
        <ele>1040.76</ele>
        <time>2024-03-21T13:43:26Z</time>
      </trkpt>
      <trkpt lat="44.44841" lon="5.22389">
        <ele>1043.65</ele>
        <time>2024-03-21T13:43:43Z</time>
      </trkpt>
      <trkpt lat="44.44847" lon="5.22385">
        <ele>1043.65</ele>
        <time>2024-03-21T13:43:55Z</time>
      </trkpt>
      <trkpt lat="44.44848" lon="5.22384">
        <ele>1045.57</ele>
        <time>2024-03-21T13:43:57Z</time>
      </trkpt>
      <trkpt lat="44.44849" lon="5.22383">
        <ele>1047.01</ele>
        <time>2024-03-21T13:43:59Z</time>
      </trkpt>
      <trkpt lat="44.44851" lon="5.22382">
        <ele>1045.09</ele>
        <time>2024-03-21T13:44:04Z</time>
      </trkpt>
      <trkpt lat="44.44856" lon="5.22379">
        <ele>1045.09</ele>
        <time>2024-03-21T13:44:18Z</time>
      </trkpt>
      <trkpt lat="44.44857" lon="5.22375">
        <ele>1041.73</ele>
        <time>2024-03-21T13:44:26Z</time>
      </trkpt>
      <trkpt lat="44.44859" lon="5.22374">
        <ele>1040.28</ele>
        <time>2024-03-21T13:44:31Z</time>
      </trkpt>
      <trkpt lat="44.44861" lon="5.22374">
        <ele>1038.84</ele>
        <time>2024-03-21T13:44:34Z</time>
      </trkpt>
      <trkpt lat="44.44863" lon="5.22372">
        <ele>1040.28</ele>
        <time>2024-03-21T13:44:45Z</time>
      </trkpt>
      <trkpt lat="44.44863" lon="5.22372">
        <ele>1038.36</ele>
        <time>2024-03-21T13:44:48Z</time>
      </trkpt>
      <trkpt lat="44.44862" lon="5.2237">
        <ele>1037.88</ele>
        <time>2024-03-21T13:45:05Z</time>
      </trkpt>
      <trkpt lat="44.44862" lon="5.22369">
        <ele>1038.36</ele>
        <time>2024-03-21T13:45:11Z</time>
      </trkpt>
      <trkpt lat="44.44861" lon="5.22368">
        <ele>1035.96</ele>
        <time>2024-03-21T13:45:14Z</time>
      </trkpt>
      <trkpt lat="44.44857" lon="5.22363">
        <ele>1033.55</ele>
        <time>2024-03-21T13:45:29Z</time>
      </trkpt>
      <trkpt lat="44.44853" lon="5.22359">
        <ele>1030.19</ele>
        <time>2024-03-21T13:45:44Z</time>
      </trkpt>
      <trkpt lat="44.4485" lon="5.22357">
        <ele>1028.27</ele>
        <time>2024-03-21T13:45:58Z</time>
      </trkpt>
      <trkpt lat="44.44846" lon="5.22353">
        <ele>1025.86</ele>
        <time>2024-03-21T13:46:14Z</time>
      </trkpt>
      <trkpt lat="44.4485" lon="5.22346">
        <ele>1023.46</ele>
        <time>2024-03-21T13:46:25Z</time>
      </trkpt>
      <trkpt lat="44.44858" lon="5.22337">
        <ele>1021.54</ele>
        <time>2024-03-21T13:46:37Z</time>
      </trkpt>
      <trkpt lat="44.44866" lon="5.2233">
        <ele>1019.13</ele>
        <time>2024-03-21T13:46:46Z</time>
      </trkpt>
      <trkpt lat="44.44879" lon="5.22319">
        <ele>1017.69</ele>
        <time>2024-03-21T13:47:00Z</time>
      </trkpt>
      <trkpt lat="44.44886" lon="5.22317">
        <ele>1017.69</ele>
        <time>2024-03-21T13:47:11Z</time>
      </trkpt>
      <trkpt lat="44.44889" lon="5.22319">
        <ele>1019.13</ele>
        <time>2024-03-21T13:47:17Z</time>
      </trkpt>
      <trkpt lat="44.44898" lon="5.2232">
        <ele>1020.58</ele>
        <time>2024-03-21T13:47:30Z</time>
      </trkpt>
      <trkpt lat="44.44908" lon="5.22313">
        <ele>1022.98</ele>
        <time>2024-03-21T13:47:45Z</time>
      </trkpt>
      <trkpt lat="44.4491" lon="5.22312">
        <ele>1024.9</ele>
        <time>2024-03-21T13:47:48Z</time>
      </trkpt>
      <trkpt lat="44.4491" lon="5.22311">
        <ele>1023.94</ele>
        <time>2024-03-21T13:49:24Z</time>
      </trkpt>
      <trkpt lat="44.44914" lon="5.22308">
        <ele>1022.5</ele>
        <time>2024-03-21T13:49:36Z</time>
      </trkpt>
      <trkpt lat="44.44918" lon="5.22296">
        <ele>1018.65</ele>
        <time>2024-03-21T13:49:49Z</time>
      </trkpt>
      <trkpt lat="44.44922" lon="5.22288">
        <ele>1015.77</ele>
        <time>2024-03-21T13:50:00Z</time>
      </trkpt>
      <trkpt lat="44.44924" lon="5.22282">
        <ele>1013.37</ele>
        <time>2024-03-21T13:50:11Z</time>
      </trkpt>
      <trkpt lat="44.44925" lon="5.22274">
        <ele>1011.93</ele>
        <time>2024-03-21T13:50:18Z</time>
      </trkpt>
      <trkpt lat="44.4493" lon="5.2227">
        <ele>1011.44</ele>
        <time>2024-03-21T13:50:24Z</time>
      </trkpt>
      <trkpt lat="44.44942" lon="5.22257">
        <ele>1008.56</ele>
        <time>2024-03-21T13:50:39Z</time>
      </trkpt>
      <trkpt lat="44.44944" lon="5.2225">
        <ele>1007.6</ele>
        <time>2024-03-21T13:50:43Z</time>
      </trkpt>
      <trkpt lat="44.44951" lon="5.22241">
        <ele>1004.23</ele>
        <time>2024-03-21T13:50:53Z</time>
      </trkpt>
      <trkpt lat="44.44956" lon="5.22232">
        <ele>1004.23</ele>
        <time>2024-03-21T13:51:06Z</time>
      </trkpt>
      <trkpt lat="44.44959" lon="5.22222">
        <ele>1001.35</ele>
        <time>2024-03-21T13:51:17Z</time>
      </trkpt>
      <trkpt lat="44.44962" lon="5.22212">
        <ele>998.95</ele>
        <time>2024-03-21T13:51:30Z</time>
      </trkpt>
      <trkpt lat="44.44966" lon="5.22204">
        <ele>995.1</ele>
        <time>2024-03-21T13:51:41Z</time>
      </trkpt>
      <trkpt lat="44.4497" lon="5.22198">
        <ele>992.22</ele>
        <time>2024-03-21T13:51:50Z</time>
      </trkpt>
      <trkpt lat="44.44969" lon="5.22187">
        <ele>988.37</ele>
        <time>2024-03-21T13:52:01Z</time>
      </trkpt>
      <trkpt lat="44.44969" lon="5.22183">
        <ele>986.93</ele>
        <time>2024-03-21T13:52:05Z</time>
      </trkpt>
      <trkpt lat="44.44969" lon="5.22168">
        <ele>983.57</ele>
        <time>2024-03-21T13:52:14Z</time>
      </trkpt>
      <trkpt lat="44.44982" lon="5.22163">
        <ele>980.2</ele>
        <time>2024-03-21T13:52:27Z</time>
      </trkpt>
      <trkpt lat="44.44989" lon="5.2216">
        <ele>977.32</ele>
        <time>2024-03-21T13:52:36Z</time>
      </trkpt>
      <trkpt lat="44.44994" lon="5.22159">
        <ele>974.91</ele>
        <time>2024-03-21T13:52:42Z</time>
      </trkpt>
      <trkpt lat="44.45003" lon="5.22153">
        <ele>971.55</ele>
        <time>2024-03-21T13:52:55Z</time>
      </trkpt>
      <trkpt lat="44.45013" lon="5.22149">
        <ele>969.63</ele>
        <time>2024-03-21T13:53:07Z</time>
      </trkpt>
      <trkpt lat="44.45026" lon="5.22147">
        <ele>967.7</ele>
        <time>2024-03-21T13:53:20Z</time>
      </trkpt>
      <trkpt lat="44.45037" lon="5.22147">
        <ele>965.78</ele>
        <time>2024-03-21T13:53:33Z</time>
      </trkpt>
      <trkpt lat="44.45049" lon="5.22155">
        <ele>964.34</ele>
        <time>2024-03-21T13:53:48Z</time>
      </trkpt>
      <trkpt lat="44.45057" lon="5.22161">
        <ele>962.42</ele>
        <time>2024-03-21T13:54:04Z</time>
      </trkpt>
      <trkpt lat="44.4506" lon="5.2216">
        <ele>959.53</ele>
        <time>2024-03-21T13:54:17Z</time>
      </trkpt>
      <trkpt lat="44.45059" lon="5.22169">
        <ele>956.65</ele>
        <time>2024-03-21T13:54:33Z</time>
      </trkpt>
      <trkpt lat="44.45058" lon="5.22176">
        <ele>953.28</ele>
        <time>2024-03-21T13:54:43Z</time>
      </trkpt>
      <trkpt lat="44.45061" lon="5.22177">
        <ele>950.4</ele>
        <time>2024-03-21T13:54:56Z</time>
      </trkpt>
      <trkpt lat="44.45064" lon="5.2218">
        <ele>947.04</ele>
        <time>2024-03-21T13:55:10Z</time>
      </trkpt>
      <trkpt lat="44.45066" lon="5.22181">
        <ele>945.59</ele>
        <time>2024-03-21T13:55:15Z</time>
      </trkpt>
      <trkpt lat="44.45067" lon="5.22189">
        <ele>942.71</ele>
        <time>2024-03-21T13:55:29Z</time>
      </trkpt>
      <trkpt lat="44.45068" lon="5.22188">
        <ele>941.27</ele>
        <time>2024-03-21T13:55:32Z</time>
      </trkpt>
      <trkpt lat="44.4507" lon="5.22185">
        <ele>939.83</ele>
        <time>2024-03-21T13:55:35Z</time>
      </trkpt>
      <trkpt lat="44.45076" lon="5.22177">
        <ele>938.86</ele>
        <time>2024-03-21T13:55:49Z</time>
      </trkpt>
      <trkpt lat="44.4508" lon="5.22187">
        <ele>935.98</ele>
        <time>2024-03-21T13:56:03Z</time>
      </trkpt>
      <trkpt lat="44.45081" lon="5.22201">
        <ele>932.62</ele>
        <time>2024-03-21T13:56:14Z</time>
      </trkpt>
      <trkpt lat="44.45084" lon="5.22196">
        <ele>931.17</ele>
        <time>2024-03-21T13:56:19Z</time>
      </trkpt>
      <trkpt lat="44.4509" lon="5.22183">
        <ele>928.29</ele>
        <time>2024-03-21T13:56:33Z</time>
      </trkpt>
      <trkpt lat="44.45095" lon="5.22178">
        <ele>924.93</ele>
        <time>2024-03-21T13:56:43Z</time>
      </trkpt>
      <trkpt lat="44.451" lon="5.22185">
        <ele>921.56</ele>
        <time>2024-03-21T13:56:53Z</time>
      </trkpt>
      <trkpt lat="44.451" lon="5.22186">
        <ele>921.56</ele>
        <time>2024-03-21T13:56:54Z</time>
      </trkpt>
      <trkpt lat="44.45103" lon="5.22187">
        <ele>918.2</ele>
        <time>2024-03-21T13:57:06Z</time>
      </trkpt>
      <trkpt lat="44.45107" lon="5.2218">
        <ele>915.31</ele>
        <time>2024-03-21T13:57:19Z</time>
      </trkpt>
      <trkpt lat="44.45115" lon="5.22169">
        <ele>912.91</ele>
        <time>2024-03-21T13:57:33Z</time>
      </trkpt>
      <trkpt lat="44.4512" lon="5.22169">
        <ele>910.03</ele>
        <time>2024-03-21T13:57:44Z</time>
      </trkpt>
      <trkpt lat="44.45122" lon="5.22186">
        <ele>908.1</ele>
        <time>2024-03-21T13:57:59Z</time>
      </trkpt>
      <trkpt lat="44.45124" lon="5.22193">
        <ele>905.22</ele>
        <time>2024-03-21T13:58:09Z</time>
      </trkpt>
      <trkpt lat="44.45124" lon="5.22194">
        <ele>905.22</ele>
        <time>2024-03-21T13:58:10Z</time>
      </trkpt>
      <trkpt lat="44.45126" lon="5.22199">
        <ele>901.85</ele>
        <time>2024-03-21T13:58:19Z</time>
      </trkpt>
      <trkpt lat="44.45129" lon="5.22194">
        <ele>898.97</ele>
        <time>2024-03-21T13:58:30Z</time>
      </trkpt>
      <trkpt lat="44.45136" lon="5.22198">
        <ele>896.57</ele>
        <time>2024-03-21T13:58:44Z</time>
      </trkpt>
      <trkpt lat="44.4514" lon="5.22193">
        <ele>893.2</ele>
        <time>2024-03-21T13:58:55Z</time>
      </trkpt>
      <trkpt lat="44.45141" lon="5.22192">
        <ele>893.2</ele>
        <time>2024-03-21T13:58:56Z</time>
      </trkpt>
      <trkpt lat="44.45146" lon="5.22188">
        <ele>889.84</ele>
        <time>2024-03-21T13:59:04Z</time>
      </trkpt>
      <trkpt lat="44.45152" lon="5.22181">
        <ele>886.95</ele>
        <time>2024-03-21T13:59:14Z</time>
      </trkpt>
      <trkpt lat="44.45163" lon="5.2217">
        <ele>884.07</ele>
        <time>2024-03-21T13:59:26Z</time>
      </trkpt>
      <trkpt lat="44.45168" lon="5.22175">
        <ele>881.67</ele>
        <time>2024-03-21T13:59:38Z</time>
      </trkpt>
      <trkpt lat="44.45174" lon="5.22171">
        <ele>878.78</ele>
        <time>2024-03-21T13:59:52Z</time>
      </trkpt>
      <trkpt lat="44.45179" lon="5.22177">
        <ele>875.42</ele>
        <time>2024-03-21T14:00:02Z</time>
      </trkpt>
      <trkpt lat="44.45183" lon="5.22171">
        <ele>872.05</ele>
        <time>2024-03-21T14:00:15Z</time>
      </trkpt>
      <trkpt lat="44.45193" lon="5.22166">
        <ele>868.69</ele>
        <time>2024-03-21T14:00:24Z</time>
      </trkpt>
      <trkpt lat="44.45194" lon="5.22165">
        <ele>868.69</ele>
        <time>2024-03-21T14:00:25Z</time>
      </trkpt>
      <trkpt lat="44.45199" lon="5.22162">
        <ele>867.25</ele>
        <time>2024-03-21T14:00:31Z</time>
      </trkpt>
      <trkpt lat="44.45205" lon="5.22164">
        <ele>865.32</ele>
        <time>2024-03-21T14:00:35Z</time>
      </trkpt>
      <trkpt lat="44.45206" lon="5.22167">
        <ele>864.36</ele>
        <time>2024-03-21T14:00:37Z</time>
      </trkpt>
      <trkpt lat="44.45201" lon="5.22182">
        <ele>861</ele>
        <time>2024-03-21T14:00:52Z</time>
      </trkpt>
      <trkpt lat="44.45205" lon="5.22182">
        <ele>858.59</ele>
        <time>2024-03-21T14:00:59Z</time>
      </trkpt>
      <trkpt lat="44.45214" lon="5.22175">
        <ele>855.71</ele>
        <time>2024-03-21T14:01:09Z</time>
      </trkpt>
      <trkpt lat="44.45221" lon="5.22174">
        <ele>852.83</ele>
        <time>2024-03-21T14:01:18Z</time>
      </trkpt>
      <trkpt lat="44.45225" lon="5.22183">
        <ele>850.42</ele>
        <time>2024-03-21T14:01:30Z</time>
      </trkpt>
      <trkpt lat="44.45226" lon="5.22193">
        <ele>847.06</ele>
        <time>2024-03-21T14:01:40Z</time>
      </trkpt>
      <trkpt lat="44.45232" lon="5.22185">
        <ele>845.62</ele>
        <time>2024-03-21T14:01:53Z</time>
      </trkpt>
      <trkpt lat="44.45235" lon="5.22183">
        <ele>844.18</ele>
        <time>2024-03-21T14:01:57Z</time>
      </trkpt>
      <trkpt lat="44.45244" lon="5.22179">
        <ele>841.29</ele>
        <time>2024-03-21T14:02:04Z</time>
      </trkpt>
      <trkpt lat="44.45246" lon="5.22193">
        <ele>837.93</ele>
        <time>2024-03-21T14:02:15Z</time>
      </trkpt>
      <trkpt lat="44.45247" lon="5.22204">
        <ele>834.56</ele>
        <time>2024-03-21T14:02:27Z</time>
      </trkpt>
      <trkpt lat="44.45246" lon="5.22207">
        <ele>834.56</ele>
        <time>2024-03-21T14:02:28Z</time>
      </trkpt>
      <trkpt lat="44.45253" lon="5.22205">
        <ele>831.68</ele>
        <time>2024-03-21T14:02:40Z</time>
      </trkpt>
      <trkpt lat="44.45268" lon="5.22204">
        <ele>828.79</ele>
        <time>2024-03-21T14:02:52Z</time>
      </trkpt>
      <trkpt lat="44.45282" lon="5.22203">
        <ele>826.39</ele>
        <time>2024-03-21T14:03:04Z</time>
      </trkpt>
      <trkpt lat="44.45292" lon="5.22206">
        <ele>825.43</ele>
        <time>2024-03-21T14:03:16Z</time>
      </trkpt>
      <trkpt lat="44.45308" lon="5.22205">
        <ele>823.99</ele>
        <time>2024-03-21T14:03:30Z</time>
      </trkpt>
      <trkpt lat="44.45309" lon="5.22205">
        <ele>823.99</ele>
        <time>2024-03-21T14:03:31Z</time>
      </trkpt>
      <trkpt lat="44.45318" lon="5.22206">
        <ele>823.51</ele>
        <time>2024-03-21T14:03:38Z</time>
      </trkpt>
      <trkpt lat="44.4532" lon="5.22206">
        <ele>823.51</ele>
        <time>2024-03-21T14:03:39Z</time>
      </trkpt>
      <trkpt lat="44.45332" lon="5.22205">
        <ele>823.03</ele>
        <time>2024-03-21T14:03:52Z</time>
      </trkpt>
      <trkpt lat="44.45337" lon="5.22204">
        <ele>823.03</ele>
        <time>2024-03-21T14:04:08Z</time>
      </trkpt>
      <trkpt lat="44.45339" lon="5.22206">
        <ele>823.03</ele>
        <time>2024-03-21T14:04:28Z</time>
      </trkpt>
      <trkpt lat="44.45342" lon="5.22206">
        <ele>823.99</ele>
        <time>2024-03-21T14:06:18Z</time>
      </trkpt>
      <trkpt lat="44.45353" lon="5.22205">
        <ele>823.99</ele>
        <time>2024-03-21T14:06:33Z</time>
      </trkpt>
      <trkpt lat="44.45364" lon="5.22203">
        <ele>824.95</ele>
        <time>2024-03-21T14:06:44Z</time>
      </trkpt>
      <trkpt lat="44.45368" lon="5.22203">
        <ele>824.95</ele>
        <time>2024-03-21T14:06:48Z</time>
      </trkpt>
      <trkpt lat="44.45385" lon="5.22202">
        <ele>825.91</ele>
        <time>2024-03-21T14:07:02Z</time>
      </trkpt>
      <trkpt lat="44.45399" lon="5.22199">
        <ele>827.35</ele>
        <time>2024-03-21T14:07:13Z</time>
      </trkpt>
      <trkpt lat="44.454" lon="5.222">
        <ele>827.35</ele>
        <time>2024-03-21T14:07:14Z</time>
      </trkpt>
      <trkpt lat="44.45417" lon="5.22198">
        <ele>829.76</ele>
        <time>2024-03-21T14:07:31Z</time>
      </trkpt>
      <trkpt lat="44.45431" lon="5.22197">
        <ele>831.68</ele>
        <time>2024-03-21T14:07:44Z</time>
      </trkpt>
      <trkpt lat="44.45446" lon="5.22197">
        <ele>832.64</ele>
        <time>2024-03-21T14:07:57Z</time>
      </trkpt>
      <trkpt lat="44.45447" lon="5.22197">
        <ele>832.64</ele>
        <time>2024-03-21T14:07:58Z</time>
      </trkpt>
      <trkpt lat="44.45454" lon="5.22197">
        <ele>833.12</ele>
        <time>2024-03-21T14:08:05Z</time>
      </trkpt>
      <trkpt lat="44.45467" lon="5.22204">
        <ele>834.56</ele>
        <time>2024-03-21T14:08:19Z</time>
      </trkpt>
      <trkpt lat="44.45468" lon="5.22205">
        <ele>834.56</ele>
        <time>2024-03-21T14:08:20Z</time>
      </trkpt>
      <trkpt lat="44.45469" lon="5.22206">
        <ele>834.56</ele>
        <time>2024-03-21T14:08:21Z</time>
      </trkpt>
      <trkpt lat="44.4548" lon="5.22219">
        <ele>836</ele>
        <time>2024-03-21T14:08:33Z</time>
      </trkpt>
      <trkpt lat="44.45492" lon="5.22238">
        <ele>836.48</ele>
        <time>2024-03-21T14:08:48Z</time>
      </trkpt>
      <trkpt lat="44.45502" lon="5.22252">
        <ele>836.96</ele>
        <time>2024-03-21T14:08:58Z</time>
      </trkpt>
      <trkpt lat="44.45503" lon="5.22253">
        <ele>836.96</ele>
        <time>2024-03-21T14:08:59Z</time>
      </trkpt>
      <trkpt lat="44.45504" lon="5.22254">
        <ele>836.96</ele>
        <time>2024-03-21T14:09:00Z</time>
      </trkpt>
      <trkpt lat="44.45526" lon="5.22265">
        <ele>836.48</ele>
        <time>2024-03-21T14:09:18Z</time>
      </trkpt>
      <trkpt lat="44.45532" lon="5.22271">
        <ele>835.52</ele>
        <time>2024-03-21T14:09:31Z</time>
      </trkpt>
      <trkpt lat="44.45542" lon="5.22285">
        <ele>836</ele>
        <time>2024-03-21T14:09:47Z</time>
      </trkpt>
      <trkpt lat="44.45548" lon="5.22294">
        <ele>836</ele>
        <time>2024-03-21T14:09:56Z</time>
      </trkpt>
      <trkpt lat="44.4555" lon="5.22295">
        <ele>836.48</ele>
        <time>2024-03-21T14:09:57Z</time>
      </trkpt>
      <trkpt lat="44.45551" lon="5.22296">
        <ele>836.96</ele>
        <time>2024-03-21T14:09:58Z</time>
      </trkpt>
      <trkpt lat="44.45552" lon="5.22297">
        <ele>836.96</ele>
        <time>2024-03-21T14:09:59Z</time>
      </trkpt>
      <trkpt lat="44.45564" lon="5.22312">
        <ele>837.45</ele>
        <time>2024-03-21T14:10:13Z</time>
      </trkpt>
      <trkpt lat="44.45578" lon="5.22329">
        <ele>838.89</ele>
        <time>2024-03-21T14:10:28Z</time>
      </trkpt>
      <trkpt lat="44.45583" lon="5.22336">
        <ele>839.85</ele>
        <time>2024-03-21T14:10:35Z</time>
      </trkpt>
      <trkpt lat="44.45589" lon="5.22339">
        <ele>840.33</ele>
        <time>2024-03-21T14:10:40Z</time>
      </trkpt>
      <trkpt lat="44.4559" lon="5.22339">
        <ele>840.81</ele>
        <time>2024-03-21T14:10:41Z</time>
      </trkpt>
      <trkpt lat="44.45592" lon="5.22339">
        <ele>840.81</ele>
        <time>2024-03-21T14:10:42Z</time>
      </trkpt>
      <trkpt lat="44.45593" lon="5.22338">
        <ele>840.81</ele>
        <time>2024-03-21T14:10:43Z</time>
      </trkpt>
      <trkpt lat="44.45596" lon="5.22336">
        <ele>840.81</ele>
        <time>2024-03-21T14:10:46Z</time>
      </trkpt>
      <trkpt lat="44.45607" lon="5.22329">
        <ele>837.45</ele>
        <time>2024-03-21T14:10:57Z</time>
      </trkpt>
      <trkpt lat="44.4561" lon="5.22328">
        <ele>837.93</ele>
        <time>2024-03-21T14:10:59Z</time>
      </trkpt>
      <trkpt lat="44.45622" lon="5.22332">
        <ele>837.45</ele>
        <time>2024-03-21T14:11:10Z</time>
      </trkpt>
      <trkpt lat="44.45634" lon="5.2235">
        <ele>836</ele>
        <time>2024-03-21T14:11:23Z</time>
      </trkpt>
      <trkpt lat="44.45637" lon="5.22358">
        <ele>836</ele>
        <time>2024-03-21T14:11:27Z</time>
      </trkpt>
      <trkpt lat="44.45638" lon="5.22361">
        <ele>836</ele>
        <time>2024-03-21T14:11:28Z</time>
      </trkpt>
      <trkpt lat="44.45638" lon="5.22363">
        <ele>836</ele>
        <time>2024-03-21T14:11:29Z</time>
      </trkpt>
      <trkpt lat="44.45649" lon="5.22384">
        <ele>835.52</ele>
        <time>2024-03-21T14:11:46Z</time>
      </trkpt>
      <trkpt lat="44.45655" lon="5.224">
        <ele>834.56</ele>
        <time>2024-03-21T14:12:04Z</time>
      </trkpt>
      <trkpt lat="44.45659" lon="5.22411">
        <ele>834.56</ele>
        <time>2024-03-21T14:12:22Z</time>
      </trkpt>
      <trkpt lat="44.4566" lon="5.22413">
        <ele>835.52</ele>
        <time>2024-03-21T14:12:25Z</time>
      </trkpt>
      <trkpt lat="44.45663" lon="5.22416">
        <ele>834.56</ele>
        <time>2024-03-21T14:12:34Z</time>
      </trkpt>
      <trkpt lat="44.45671" lon="5.22419">
        <ele>832.16</ele>
        <time>2024-03-21T14:12:49Z</time>
      </trkpt>
      <trkpt lat="44.45672" lon="5.22419">
        <ele>832.16</ele>
        <time>2024-03-21T14:12:50Z</time>
      </trkpt>
      <trkpt lat="44.45693" lon="5.22414">
        <ele>831.2</ele>
        <time>2024-03-21T14:13:08Z</time>
      </trkpt>
      <trkpt lat="44.45713" lon="5.22401">
        <ele>831.2</ele>
        <time>2024-03-21T14:13:25Z</time>
      </trkpt>
      <trkpt lat="44.45733" lon="5.22389">
        <ele>830.72</ele>
        <time>2024-03-21T14:13:42Z</time>
      </trkpt>
      <trkpt lat="44.45749" lon="5.22381">
        <ele>832.64</ele>
        <time>2024-03-21T14:13:56Z</time>
      </trkpt>
      <trkpt lat="44.4575" lon="5.2238">
        <ele>832.64</ele>
        <time>2024-03-21T14:13:57Z</time>
      </trkpt>
      <trkpt lat="44.45751" lon="5.22379">
        <ele>832.64</ele>
        <time>2024-03-21T14:13:58Z</time>
      </trkpt>
      <trkpt lat="44.45753" lon="5.22379">
        <ele>833.12</ele>
        <time>2024-03-21T14:14:00Z</time>
      </trkpt>
      <trkpt lat="44.45759" lon="5.22377">
        <ele>833.6</ele>
        <time>2024-03-21T14:14:04Z</time>
      </trkpt>
      <trkpt lat="44.4576" lon="5.22377">
        <ele>833.6</ele>
        <time>2024-03-21T14:14:05Z</time>
      </trkpt>
      <trkpt lat="44.45775" lon="5.22369">
        <ele>834.08</ele>
        <time>2024-03-21T14:14:19Z</time>
      </trkpt>
      <trkpt lat="44.45795" lon="5.22365">
        <ele>835.04</ele>
        <time>2024-03-21T14:14:35Z</time>
      </trkpt>
      <trkpt lat="44.45814" lon="5.22367">
        <ele>832.64</ele>
        <time>2024-03-21T14:14:50Z</time>
      </trkpt>
      <trkpt lat="44.45817" lon="5.22368">
        <ele>832.16</ele>
        <time>2024-03-21T14:14:52Z</time>
      </trkpt>
      <trkpt lat="44.45819" lon="5.22369">
        <ele>832.16</ele>
        <time>2024-03-21T14:14:53Z</time>
      </trkpt>
      <trkpt lat="44.45833" lon="5.22385">
        <ele>829.76</ele>
        <time>2024-03-21T14:15:07Z</time>
      </trkpt>
      <trkpt lat="44.45839" lon="5.2239">
        <ele>829.76</ele>
        <time>2024-03-21T14:15:16Z</time>
      </trkpt>
      <trkpt lat="44.4584" lon="5.2239">
        <ele>829.76</ele>
        <time>2024-03-21T14:15:17Z</time>
      </trkpt>
      <trkpt lat="44.45842" lon="5.22391">
        <ele>830.72</ele>
        <time>2024-03-21T14:15:18Z</time>
      </trkpt>
      <trkpt lat="44.45843" lon="5.22392">
        <ele>830.72</ele>
        <time>2024-03-21T14:15:19Z</time>
      </trkpt>
      <trkpt lat="44.45844" lon="5.22392">
        <ele>830.72</ele>
        <time>2024-03-21T14:15:20Z</time>
      </trkpt>
      <trkpt lat="44.45846" lon="5.22392">
        <ele>830.72</ele>
        <time>2024-03-21T14:15:21Z</time>
      </trkpt>
      <trkpt lat="44.45864" lon="5.22396">
        <ele>833.12</ele>
        <time>2024-03-21T14:15:37Z</time>
      </trkpt>
      <trkpt lat="44.45886" lon="5.22399">
        <ele>834.08</ele>
        <time>2024-03-21T14:15:54Z</time>
      </trkpt>
      <trkpt lat="44.4591" lon="5.224">
        <ele>834.56</ele>
        <time>2024-03-21T14:16:12Z</time>
      </trkpt>
      <trkpt lat="44.45927" lon="5.22401">
        <ele>837.93</ele>
        <time>2024-03-21T14:16:28Z</time>
      </trkpt>
      <trkpt lat="44.4594" lon="5.22402">
        <ele>839.85</ele>
        <time>2024-03-21T14:16:43Z</time>
      </trkpt>
      <trkpt lat="44.45952" lon="5.22401">
        <ele>839.85</ele>
        <time>2024-03-21T14:16:57Z</time>
      </trkpt>
      <trkpt lat="44.45961" lon="5.22401">
        <ele>839.85</ele>
        <time>2024-03-21T14:17:08Z</time>
      </trkpt>
      <trkpt lat="44.45972" lon="5.22403">
        <ele>839.85</ele>
        <time>2024-03-21T14:17:21Z</time>
      </trkpt>
      <trkpt lat="44.45984" lon="5.22405">
        <ele>840.81</ele>
        <time>2024-03-21T14:17:35Z</time>
      </trkpt>
      <trkpt lat="44.45996" lon="5.22401">
        <ele>842.25</ele>
        <time>2024-03-21T14:17:50Z</time>
      </trkpt>
      <trkpt lat="44.46007" lon="5.22397">
        <ele>843.69</ele>
        <time>2024-03-21T14:18:02Z</time>
      </trkpt>
      <trkpt lat="44.4601" lon="5.22396">
        <ele>845.14</ele>
        <time>2024-03-21T14:18:07Z</time>
      </trkpt>
      <trkpt lat="44.46019" lon="5.22394">
        <ele>846.58</ele>
        <time>2024-03-21T14:18:20Z</time>
      </trkpt>
      <trkpt lat="44.46019" lon="5.22397">
        <ele>847.54</ele>
        <time>2024-03-21T14:18:40Z</time>
      </trkpt>
      <trkpt lat="44.46023" lon="5.22401">
        <ele>847.54</ele>
        <time>2024-03-21T14:18:59Z</time>
      </trkpt>
      <trkpt lat="44.46033" lon="5.22404">
        <ele>848.5</ele>
        <time>2024-03-21T14:19:12Z</time>
      </trkpt>
      <trkpt lat="44.46048" lon="5.22407">
        <ele>849.94</ele>
        <time>2024-03-21T14:19:26Z</time>
      </trkpt>
      <trkpt lat="44.46062" lon="5.22413">
        <ele>851.87</ele>
        <time>2024-03-21T14:19:41Z</time>
      </trkpt>
      <trkpt lat="44.46076" lon="5.22423">
        <ele>852.35</ele>
        <time>2024-03-21T14:19:56Z</time>
      </trkpt>
      <trkpt lat="44.46087" lon="5.22435">
        <ele>853.31</ele>
        <time>2024-03-21T14:20:10Z</time>
      </trkpt>
      <trkpt lat="44.46097" lon="5.22444">
        <ele>854.75</ele>
        <time>2024-03-21T14:20:22Z</time>
      </trkpt>
      <trkpt lat="44.46109" lon="5.22452">
        <ele>857.15</ele>
        <time>2024-03-21T14:20:36Z</time>
      </trkpt>
      <trkpt lat="44.46122" lon="5.22461">
        <ele>859.56</ele>
        <time>2024-03-21T14:20:50Z</time>
      </trkpt>
      <trkpt lat="44.46126" lon="5.22467">
        <ele>860.04</ele>
        <time>2024-03-21T14:20:56Z</time>
      </trkpt>
      <trkpt lat="44.46137" lon="5.22478">
        <ele>861.96</ele>
        <time>2024-03-21T14:21:11Z</time>
      </trkpt>
      <trkpt lat="44.46147" lon="5.22488">
        <ele>863.4</ele>
        <time>2024-03-21T14:21:26Z</time>
      </trkpt>
      <trkpt lat="44.4616" lon="5.22496">
        <ele>865.8</ele>
        <time>2024-03-21T14:21:41Z</time>
      </trkpt>
      <trkpt lat="44.46172" lon="5.22505">
        <ele>868.21</ele>
        <time>2024-03-21T14:21:55Z</time>
      </trkpt>
      <trkpt lat="44.46184" lon="5.22516">
        <ele>870.61</ele>
        <time>2024-03-21T14:22:10Z</time>
      </trkpt>
      <trkpt lat="44.46193" lon="5.22526">
        <ele>872.53</ele>
        <time>2024-03-21T14:22:22Z</time>
      </trkpt>
      <trkpt lat="44.46205" lon="5.22535">
        <ele>874.46</ele>
        <time>2024-03-21T14:22:35Z</time>
      </trkpt>
      <trkpt lat="44.4622" lon="5.22546">
        <ele>872.53</ele>
        <time>2024-03-21T14:22:49Z</time>
      </trkpt>
      <trkpt lat="44.46236" lon="5.22557">
        <ele>872.53</ele>
        <time>2024-03-21T14:23:03Z</time>
      </trkpt>
      <trkpt lat="44.46252" lon="5.22562">
        <ele>874.46</ele>
        <time>2024-03-21T14:23:17Z</time>
      </trkpt>
      <trkpt lat="44.46261" lon="5.22561">
        <ele>876.38</ele>
        <time>2024-03-21T14:23:30Z</time>
      </trkpt>
      <trkpt lat="44.46271" lon="5.22566">
        <ele>879.26</ele>
        <time>2024-03-21T14:23:42Z</time>
      </trkpt>
      <trkpt lat="44.46284" lon="5.22575">
        <ele>882.15</ele>
        <time>2024-03-21T14:23:56Z</time>
      </trkpt>
      <trkpt lat="44.46296" lon="5.22581">
        <ele>883.59</ele>
        <time>2024-03-21T14:24:10Z</time>
      </trkpt>
      <trkpt lat="44.46303" lon="5.22583">
        <ele>886.95</ele>
        <time>2024-03-21T14:24:23Z</time>
      </trkpt>
      <trkpt lat="44.46309" lon="5.22586">
        <ele>890.32</ele>
        <time>2024-03-21T14:24:36Z</time>
      </trkpt>
      <trkpt lat="44.46314" lon="5.2259">
        <ele>892.72</ele>
        <time>2024-03-21T14:24:51Z</time>
      </trkpt>
      <trkpt lat="44.46322" lon="5.22591">
        <ele>896.09</ele>
        <time>2024-03-21T14:25:08Z</time>
      </trkpt>
      <trkpt lat="44.46331" lon="5.22592">
        <ele>898.49</ele>
        <time>2024-03-21T14:25:24Z</time>
      </trkpt>
      <trkpt lat="44.46341" lon="5.22597">
        <ele>901.37</ele>
        <time>2024-03-21T14:25:40Z</time>
      </trkpt>
      <trkpt lat="44.46351" lon="5.22606">
        <ele>903.78</ele>
        <time>2024-03-21T14:25:56Z</time>
      </trkpt>
      <trkpt lat="44.46363" lon="5.22612">
        <ele>907.14</ele>
        <time>2024-03-21T14:26:12Z</time>
      </trkpt>
      <trkpt lat="44.46372" lon="5.22619">
        <ele>909.54</ele>
        <time>2024-03-21T14:26:25Z</time>
      </trkpt>
      <trkpt lat="44.46383" lon="5.22628">
        <ele>910.99</ele>
        <time>2024-03-21T14:26:39Z</time>
      </trkpt>
      <trkpt lat="44.46393" lon="5.22636">
        <ele>912.43</ele>
        <time>2024-03-21T14:26:52Z</time>
      </trkpt>
      <trkpt lat="44.464" lon="5.22646">
        <ele>913.87</ele>
        <time>2024-03-21T14:27:05Z</time>
      </trkpt>
      <trkpt lat="44.46401" lon="5.22648">
        <ele>913.87</ele>
        <time>2024-03-21T14:27:06Z</time>
      </trkpt>
      <trkpt lat="44.46402" lon="5.2265">
        <ele>914.35</ele>
        <time>2024-03-21T14:27:08Z</time>
      </trkpt>
      <trkpt lat="44.46403" lon="5.2265">
        <ele>914.83</ele>
        <time>2024-03-21T14:27:09Z</time>
      </trkpt>
      <trkpt lat="44.46411" lon="5.22658">
        <ele>915.79</ele>
        <time>2024-03-21T14:27:23Z</time>
      </trkpt>
      <trkpt lat="44.46419" lon="5.22666">
        <ele>917.24</ele>
        <time>2024-03-21T14:27:33Z</time>
      </trkpt>
      <trkpt lat="44.46429" lon="5.22674">
        <ele>919.64</ele>
        <time>2024-03-21T14:27:47Z</time>
      </trkpt>
      <trkpt lat="44.46441" lon="5.22684">
        <ele>922.52</ele>
        <time>2024-03-21T14:28:03Z</time>
      </trkpt>
      <trkpt lat="44.46449" lon="5.22689">
        <ele>922.52</ele>
        <time>2024-03-21T14:28:12Z</time>
      </trkpt>
      <trkpt lat="44.46461" lon="5.22707">
        <ele>925.41</ele>
        <time>2024-03-21T14:28:27Z</time>
      </trkpt>
      <trkpt lat="44.46475" lon="5.22722">
        <ele>926.85</ele>
        <time>2024-03-21T14:28:43Z</time>
      </trkpt>
      <trkpt lat="44.4649" lon="5.2274">
        <ele>926.37</ele>
        <time>2024-03-21T14:28:59Z</time>
      </trkpt>
      <trkpt lat="44.46509" lon="5.22756">
        <ele>925.41</ele>
        <time>2024-03-21T14:29:17Z</time>
      </trkpt>
      <trkpt lat="44.46523" lon="5.2277">
        <ele>925.41</ele>
        <time>2024-03-21T14:29:31Z</time>
      </trkpt>
      <trkpt lat="44.46524" lon="5.22771">
        <ele>925.41</ele>
        <time>2024-03-21T14:29:32Z</time>
      </trkpt>
      <trkpt lat="44.46542" lon="5.22786">
        <ele>926.37</ele>
        <time>2024-03-21T14:29:49Z</time>
      </trkpt>
      <trkpt lat="44.46557" lon="5.22797">
        <ele>928.29</ele>
        <time>2024-03-21T14:30:03Z</time>
      </trkpt>
      <trkpt lat="44.46561" lon="5.22799">
        <ele>928.77</ele>
        <time>2024-03-21T14:30:07Z</time>
      </trkpt>
      <trkpt lat="44.46575" lon="5.22809">
        <ele>930.21</ele>
        <time>2024-03-21T14:30:21Z</time>
      </trkpt>
      <trkpt lat="44.46585" lon="5.22823">
        <ele>932.62</ele>
        <time>2024-03-21T14:30:35Z</time>
      </trkpt>
      <trkpt lat="44.46599" lon="5.22832">
        <ele>933.58</ele>
        <time>2024-03-21T14:30:50Z</time>
      </trkpt>
      <trkpt lat="44.4661" lon="5.22838">
        <ele>935.98</ele>
        <time>2024-03-21T14:31:02Z</time>
      </trkpt>
      <trkpt lat="44.46623" lon="5.22846">
        <ele>938.86</ele>
        <time>2024-03-21T14:31:16Z</time>
      </trkpt>
      <trkpt lat="44.46628" lon="5.22849">
        <ele>939.35</ele>
        <time>2024-03-21T14:31:21Z</time>
      </trkpt>
      <trkpt lat="44.46629" lon="5.22849">
        <ele>939.83</ele>
        <time>2024-03-21T14:31:22Z</time>
      </trkpt>
      <trkpt lat="44.4663" lon="5.2285">
        <ele>939.83</ele>
        <time>2024-03-21T14:31:23Z</time>
      </trkpt>
      <trkpt lat="44.46631" lon="5.2285">
        <ele>939.83</ele>
        <time>2024-03-21T14:31:24Z</time>
      </trkpt>
      <trkpt lat="44.46632" lon="5.2285">
        <ele>939.83</ele>
        <time>2024-03-21T14:31:25Z</time>
      </trkpt>
      <trkpt lat="44.46651" lon="5.22856">
        <ele>939.83</ele>
        <time>2024-03-21T14:31:41Z</time>
      </trkpt>
      <trkpt lat="44.46668" lon="5.22862">
        <ele>939.83</ele>
        <time>2024-03-21T14:31:55Z</time>
      </trkpt>
      <trkpt lat="44.46682" lon="5.22866">
        <ele>938.86</ele>
        <time>2024-03-21T14:32:08Z</time>
      </trkpt>
      <trkpt lat="44.46691" lon="5.22873">
        <ele>940.31</ele>
        <time>2024-03-21T14:32:18Z</time>
      </trkpt>
      <trkpt lat="44.46694" lon="5.22877">
        <ele>940.79</ele>
        <time>2024-03-21T14:32:21Z</time>
      </trkpt>
      <trkpt lat="44.46696" lon="5.22878">
        <ele>941.27</ele>
        <time>2024-03-21T14:32:23Z</time>
      </trkpt>
      <trkpt lat="44.46698" lon="5.2288">
        <ele>941.27</ele>
        <time>2024-03-21T14:32:25Z</time>
      </trkpt>
      <trkpt lat="44.46716" lon="5.22889">
        <ele>943.19</ele>
        <time>2024-03-21T14:32:40Z</time>
      </trkpt>
      <trkpt lat="44.46731" lon="5.22901">
        <ele>943.67</ele>
        <time>2024-03-21T14:32:54Z</time>
      </trkpt>
      <trkpt lat="44.46747" lon="5.22909">
        <ele>945.11</ele>
        <time>2024-03-21T14:33:09Z</time>
      </trkpt>
      <trkpt lat="44.46761" lon="5.22921">
        <ele>946.07</ele>
        <time>2024-03-21T14:33:22Z</time>
      </trkpt>
      <trkpt lat="44.46778" lon="5.22928">
        <ele>946.07</ele>
        <time>2024-03-21T14:33:37Z</time>
      </trkpt>
      <trkpt lat="44.46795" lon="5.22945">
        <ele>946.56</ele>
        <time>2024-03-21T14:33:56Z</time>
      </trkpt>
      <trkpt lat="44.46803" lon="5.2295">
        <ele>946.07</ele>
        <time>2024-03-21T14:37:19Z</time>
      </trkpt>
      <trkpt lat="44.46806" lon="5.22946">
        <ele>946.07</ele>
        <time>2024-03-21T14:37:46Z</time>
      </trkpt>
      <trkpt lat="44.46815" lon="5.22942">
        <ele>944.63</ele>
        <time>2024-03-21T14:37:56Z</time>
      </trkpt>
      <trkpt lat="44.46823" lon="5.22939">
        <ele>943.19</ele>
        <time>2024-03-21T14:38:06Z</time>
      </trkpt>
      <trkpt lat="44.46837" lon="5.22937">
        <ele>942.23</ele>
        <time>2024-03-21T14:38:20Z</time>
      </trkpt>
      <trkpt lat="44.46841" lon="5.22937">
        <ele>941.27</ele>
        <time>2024-03-21T14:38:25Z</time>
      </trkpt>
      <trkpt lat="44.46854" lon="5.22932">
        <ele>937.42</ele>
        <time>2024-03-21T14:38:41Z</time>
      </trkpt>
      <trkpt lat="44.4687" lon="5.22927">
        <ele>934.54</ele>
        <time>2024-03-21T14:38:58Z</time>
      </trkpt>
      <trkpt lat="44.46871" lon="5.22926">
        <ele>934.54</ele>
        <time>2024-03-21T14:38:59Z</time>
      </trkpt>
      <trkpt lat="44.46871" lon="5.22925">
        <ele>934.54</ele>
        <time>2024-03-21T14:39:00Z</time>
      </trkpt>
      <trkpt lat="44.46875" lon="5.2292">
        <ele>932.62</ele>
        <time>2024-03-21T14:39:06Z</time>
      </trkpt>
      <trkpt lat="44.46878" lon="5.22916">
        <ele>933.1</ele>
        <time>2024-03-21T14:39:10Z</time>
      </trkpt>
      <trkpt lat="44.4688" lon="5.22913">
        <ele>930.21</ele>
        <time>2024-03-21T14:39:13Z</time>
      </trkpt>
      <trkpt lat="44.46887" lon="5.22905">
        <ele>926.85</ele>
        <time>2024-03-21T14:39:22Z</time>
      </trkpt>
      <trkpt lat="44.46899" lon="5.22896">
        <ele>923.96</ele>
        <time>2024-03-21T14:39:34Z</time>
      </trkpt>
      <trkpt lat="44.469" lon="5.22895">
        <ele>923.96</ele>
        <time>2024-03-21T14:39:35Z</time>
      </trkpt>
      <trkpt lat="44.46902" lon="5.22894">
        <ele>923.96</ele>
        <time>2024-03-21T14:39:36Z</time>
      </trkpt>
      <trkpt lat="44.46903" lon="5.22893">
        <ele>923.96</ele>
        <time>2024-03-21T14:39:37Z</time>
      </trkpt>
      <trkpt lat="44.46904" lon="5.22892">
        <ele>923</ele>
        <time>2024-03-21T14:39:38Z</time>
      </trkpt>
      <trkpt lat="44.46904" lon="5.2289">
        <ele>922.52</ele>
        <time>2024-03-21T14:39:39Z</time>
      </trkpt>
      <trkpt lat="44.46905" lon="5.22889">
        <ele>922.04</ele>
        <time>2024-03-21T14:39:40Z</time>
      </trkpt>
      <trkpt lat="44.46906" lon="5.22888">
        <ele>921.56</ele>
        <time>2024-03-21T14:39:41Z</time>
      </trkpt>
      <trkpt lat="44.46906" lon="5.22886">
        <ele>921.56</ele>
        <time>2024-03-21T14:39:42Z</time>
      </trkpt>
      <trkpt lat="44.46912" lon="5.22872">
        <ele>918.2</ele>
        <time>2024-03-21T14:39:52Z</time>
      </trkpt>
      <trkpt lat="44.46915" lon="5.22858">
        <ele>915.79</ele>
        <time>2024-03-21T14:40:01Z</time>
      </trkpt>
      <trkpt lat="44.46925" lon="5.22847">
        <ele>912.43</ele>
        <time>2024-03-21T14:40:14Z</time>
      </trkpt>
      <trkpt lat="44.4693" lon="5.22846">
        <ele>910.99</ele>
        <time>2024-03-21T14:40:19Z</time>
      </trkpt>
      <trkpt lat="44.46945" lon="5.22844">
        <ele>908.1</ele>
        <time>2024-03-21T14:40:33Z</time>
      </trkpt>
      <trkpt lat="44.46946" lon="5.22844">
        <ele>907.62</ele>
        <time>2024-03-21T14:40:34Z</time>
      </trkpt>
      <trkpt lat="44.46957" lon="5.22846">
        <ele>904.26</ele>
        <time>2024-03-21T14:40:45Z</time>
      </trkpt>
      <trkpt lat="44.46972" lon="5.22848">
        <ele>901.37</ele>
        <time>2024-03-21T14:40:59Z</time>
      </trkpt>
      <trkpt lat="44.46987" lon="5.22841">
        <ele>898.49</ele>
        <time>2024-03-21T14:41:11Z</time>
      </trkpt>
      <trkpt lat="44.46999" lon="5.22837">
        <ele>896.57</ele>
        <time>2024-03-21T14:41:20Z</time>
      </trkpt>
      <trkpt lat="44.47009" lon="5.22833">
        <ele>893.68</ele>
        <time>2024-03-21T14:41:32Z</time>
      </trkpt>
      <trkpt lat="44.47026" lon="5.22828">
        <ele>889.84</ele>
        <time>2024-03-21T14:41:47Z</time>
      </trkpt>
      <trkpt lat="44.47038" lon="5.22822">
        <ele>886.47</ele>
        <time>2024-03-21T14:41:59Z</time>
      </trkpt>
      <trkpt lat="44.47042" lon="5.22821">
        <ele>885.99</ele>
        <time>2024-03-21T14:42:02Z</time>
      </trkpt>
      <trkpt lat="44.47046" lon="5.2282">
        <ele>885.51</ele>
        <time>2024-03-21T14:42:05Z</time>
      </trkpt>
      <trkpt lat="44.47047" lon="5.2282">
        <ele>885.51</ele>
        <time>2024-03-21T14:42:06Z</time>
      </trkpt>
      <trkpt lat="44.47048" lon="5.22819">
        <ele>884.55</ele>
        <time>2024-03-21T14:42:07Z</time>
      </trkpt>
      <trkpt lat="44.4705" lon="5.22819">
        <ele>884.55</ele>
        <time>2024-03-21T14:42:08Z</time>
      </trkpt>
      <trkpt lat="44.47051" lon="5.22819">
        <ele>884.07</ele>
        <time>2024-03-21T14:42:09Z</time>
      </trkpt>
      <trkpt lat="44.47053" lon="5.22818">
        <ele>884.07</ele>
        <time>2024-03-21T14:42:10Z</time>
      </trkpt>
      <trkpt lat="44.47061" lon="5.22812">
        <ele>882.15</ele>
        <time>2024-03-21T14:42:19Z</time>
      </trkpt>
      <trkpt lat="44.47072" lon="5.22801">
        <ele>879.74</ele>
        <time>2024-03-21T14:42:28Z</time>
      </trkpt>
      <trkpt lat="44.47073" lon="5.228">
        <ele>879.74</ele>
        <time>2024-03-21T14:42:29Z</time>
      </trkpt>
      <trkpt lat="44.47085" lon="5.2279">
        <ele>876.38</ele>
        <time>2024-03-21T14:42:41Z</time>
      </trkpt>
      <trkpt lat="44.47092" lon="5.22777">
        <ele>873.01</ele>
        <time>2024-03-21T14:42:54Z</time>
      </trkpt>
      <trkpt lat="44.47095" lon="5.22774">
        <ele>872.53</ele>
        <time>2024-03-21T14:42:57Z</time>
      </trkpt>
      <trkpt lat="44.47104" lon="5.22763">
        <ele>870.61</ele>
        <time>2024-03-21T14:43:06Z</time>
      </trkpt>
      <trkpt lat="44.47105" lon="5.22762">
        <ele>870.61</ele>
        <time>2024-03-21T14:43:07Z</time>
      </trkpt>
      <trkpt lat="44.47117" lon="5.2275">
        <ele>867.25</ele>
        <time>2024-03-21T14:43:19Z</time>
      </trkpt>
      <trkpt lat="44.47129" lon="5.22742">
        <ele>864.36</ele>
        <time>2024-03-21T14:43:30Z</time>
      </trkpt>
      <trkpt lat="44.47144" lon="5.22724">
        <ele>861</ele>
        <time>2024-03-21T14:43:45Z</time>
      </trkpt>
      <trkpt lat="44.47154" lon="5.22709">
        <ele>858.11</ele>
        <time>2024-03-21T14:43:57Z</time>
      </trkpt>
      <trkpt lat="44.47165" lon="5.22694">
        <ele>854.75</ele>
        <time>2024-03-21T14:44:09Z</time>
      </trkpt>
      <trkpt lat="44.47174" lon="5.22679">
        <ele>851.87</ele>
        <time>2024-03-21T14:44:21Z</time>
      </trkpt>
      <trkpt lat="44.47188" lon="5.22663">
        <ele>848.5</ele>
        <time>2024-03-21T14:44:35Z</time>
      </trkpt>
      <trkpt lat="44.47204" lon="5.22645">
        <ele>845.62</ele>
        <time>2024-03-21T14:44:51Z</time>
      </trkpt>
      <trkpt lat="44.47206" lon="5.22644">
        <ele>845.62</ele>
        <time>2024-03-21T14:44:53Z</time>
      </trkpt>
      <trkpt lat="44.47207" lon="5.22643">
        <ele>845.62</ele>
        <time>2024-03-21T14:44:54Z</time>
      </trkpt>
      <trkpt lat="44.47217" lon="5.22633">
        <ele>843.69</ele>
        <time>2024-03-21T14:45:05Z</time>
      </trkpt>
      <trkpt lat="44.47218" lon="5.22632">
        <ele>843.69</ele>
        <time>2024-03-21T14:45:06Z</time>
      </trkpt>
      <trkpt lat="44.47229" lon="5.2262">
        <ele>841.29</ele>
        <time>2024-03-21T14:45:20Z</time>
      </trkpt>
      <trkpt lat="44.47243" lon="5.22607">
        <ele>837.93</ele>
        <time>2024-03-21T14:45:34Z</time>
      </trkpt>
      <trkpt lat="44.47254" lon="5.22594">
        <ele>834.56</ele>
        <time>2024-03-21T14:45:48Z</time>
      </trkpt>
      <trkpt lat="44.47262" lon="5.22583">
        <ele>831.2</ele>
        <time>2024-03-21T14:45:58Z</time>
      </trkpt>
      <trkpt lat="44.47275" lon="5.22571">
        <ele>828.31</ele>
        <time>2024-03-21T14:46:13Z</time>
      </trkpt>
      <trkpt lat="44.47285" lon="5.22551">
        <ele>826.87</ele>
        <time>2024-03-21T14:46:27Z</time>
      </trkpt>
      <trkpt lat="44.47289" lon="5.22544">
        <ele>824.95</ele>
        <time>2024-03-21T14:46:37Z</time>
      </trkpt>
      <trkpt lat="44.47297" lon="5.22531">
        <ele>822.55</ele>
        <time>2024-03-21T14:46:51Z</time>
      </trkpt>
      <trkpt lat="44.47313" lon="5.22523">
        <ele>819.18</ele>
        <time>2024-03-21T14:47:05Z</time>
      </trkpt>
      <trkpt lat="44.47335" lon="5.22519">
        <ele>815.82</ele>
        <time>2024-03-21T14:47:18Z</time>
      </trkpt>
      <trkpt lat="44.47336" lon="5.22518">
        <ele>816.3</ele>
        <time>2024-03-21T14:47:19Z</time>
      </trkpt>
      <trkpt lat="44.47353" lon="5.22511">
        <ele>812.45</ele>
        <time>2024-03-21T14:47:32Z</time>
      </trkpt>
      <trkpt lat="44.4736" lon="5.225">
        <ele>811.01</ele>
        <time>2024-03-21T14:47:41Z</time>
      </trkpt>
      <trkpt lat="44.4736" lon="5.22499">
        <ele>811.01</ele>
        <time>2024-03-21T14:47:42Z</time>
      </trkpt>
      <trkpt lat="44.47361" lon="5.22497">
        <ele>810.53</ele>
        <time>2024-03-21T14:47:43Z</time>
      </trkpt>
      <trkpt lat="44.47363" lon="5.2249">
        <ele>809.57</ele>
        <time>2024-03-21T14:47:48Z</time>
      </trkpt>
      <trkpt lat="44.47366" lon="5.22476">
        <ele>806.2</ele>
        <time>2024-03-21T14:47:58Z</time>
      </trkpt>
      <trkpt lat="44.47371" lon="5.22461">
        <ele>802.84</ele>
        <time>2024-03-21T14:48:11Z</time>
      </trkpt>
      <trkpt lat="44.47374" lon="5.22448">
        <ele>799.95</ele>
        <time>2024-03-21T14:48:22Z</time>
      </trkpt>
      <trkpt lat="44.47388" lon="5.22428">
        <ele>796.59</ele>
        <time>2024-03-21T14:48:38Z</time>
      </trkpt>
      <trkpt lat="44.47396" lon="5.22426">
        <ele>794.67</ele>
        <time>2024-03-21T14:48:47Z</time>
      </trkpt>
      <trkpt lat="44.474" lon="5.22441">
        <ele>791.78</ele>
        <time>2024-03-21T14:48:58Z</time>
      </trkpt>
      <trkpt lat="44.47402" lon="5.22446">
        <ele>790.82</ele>
        <time>2024-03-21T14:49:02Z</time>
      </trkpt>
      <trkpt lat="44.47409" lon="5.2245">
        <ele>787.94</ele>
        <time>2024-03-21T14:49:14Z</time>
      </trkpt>
      <trkpt lat="44.47418" lon="5.22434">
        <ele>786.02</ele>
        <time>2024-03-21T14:49:25Z</time>
      </trkpt>
      <trkpt lat="44.47423" lon="5.22425">
        <ele>783.61</ele>
        <time>2024-03-21T14:49:33Z</time>
      </trkpt>
      <trkpt lat="44.47424" lon="5.22426">
        <ele>783.61</ele>
        <time>2024-03-21T14:49:34Z</time>
      </trkpt>
      <trkpt lat="44.47426" lon="5.22426">
        <ele>783.13</ele>
        <time>2024-03-21T14:49:35Z</time>
      </trkpt>
      <trkpt lat="44.47427" lon="5.22427">
        <ele>783.13</ele>
        <time>2024-03-21T14:49:36Z</time>
      </trkpt>
      <trkpt lat="44.47429" lon="5.22429">
        <ele>782.65</ele>
        <time>2024-03-21T14:49:37Z</time>
      </trkpt>
      <trkpt lat="44.4743" lon="5.2243">
        <ele>782.65</ele>
        <time>2024-03-21T14:49:38Z</time>
      </trkpt>
      <trkpt lat="44.47431" lon="5.22432">
        <ele>782.65</ele>
        <time>2024-03-21T14:49:39Z</time>
      </trkpt>
      <trkpt lat="44.47432" lon="5.22433">
        <ele>782.17</ele>
        <time>2024-03-21T14:49:40Z</time>
      </trkpt>
      <trkpt lat="44.47432" lon="5.22435">
        <ele>782.17</ele>
        <time>2024-03-21T14:49:41Z</time>
      </trkpt>
      <trkpt lat="44.47433" lon="5.22437">
        <ele>781.69</ele>
        <time>2024-03-21T14:49:42Z</time>
      </trkpt>
      <trkpt lat="44.47432" lon="5.22439">
        <ele>781.69</ele>
        <time>2024-03-21T14:49:43Z</time>
      </trkpt>
      <trkpt lat="44.47431" lon="5.22441">
        <ele>780.73</ele>
        <time>2024-03-21T14:49:44Z</time>
      </trkpt>
      <trkpt lat="44.47431" lon="5.22442">
        <ele>780.73</ele>
        <time>2024-03-21T14:49:45Z</time>
      </trkpt>
      <trkpt lat="44.47431" lon="5.22444">
        <ele>781.21</ele>
        <time>2024-03-21T14:49:46Z</time>
      </trkpt>
      <trkpt lat="44.47436" lon="5.22463">
        <ele>777.84</ele>
        <time>2024-03-21T14:50:00Z</time>
      </trkpt>
      <trkpt lat="44.4744" lon="5.22471">
        <ele>776.4</ele>
        <time>2024-03-21T14:50:07Z</time>
      </trkpt>
      <trkpt lat="44.47444" lon="5.22492">
        <ele>773.52</ele>
        <time>2024-03-21T14:50:21Z</time>
      </trkpt>
      <trkpt lat="44.47457" lon="5.22512">
        <ele>769.67</ele>
        <time>2024-03-21T14:50:38Z</time>
      </trkpt>
      <trkpt lat="44.47467" lon="5.22532">
        <ele>766.79</ele>
        <time>2024-03-21T14:50:52Z</time>
      </trkpt>
      <trkpt lat="44.47475" lon="5.22549">
        <ele>763.9</ele>
        <time>2024-03-21T14:51:04Z</time>
      </trkpt>
      <trkpt lat="44.47484" lon="5.22565">
        <ele>760.54</ele>
        <time>2024-03-21T14:51:17Z</time>
      </trkpt>
      <trkpt lat="44.47493" lon="5.22572">
        <ele>759.1</ele>
        <time>2024-03-21T14:51:25Z</time>
      </trkpt>
      <trkpt lat="44.47513" lon="5.22576">
        <ele>757.18</ele>
        <time>2024-03-21T14:51:42Z</time>
      </trkpt>
      <trkpt lat="44.47526" lon="5.2257">
        <ele>753.81</ele>
        <time>2024-03-21T14:51:57Z</time>
      </trkpt>
      <trkpt lat="44.47539" lon="5.22568">
        <ele>752.37</ele>
        <time>2024-03-21T14:52:10Z</time>
      </trkpt>
      <trkpt lat="44.47555" lon="5.22565">
        <ele>749</ele>
        <time>2024-03-21T14:52:25Z</time>
      </trkpt>
      <trkpt lat="44.47565" lon="5.22565">
        <ele>747.08</ele>
        <time>2024-03-21T14:52:33Z</time>
      </trkpt>
      <trkpt lat="44.47575" lon="5.22577">
        <ele>745.16</ele>
        <time>2024-03-21T14:52:42Z</time>
      </trkpt>
      <trkpt lat="44.47574" lon="5.22593">
        <ele>742.76</ele>
        <time>2024-03-21T14:52:53Z</time>
      </trkpt>
      <trkpt lat="44.47575" lon="5.22597">
        <ele>742.28</ele>
        <time>2024-03-21T14:52:56Z</time>
      </trkpt>
      <trkpt lat="44.47576" lon="5.22599">
        <ele>742.28</ele>
        <time>2024-03-21T14:52:57Z</time>
      </trkpt>
      <trkpt lat="44.4758" lon="5.22601">
        <ele>741.79</ele>
        <time>2024-03-21T14:53:01Z</time>
      </trkpt>
      <trkpt lat="44.47581" lon="5.22602">
        <ele>741.79</ele>
        <time>2024-03-21T14:53:02Z</time>
      </trkpt>
      <trkpt lat="44.47582" lon="5.22602">
        <ele>741.31</ele>
        <time>2024-03-21T14:53:03Z</time>
      </trkpt>
      <trkpt lat="44.47583" lon="5.22603">
        <ele>741.31</ele>
        <time>2024-03-21T14:53:04Z</time>
      </trkpt>
      <trkpt lat="44.47584" lon="5.22604">
        <ele>741.31</ele>
        <time>2024-03-21T14:53:05Z</time>
      </trkpt>
      <trkpt lat="44.47589" lon="5.22603">
        <ele>740.35</ele>
        <time>2024-03-21T14:53:11Z</time>
      </trkpt>
      <trkpt lat="44.4759" lon="5.22602">
        <ele>740.35</ele>
        <time>2024-03-21T14:53:12Z</time>
      </trkpt>
      <trkpt lat="44.47593" lon="5.22599">
        <ele>740.35</ele>
        <time>2024-03-21T14:53:16Z</time>
      </trkpt>
      <trkpt lat="44.47594" lon="5.22598">
        <ele>740.35</ele>
        <time>2024-03-21T14:53:17Z</time>
      </trkpt>
      <trkpt lat="44.47599" lon="5.22591">
        <ele>739.39</ele>
        <time>2024-03-21T14:53:24Z</time>
      </trkpt>
      <trkpt lat="44.476" lon="5.2259">
        <ele>739.39</ele>
        <time>2024-03-21T14:53:25Z</time>
      </trkpt>
      <trkpt lat="44.4761" lon="5.22572">
        <ele>736.99</ele>
        <time>2024-03-21T14:53:40Z</time>
      </trkpt>
      <trkpt lat="44.4762" lon="5.22561">
        <ele>735.07</ele>
        <time>2024-03-21T14:53:51Z</time>
      </trkpt>
      <trkpt lat="44.47626" lon="5.22554">
        <ele>733.14</ele>
        <time>2024-03-21T14:53:59Z</time>
      </trkpt>
      <trkpt lat="44.47635" lon="5.22547">
        <ele>732.66</ele>
        <time>2024-03-21T14:54:10Z</time>
      </trkpt>
      <trkpt lat="44.47638" lon="5.22544">
        <ele>731.22</ele>
        <time>2024-03-21T14:54:14Z</time>
      </trkpt>
      <trkpt lat="44.47653" lon="5.2253">
        <ele>728.82</ele>
        <time>2024-03-21T14:54:29Z</time>
      </trkpt>
      <trkpt lat="44.47666" lon="5.22515">
        <ele>725.93</ele>
        <time>2024-03-21T14:54:43Z</time>
      </trkpt>
      <trkpt lat="44.47675" lon="5.22508">
        <ele>724.49</ele>
        <time>2024-03-21T14:54:52Z</time>
      </trkpt>
      <trkpt lat="44.47684" lon="5.22498">
        <ele>722.09</ele>
        <time>2024-03-21T14:55:04Z</time>
      </trkpt>
      <trkpt lat="44.47696" lon="5.22485">
        <ele>720.65</ele>
        <time>2024-03-21T14:55:17Z</time>
      </trkpt>
      <trkpt lat="44.47697" lon="5.22483">
        <ele>720.65</ele>
        <time>2024-03-21T14:55:18Z</time>
      </trkpt>
      <trkpt lat="44.477" lon="5.22473">
        <ele>720.65</ele>
        <time>2024-03-21T14:55:24Z</time>
      </trkpt>
      <trkpt lat="44.477" lon="5.22472">
        <ele>720.65</ele>
        <time>2024-03-21T14:55:25Z</time>
      </trkpt>
      <trkpt lat="44.47701" lon="5.22468">
        <ele>720.65</ele>
        <time>2024-03-21T14:55:27Z</time>
      </trkpt>
      <trkpt lat="44.47701" lon="5.22466">
        <ele>720.16</ele>
        <time>2024-03-21T14:55:28Z</time>
      </trkpt>
      <trkpt lat="44.47701" lon="5.22464">
        <ele>720.16</ele>
        <time>2024-03-21T14:55:29Z</time>
      </trkpt>
      <trkpt lat="44.477" lon="5.22437">
        <ele>718.24</ele>
        <time>2024-03-21T14:55:43Z</time>
      </trkpt>
      <trkpt lat="44.47706" lon="5.22411">
        <ele>715.36</ele>
        <time>2024-03-21T14:55:58Z</time>
      </trkpt>
      <trkpt lat="44.4771" lon="5.22404">
        <ele>714.4</ele>
        <time>2024-03-21T14:56:08Z</time>
      </trkpt>
      <trkpt lat="44.47712" lon="5.22401">
        <ele>714.4</ele>
        <time>2024-03-21T14:56:10Z</time>
      </trkpt>
      <trkpt lat="44.47712" lon="5.224">
        <ele>714.4</ele>
        <time>2024-03-21T14:56:11Z</time>
      </trkpt>
      <trkpt lat="44.4772" lon="5.22382">
        <ele>713.44</ele>
        <time>2024-03-21T14:56:24Z</time>
      </trkpt>
      <trkpt lat="44.4772" lon="5.22379">
        <ele>712.47</ele>
        <time>2024-03-21T14:56:26Z</time>
      </trkpt>
      <trkpt lat="44.4772" lon="5.22372">
        <ele>711.51</ele>
        <time>2024-03-21T14:56:30Z</time>
      </trkpt>
      <trkpt lat="44.4772" lon="5.2237">
        <ele>711.51</ele>
        <time>2024-03-21T14:56:31Z</time>
      </trkpt>
      <trkpt lat="44.47719" lon="5.22353">
        <ele>710.55</ele>
        <time>2024-03-21T14:56:45Z</time>
      </trkpt>
      <trkpt lat="44.47718" lon="5.22348">
        <ele>710.07</ele>
        <time>2024-03-21T14:56:52Z</time>
      </trkpt>
      <trkpt lat="44.47718" lon="5.22347">
        <ele>710.07</ele>
        <time>2024-03-21T14:56:53Z</time>
      </trkpt>
      <trkpt lat="44.47718" lon="5.22346">
        <ele>710.07</ele>
        <time>2024-03-21T14:56:54Z</time>
      </trkpt>
      <trkpt lat="44.47723" lon="5.22319">
        <ele>707.67</ele>
        <time>2024-03-21T14:57:11Z</time>
      </trkpt>
      <trkpt lat="44.47733" lon="5.22287">
        <ele>704.3</ele>
        <time>2024-03-21T14:57:30Z</time>
      </trkpt>
      <trkpt lat="44.47741" lon="5.22257">
        <ele>701.9</ele>
        <time>2024-03-21T14:57:48Z</time>
      </trkpt>
      <trkpt lat="44.47744" lon="5.22225">
        <ele>699.02</ele>
        <time>2024-03-21T14:58:06Z</time>
      </trkpt>
      <trkpt lat="44.4775" lon="5.22189">
        <ele>695.65</ele>
        <time>2024-03-21T14:58:26Z</time>
      </trkpt>
      <trkpt lat="44.47749" lon="5.22163">
        <ele>693.73</ele>
        <time>2024-03-21T14:58:41Z</time>
      </trkpt>
      <trkpt lat="44.47744" lon="5.22127">
        <ele>692.29</ele>
        <time>2024-03-21T14:59:01Z</time>
      </trkpt>
      <trkpt lat="44.47746" lon="5.22097">
        <ele>689.4</ele>
        <time>2024-03-21T14:59:19Z</time>
      </trkpt>
      <trkpt lat="44.47752" lon="5.22067">
        <ele>687.48</ele>
        <time>2024-03-21T14:59:37Z</time>
      </trkpt>
      <trkpt lat="44.4776" lon="5.22041">
        <ele>686.52</ele>
        <time>2024-03-21T14:59:53Z</time>
      </trkpt>
      <trkpt lat="44.47761" lon="5.22038">
        <ele>686.52</ele>
        <time>2024-03-21T14:59:55Z</time>
      </trkpt>
      <trkpt lat="44.47762" lon="5.22037">
        <ele>686.52</ele>
        <time>2024-03-21T14:59:56Z</time>
      </trkpt>
      <trkpt lat="44.47763" lon="5.22036">
        <ele>686.04</ele>
        <time>2024-03-21T14:59:57Z</time>
      </trkpt>
      <trkpt lat="44.47765" lon="5.22036">
        <ele>686.04</ele>
        <time>2024-03-21T14:59:58Z</time>
      </trkpt>
      <trkpt lat="44.47766" lon="5.22036">
        <ele>686.04</ele>
        <time>2024-03-21T14:59:59Z</time>
      </trkpt>
      <trkpt lat="44.47767" lon="5.22037">
        <ele>686.04</ele>
        <time>2024-03-21T15:00:00Z</time>
      </trkpt>
      <trkpt lat="44.47768" lon="5.22039">
        <ele>686.04</ele>
        <time>2024-03-21T15:00:01Z</time>
      </trkpt>
      <trkpt lat="44.47786" lon="5.22058">
        <ele>687.96</ele>
        <time>2024-03-21T15:00:17Z</time>
      </trkpt>
      <trkpt lat="44.47805" lon="5.22073">
        <ele>687.96</ele>
        <time>2024-03-21T15:00:34Z</time>
      </trkpt>
      <trkpt lat="44.47817" lon="5.22091">
        <ele>687.48</ele>
        <time>2024-03-21T15:00:46Z</time>
      </trkpt>
      <trkpt lat="44.47813" lon="5.22114">
        <ele>687.48</ele>
        <time>2024-03-21T15:01:01Z</time>
      </trkpt>
    </trkseg>
  </trk>
</gpx>